U28973 / G-EZGA 7700 Squawk Report (11th of December, 2019)

Aircraft A319 Reg No. G-EZGA Age 9 years old
Model A319 Jet engines 2 First flight 19-08-10
Registered 27-08-10 Rollout 08-10 Delivered 27-08-10
Construction No. 4427 Line No. N/A Series 111
ADSHEX 40631F Airline name easyJet Owner N/A
Airfield based Luton~Beds~G First tracked 2017-07-13 07:45:00

Flight history for G-EZGA

Route Flight No Date Playback
Alghero-Fertilia (AHO) - Luton (LTN) U22186 2020-01-18 20:08:00
Luton (LTN) - Alghero-Fertilia (AHO) U22185 2020-01-18 16:22:00
Gibraltar (GIB) - Luton (LTN) U22246 2020-01-18 14:30:00
Luton (LTN) - Gibraltar (GIB) U22245 2020-01-18 10:27:00
Krakow John Paul I (KRK) - Luton (LTN) U22112 2020-01-17 16:59:00
Luton (LTN) - Krakow John Paul I (KRK) U22111 2020-01-17 10:01:00
Son Sant Joan (PMI) - Luton (LTN) U22272 2020-01-14 17:30:00
Manchester (MAN) - Son Sant Joan (PMI) U21911 2020-01-14 14:18:00
Munich Airport (MUC) - Manchester (MAN) U21888 2020-01-13 17:58:00
Manchester (MAN) - Munich Airport (MUC) U21887 2020-01-13 14:55:00
Villafranca (VRN) - Manchester (MAN) U21870 2020-01-13 12:59:00
Manchester (MAN) - Villafranca (VRN) U21869 2020-01-13 09:10:00
Schwechat (VIE) - Manchester (MAN) U21980 2020-01-13 06:12:00
Manchester (MAN) - Schwechat (VIE) U21979 2020-01-12 18:28:00
Lisbon (LIS) - Manchester (MAN) U21820 2020-01-12 16:26:00
Manchester (MAN) - Lisbon (LIS) U21819 2020-01-12 11:52:00
Krakow John Paul I (KRK) - Manchester (MAN) U21872 2020-01-11 22:16:00
Manchester (MAN) - Krakow John Paul I (KRK) U21871 2020-01-11 19:53:00
Schiphol (AMS) - Manchester (MAN) U21832 2020-01-11 13:13:00
Manchester (MAN) - Schiphol (AMS) U21831 2020-01-11 11:03:00
Time Lat Lon Altitude Heading Speed Vertical Rate
2019-12-11 11:04:56 GMT 42.692009 23.396902 0 196 3 0
2019-12-11 11:04:46 GMT 42.692070 23.396931 0 196 3 0
2019-12-11 11:04:36 GMT 42.692253 23.396999 0 196 5 0
2019-12-11 11:04:25 GMT 42.692509 23.397095 0 199 6 0
2019-12-11 11:04:15 GMT 42.692757 23.397259 0 168 6 0
2019-12-11 11:04:05 GMT 42.692997 23.397039 0 106 9 0
2019-12-11 11:03:55 GMT 42.693092 23.396599 0 104 8 0
2019-12-11 11:03:45 GMT 42.693195 23.396120 0 115 10 0
2019-12-11 11:03:34 GMT 42.693512 23.395699 0 165 10 0
2019-12-11 11:03:25 GMT 42.694012 23.395689 0 185 16 0
2019-12-11 11:03:14 GMT 42.694748 23.395760 0 185 15 0
2019-12-11 11:03:04 GMT 42.695431 23.395832 0 185 15 0
2019-12-11 11:02:52 GMT 42.696224 23.395931 0 185 16 0
2019-12-11 11:02:43 GMT 42.696831 23.395994 0 182 15 0
2019-12-11 11:02:32 GMT 42.697472 23.396181 0 222 12 0
2019-12-11 11:02:23 GMT 42.697678 23.396791 0 272 16 0
2019-12-11 11:02:12 GMT 42.697586 23.398256 0 272 31 0
2019-12-11 11:02:01 GMT 42.697479 23.400352 0 275 34 0
2019-12-11 11:01:51 GMT 42.697323 23.402641 0 275 38 0
2019-12-11 11:01:41 GMT 42.697189 23.405046 0 275 43 0
2019-12-11 11:01:30 GMT 42.697002 23.408096 0 275 49 0
2019-12-11 11:01:16 GMT 42.696728 23.412678 0 275 60 0
2019-12-11 11:01:09 GMT 42.696568 23.415377 0 275 67 0
2019-12-11 11:00:59 GMT 42.696316 23.419706 0 275 78 0
2019-12-11 11:00:49 GMT 42.695946 23.425758 0 275 105 0
2019-12-11 11:00:37 GMT 42.695435 23.433964 0 275 135 0
2019-12-11 11:00:28 GMT 42.694977 23.441704 1,775 275 135 -704
2019-12-11 11:00:18 GMT 42.694473 23.450193 1,900 275 135 -704
2019-12-11 11:00:07 GMT 42.693893 23.459261 2,050 275 138 -832
2019-12-11 10:59:57 GMT 42.693382 23.468330 2,175 275 140 -768
2019-12-11 10:59:47 GMT 42.692871 23.477592 2,325 275 144 -832
2019-12-11 10:59:36 GMT 42.692265 23.486917 2,450 275 147 -704
2019-12-11 10:59:26 GMT 42.691727 23.496447 2,575 275 151 -768
2019-12-11 10:59:15 GMT 42.691132 23.506933 2,700 275 159 -768
2019-12-11 10:59:05 GMT 42.690491 23.517485 2,850 276 169 -1088
2019-12-11 10:58:58 GMT 42.690029 23.524540 3,000 276 174 -1152
2019-12-11 10:58:55 GMT 42.689751 23.528500 3,050 276 178 -832
2019-12-11 10:58:49 GMT 42.689346 23.534838 3,125 275 186 -1024
2019-12-11 10:58:44 GMT 42.688980 23.541454 3,200 275 188 -1088
2019-12-11 10:58:40 GMT 42.688614 23.547447 3,325 275 191 -1152
2019-12-11 10:58:34 GMT 42.688248 23.553314 3,400 276 195 -1024
2019-12-11 10:58:29 GMT 42.687881 23.558620 3,475 276 199 -768
2019-12-11 10:58:23 GMT 42.687332 23.566111 3,525 276 202 -512
2019-12-11 10:58:19 GMT 42.686874 23.572290 3,575 276 205 -128
2019-12-11 10:58:09 GMT 42.685822 23.585213 3,575 277 205 0
2019-12-11 10:58:02 GMT 42.685089 23.592829 3,575 278 205 0
2019-12-11 10:57:59 GMT 42.684586 23.597738 3,575 279 205 0
2019-12-11 10:57:52 GMT 42.683533 23.606062 3,575 283 205 -64
2019-12-11 10:57:49 GMT 42.682709 23.610619 3,600 287 205 -128
2019-12-11 10:57:39 GMT 42.679001 23.623096 3,600 302 204 -128
2019-12-11 10:57:31 GMT 42.675365 23.629612 3,600 320 202 -320
2019-12-11 10:57:27 GMT 42.672386 23.632870 3,625 329 201 -512
2019-12-11 10:57:21 GMT 42.666569 23.636190 3,700 350 198 -896
2019-12-11 10:57:12 GMT 42.659073 23.637020 3,750 357 195 -832
2019-12-11 10:57:09 GMT 42.655117 23.635807 3,900 14 189 -960
2019-12-11 10:57:00 GMT 42.649254 23.631592 4,050 40 182 -1280
2019-12-11 10:56:56 GMT 42.646553 23.628016 4,150 58 175 -1600
2019-12-11 10:56:49 GMT 42.643066 23.611366 4,825 97 167 -960
2019-12-11 10:56:39 GMT 42.643066 23.611366 4,575 96 165 -1024
2019-12-11 10:56:28 GMT 42.644131 23.600422 4,775 97 166 -960
2019-12-11 10:56:25 GMT 42.644485 23.596636 4,825 97 167 -960
2019-12-11 10:56:17 GMT 42.645264 23.588646 4,950 97 168 -1024
2019-12-11 10:56:07 GMT 42.646225 23.578384 5,175 97 170 -896
2019-12-11 10:55:57 GMT 42.647202 23.567654 5,300 97 172 -960
2019-12-11 10:55:47 GMT 42.648239 23.556435 5,450 97 174 -960
2019-12-11 10:55:36 GMT 42.649384 23.544950 5,625 97 177 -960
2019-12-11 10:55:26 GMT 42.650894 23.532339 5,800 102 179 -896
2019-12-11 10:55:16 GMT 42.653732 23.522978 5,975 127 178 -128
2019-12-11 10:55:05 GMT 42.659771 23.514383 5,975 137 178 0
2019-12-11 10:54:55 GMT 42.665730 23.506910 5,975 137 178 0
2019-12-11 10:54:45 GMT 42.678394 23.490940 5,975 137 179 0
2019-12-11 10:54:34 GMT 42.683468 23.484554 5,975 137 179 0
2019-12-11 10:54:24 GMT 42.684677 23.483089 5,975 137 179 0
2019-12-11 10:54:13 GMT 42.691055 23.475100 5,975 137 179 0
2019-12-11 10:54:04 GMT 42.696945 23.467607 5,975 137 179 0
2019-12-11 10:53:53 GMT 42.703159 23.459770 5,975 136 178 0
2019-12-11 10:53:43 GMT 42.709396 23.451786 5,975 136 176 0
2019-12-11 10:53:33 GMT 42.715393 23.444014 5,975 136 174 64
2019-12-11 10:53:23 GMT 42.721359 23.436329 5,950 136 173 192
2019-12-11 10:53:12 GMT 42.727322 23.428663 5,925 136 173 448
2019-12-11 10:53:01 GMT 42.734024 23.419481 5,750 118 169 1728
2019-12-11 10:52:52 GMT 42.737423 23.411737 5,500 103 171 2176
2019-12-11 10:52:41 GMT 42.738026 23.400368 4,900 73 181 2816
2019-12-11 10:52:31 GMT 42.734348 23.389702 3,025 0 197 2624
2019-12-11 10:52:21 GMT 42.727459 23.382420 4,200 19 194 2432
2019-12-11 10:52:11 GMT 42.718613 23.379801 3,775 358 198 2624
2019-12-11 10:52:00 GMT 42.709076 23.382839 3,325 330 201 2496
2019-12-11 10:51:49 GMT 42.700787 23.393341 2,975 298 208 128
2019-12-11 10:51:40 GMT 42.697945 23.403114 2,975 283 208 64
2019-12-11 10:51:30 GMT 42.696175 23.415825 2,950 280 209 128
2019-12-11 10:51:20 GMT 42.695011 23.429367 2,925 273 178 1280
2019-12-11 10:51:10 GMT 42.694519 23.442827 2,800 273 178 1280
2019-12-11 10:51:00 GMT 42.694107 23.452627 2,550 274 168 2496
2019-12-11 10:50:50 GMT 42.693604 23.463114 2,225 274 159 512
2019-12-11 10:50:37 GMT 42.692917 23.476377 2,250 274 162 -960
2019-12-11 10:50:29 GMT 42.692642 23.483713 2,475 275 168 -896
2019-12-11 10:50:18 GMT 42.691799 23.495922 2,625 277 172 -1536
2019-12-11 10:50:09 GMT 42.690964 23.505695 2,950 277 173 -1216
2019-12-11 10:49:59 GMT 42.690029 23.516619 3,050 277 176 -960
2019-12-11 10:49:46 GMT 42.689053 23.531693 3,125 273 189 -192
2019-12-11 10:49:37 GMT 42.690125 23.541338 3,200 251 202 -1408
2019-12-11 10:49:28 GMT 42.693150 23.552835 3,475 252 202 -1600
2019-12-11 10:49:18 GMT 42.696083 23.566376 3,625 260 206 -768
2019-12-11 10:49:06 GMT 42.697201 23.581066 3,775 275 210 -384
2019-12-11 10:48:57 GMT 42.695526 23.592117 3,825 293 213 -384
2019-12-11 10:48:46 GMT 42.690266 23.604572 3,900 304 216 -448
2019-12-11 10:48:37 GMT 42.684952 23.615362 3,975 306 225 -320
2019-12-11 10:48:27 GMT 42.675835 23.630697 4,050 316 230 -448
2019-12-11 10:48:15 GMT 42.668564 23.637148 4,125 336 232 -832
2019-12-11 10:48:06 GMT 42.658840 23.640661 4,325 357 230 -1024
2019-12-11 10:47:56 GMT 42.648739 23.639320 4,450 17 228 -704
2019-12-11 10:47:46 GMT 42.639381 23.632998 4,550 39 226 -704
2019-12-11 10:47:35 GMT 42.631943 23.620918 4,675 65 227 -896
2019-12-11 10:47:26 GMT 42.629242 23.607059 5,525 98 221 -1536
2019-12-11 10:47:16 GMT 42.629974 23.594452 5,150 98 221 -1536
2019-12-11 10:47:05 GMT 42.631577 23.580156 5,425 98 220 -1088
2019-12-11 10:46:55 GMT 42.633053 23.566696 5,575 98 223 -1408
2019-12-11 10:46:44 GMT 42.634781 23.551067 5,850 98 222 -1728
2019-12-11 10:46:35 GMT 42.636215 23.538143 6,150 98 218 -1728
2019-12-11 10:46:24 GMT 42.637756 23.524349 6,375 98 218 -1280
2019-12-11 10:46:15 GMT 42.639290 23.511063 6,575 98 218 -1024
2019-12-11 10:46:04 GMT 42.640869 23.496822 6,775 98 220 -1152
2019-12-11 10:45:54 GMT 42.642315 23.483404 6,950 98 222 -1152
2019-12-11 10:45:44 GMT 42.643845 23.468733 7,175 98 222 -1344
2019-12-11 10:45:34 GMT 42.645355 23.453501 7,425 97 220 -1984
2019-12-11 10:45:23 GMT 42.646553 23.440992 7,775 96 213 -1792
2019-12-11 10:45:13 GMT 42.647781 23.427345 7,975 96 216 64
2019-12-11 10:45:03 GMT 42.648972 23.413527 7,975 96 226 0
2019-12-11 10:44:53 GMT 42.650299 23.398819 7,975 97 236 0
2019-12-11 10:44:43 GMT 42.651764 23.383442 7,975 97 248 -128
2019-12-11 10:44:33 GMT 42.653183 23.368046 8,000 97 258 -384
2019-12-11 10:44:22 GMT 42.654785 23.351067 8,100 97 266 -1024
2019-12-11 10:44:12 GMT 42.656376 23.334066 8,325 97 267 -1792
2019-12-11 10:44:02 GMT 42.657990 23.316734 8,675 98 265 -1728
2019-12-11 10:43:52 GMT 42.660191 23.300661 8,925 106 264 -1728
2019-12-11 10:43:41 GMT 42.665825 23.284372 9,225 125 265 -1152
2019-12-11 10:43:32 GMT 42.673141 23.272102 9,400 130 270 -960
2019-12-11 10:43:21 GMT 42.681561 23.258823 9,525 130 276 -640
2019-12-11 10:43:11 GMT 42.690220 23.245281 9,650 130 284 -640
2019-12-11 10:43:01 GMT 42.698875 23.231613 9,750 130 292 -512
2019-12-11 10:42:51 GMT 42.708069 23.217295 9,825 130 301 -512
2019-12-11 10:42:41 GMT 42.717499 23.202486 9,925 130 309 -512
2019-12-11 10:42:30 GMT 42.727570 23.186583 10,000 130 318 -768
2019-12-11 10:42:20 GMT 42.737049 23.171635 10,175 131 324 -1664
2019-12-11 10:42:09 GMT 42.747849 23.154749 10,525 131 328 -2048
2019-12-11 10:41:59 GMT 42.758091 23.138676 10,875 130 332 -1856
2019-12-11 10:41:49 GMT 42.768036 23.123037 11,100 130 338 -1344
2019-12-11 10:41:39 GMT 42.778061 23.107122 11,375 130 342 -2176
2019-12-11 10:41:29 GMT 42.788864 23.089952 11,850 130 340 -3264
2019-12-11 10:41:19 GMT 42.799290 23.073269 12,300 130 341 -1984
2019-12-11 10:41:09 GMT 42.809669 23.056837 12,625 130 345 -1984
2019-12-11 10:40:59 GMT 42.820145 23.040293 12,975 130 347 -2432
2019-12-11 10:40:48 GMT 42.830887 23.023256 13,400 130 348 -2496
2019-12-11 10:40:38 GMT 42.842026 23.005632 13,825 130 348 -2368
2019-12-11 10:40:28 GMT 42.852360 22.989220 14,225 130 350 -2496
2019-12-11 10:40:18 GMT 42.862701 22.972858 14,575 130 349 -2688
2019-12-11 10:40:10 GMT 42.871628 22.958614 15,000 130 350 -2304
2019-12-11 10:40:00 GMT 42.882248 22.941753 15,350 130 353 -2048
2019-12-11 10:39:47 GMT 42.895432 22.920801 15,775 130 356 -1920
2019-12-11 10:39:40 GMT 42.903240 22.908392 16,000 130 358 -1920
2019-12-11 10:39:37 GMT 42.906464 22.903236 16,025 130 358 -1984
2019-12-11 10:39:29 GMT 42.914795 22.890079 16,400 130 361 -2304
2019-12-11 10:39:26 GMT 42.918091 22.884914 16,525 130 361 -2304
2019-12-11 10:39:22 GMT 42.922512 22.877916 16,675 130 363 -2240
2019-12-11 10:39:17 GMT 42.928391 22.868616 16,875 130 364 -2240
2019-12-11 10:39:13 GMT 42.932613 22.861959 17,025 130 365 -2368
2019-12-11 10:39:07 GMT 42.939690 22.850779 17,275 130 365 -2624
2019-12-11 10:39:03 GMT 42.943695 22.844500 17,425 130 365 -2752
2019-12-11 10:38:57 GMT 42.950726 22.833317 17,725 130 366 -2432
2019-12-11 10:38:52 GMT 42.956177 22.824736 17,925 130 367 -2304
2019-12-11 10:38:46 GMT 42.963181 22.813557 18,125 130 369 -2688
2019-12-11 10:38:42 GMT 42.966293 22.808512 18,325 129 369 -2880
2019-12-11 10:38:36 GMT 42.973022 22.796827 18,575 126 369 -3008
2019-12-11 10:38:32 GMT 42.977261 22.788717 18,825 124 369 -2752
2019-12-11 10:38:26 GMT 42.982773 22.777596 19,050 123 370 -2624
2019-12-11 10:38:22 GMT 42.986664 22.769804 19,275 124 370 -2560
2019-12-11 10:38:16 GMT 42.992668 22.757786 19,525 124 372 -2496
2019-12-11 10:38:12 GMT 42.996159 22.750725 19,675 124 373 -2432
2019-12-11 10:38:06 GMT 43.003746 22.735487 19,850 124 374 -2304
2019-12-11 10:38:02 GMT 43.006119 22.730713 20,075 124 376 -2240
2019-12-11 10:37:58 GMT 43.010220 22.722342 20,325 124 378 -2496
2019-12-11 10:37:55 GMT 43.012756 22.717299 20,325 124 378 -2560
2019-12-11 10:37:51 GMT 43.016922 22.708868 20,525 124 378 -2688
2019-12-11 10:37:47 GMT 43.020493 22.701651 20,750 124 380 -2560
2019-12-11 10:37:44 GMT 43.024063 22.694496 20,825 124 380 -2496
2019-12-11 10:37:40 GMT 43.027679 22.687279 20,975 124 381 -2304
2019-12-11 10:37:35 GMT 43.032715 22.677059 21,175 123 383 -1664
2019-12-11 10:37:31 GMT 43.036518 22.669373 21,275 124 383 -1344
2019-12-11 10:37:26 GMT 43.043106 22.656044 21,375 124 385 -896
2019-12-11 10:37:20 GMT 43.047638 22.647038 21,475 124 388 -448
2019-12-11 10:37:17 GMT 43.050671 22.640926 21,500 124 388 -512
2019-12-11 10:37:14 GMT 43.053417 22.635302 21,525 124 390 -704
2019-12-11 10:37:11 GMT 43.058121 22.625885 21,575 124 388 -704
2019-12-11 10:37:05 GMT 43.063751 22.614462 21,650 124 388 -896
2019-12-11 10:37:01 GMT 43.067616 22.606659 21,725 124 388 -1344
2019-12-11 10:36:57 GMT 43.070892 22.600092 21,800 124 389 -1856
2019-12-11 10:36:53 GMT 43.077301 22.587189 21,925 124 390 -2688
2019-12-11 10:36:50 GMT 43.077301 22.587189 21,950 124 389 -2240
2019-12-11 10:36:47 GMT 43.081161 22.579325 22,100 124 390 -2560
2019-12-11 10:36:44 GMT 43.084423 22.572849 22,325 124 390 -3008
2019-12-11 10:36:40 GMT 43.087921 22.565790 22,325 124 390 -3008
2019-12-11 10:36:37 GMT 43.091358 22.558855 22,550 124 391 -3008
2019-12-11 10:36:34 GMT 43.094151 22.553230 23,275 124 391 -2880
2019-12-11 10:36:27 GMT 43.101089 22.539236 23,000 124 391 -2752
2019-12-11 10:36:23 GMT 43.106487 22.528316 23,250 124 396 -2432
2019-12-11 10:36:19 GMT 43.108910 22.523478 23,350 124 395 -2496
2019-12-11 10:36:16 GMT 43.116165 22.508942 23,600 124 397 -2368
2019-12-11 10:36:12 GMT 43.116165 22.508942 23,625 124 398 -2304
2019-12-11 10:36:09 GMT 43.119244 22.502682 23,750 124 399 -2368
2019-12-11 10:36:06 GMT 43.122757 22.495592 23,875 124 401 -2432
2019-12-11 10:36:02 GMT 43.126785 22.487545 24,050 123 402 -2560
2019-12-11 10:35:59 GMT 43.129669 22.481668 24,175 124 403 -2560
2019-12-11 10:35:56 GMT 43.133469 22.474068 24,325 124 404 -2560
2019-12-11 10:35:51 GMT 43.143997 22.452732 24,650 124 406 -2496
2019-12-11 10:35:46 GMT 43.143997 22.452732 24,750 124 408 -2624
2019-12-11 10:35:42 GMT 43.149548 22.441538 24,925 124 409 -2816
2019-12-11 10:35:39 GMT 43.150993 22.438595 25,050 124 409 -2880
2019-12-11 10:35:36 GMT 43.154617 22.431335 25,200 124 410 -3008
2019-12-11 10:35:32 GMT 43.159378 22.421690 25,450 123 411 -2752
2019-12-11 10:35:26 GMT 43.166336 22.407574 25,700 123 413 -2112
2019-12-11 10:35:21 GMT 43.170544 22.399031 25,850 123 417 -1536
2019-12-11 10:35:16 GMT 43.176270 22.387390 25,975 123 420 -1600
2019-12-11 10:35:12 GMT 43.184135 22.371368 27,075 123 427 -3136
2019-12-11 10:35:08 GMT 43.184135 22.371368 26,275 123 425 -2944
2019-12-11 10:35:05 GMT 43.187908 22.363651 26,450 123 426 -3136
2019-12-11 10:35:02 GMT 43.190746 22.357962 26,450 123 426 -3136
2019-12-11 10:34:58 GMT 43.195404 22.348415 26,775 123 427 -3200
2019-12-11 10:34:55 GMT 43.198895 22.341288 26,925 123 427 -3200
2019-12-11 10:34:49 GMT 43.204807 22.329254 27,200 123 428 -3008
2019-12-11 10:34:45 GMT 43.209778 22.319174 27,425 123 429 -2944
2019-12-11 10:34:41 GMT 43.213806 22.311062 27,625 123 430 -2944
2019-12-11 10:34:38 GMT 43.219193 22.300089 27,800 123 431 -2944
2019-12-11 10:34:35 GMT 43.220901 22.296560 27,950 123 432 -3008
2019-12-11 10:34:32 GMT 43.224472 22.289280 28,100 123 432 -3392
2019-12-11 10:34:28 GMT 43.229050 22.280018 28,275 123 432 -3840
2019-12-11 10:34:23 GMT 43.233810 22.270309 28,550 123 432 -3904
2019-12-11 10:34:20 GMT 43.239071 22.259739 28,925 124 431 -4032
2019-12-11 10:34:14 GMT 43.248798 22.240055 29,450 124 431 -3200
2019-12-11 10:34:10 GMT 43.248798 22.240055 29,500 124 431 -3136
2019-12-11 10:34:07 GMT 43.252121 22.233261 29,575 124 431 -3200
2019-12-11 10:34:04 GMT 43.255501 22.226519 29,825 124 431 -3456
2019-12-11 10:34:00 GMT 43.259766 22.217869 30,050 124 430 -3840
2019-12-11 10:33:57 GMT 43.266209 22.204872 30,475 124 427 -4288
2019-12-11 10:33:51 GMT 43.270164 22.196831 31,175 123 425 -3776
2019-12-11 10:33:48 GMT 43.277939 22.181076 31,100 123 425 -3840
2019-12-11 10:33:44 GMT 43.277939 22.181076 31,225 123 425 -3648
2019-12-11 10:33:40 GMT 43.284943 22.166834 31,675 123 424 -3008
2019-12-11 10:33:37 GMT 43.289764 22.156874 31,675 123 424 -3008
2019-12-11 10:33:34 GMT 43.289764 22.156874 31,800 123 424 -3072
2019-12-11 10:33:30 GMT 43.293320 22.149651 32,000 123 424 -3200
2019-12-11 10:33:27 GMT 43.295677 22.144840 32,150 123 424 -3200
2019-12-11 10:33:24 GMT 43.300053 22.135752 32,350 123 424 -3072
2019-12-11 10:33:19 GMT 43.304855 22.125698 32,550 123 424 -3264
2019-12-11 10:33:16 GMT 43.308060 22.118944 32,775 122 424 -3520
2019-12-11 10:33:10 GMT 43.314651 22.105003 33,175 122 422 -3712
2019-12-11 10:33:06 GMT 43.319138 22.095469 33,450 123 420 -3776
2019-12-11 10:33:03 GMT 43.321651 22.090237 34,200 123 418 -3264
2019-12-11 10:32:56 GMT 43.329575 22.073769 34,050 123 418 -2880
2019-12-11 10:32:53 GMT 43.332092 22.068531 35,000 123 417 -2432
2019-12-11 10:32:47 GMT 43.341621 22.049038 34,550 123 417 -2112
2019-12-11 10:32:43 GMT 43.343113 22.046028 34,625 123 417 -1792
2019-12-11 10:32:39 GMT 43.347244 22.037617 34,750 123 418 -1408
2019-12-11 10:32:35 GMT 43.352280 22.027269 34,875 123 421 -768
2019-12-11 10:32:29 GMT 43.358093 22.015388 35,000 123 426 0
2019-12-11 10:32:26 GMT 43.365738 21.999676 34,975 123 424 -448
2019-12-11 10:32:19 GMT 43.368942 21.993095 35,025 123 424 -64
2019-12-11 10:32:15 GMT 43.377090 21.976360 35,025 123 424 64
2019-12-11 10:32:09 GMT 43.380157 21.970100 35,025 123 425 128
2019-12-11 10:32:05 GMT 43.384777 21.960625 35,000 123 425 128
2019-12-11 10:32:01 GMT 43.389198 21.951534 35,000 123 426 64
2019-12-11 10:31:58 GMT 43.392014 21.945829 35,000 123 426 0
2019-12-11 10:31:55 GMT 43.396229 21.937212 35,000 123 426 0
2019-12-11 10:31:52 GMT 43.398323 21.932896 35,000 123 427 0
2019-12-11 10:31:48 GMT 43.402794 21.923676 35,000 123 427 0
2019-12-11 10:31:44 GMT 43.407681 21.913540 35,000 123 427 -64
2019-12-11 10:31:41 GMT 43.410965 21.906866 35,025 123 428 -64
2019-12-11 10:31:38 GMT 43.414246 21.900068 35,025 123 428 0
2019-12-11 10:31:34 GMT 43.418621 21.890913 35,025 123 428 0
2019-12-11 10:31:31 GMT 43.421448 21.885149 35,025 123 428 -64
2019-12-11 10:31:28 GMT 43.424927 21.877867 35,025 123 427 -64
2019-12-11 10:31:22 GMT 43.431931 21.863367 35,025 123 428 -64
2019-12-11 10:31:17 GMT 43.437103 21.852636 35,025 123 429 0
2019-12-11 10:31:12 GMT 43.442917 21.840565 35,050 123 429 64
2019-12-11 10:31:06 GMT 43.449203 21.827480 35,025 123 429 128
2019-12-11 10:31:01 GMT 43.454327 21.816820 35,025 123 430 -64
2019-12-11 10:30:57 GMT 43.459030 21.807095 35,025 123 430 -64
2019-12-11 10:30:54 GMT 43.461868 21.801256 35,025 123 430 0
2019-12-11 10:30:51 GMT 43.466080 21.792532 35,025 123 430 0
2019-12-11 10:30:43 GMT 43.473877 21.776472 35,025 123 431 -128
2019-12-11 10:30:40 GMT 43.477203 21.769665 35,025 123 431 0
2019-12-11 10:30:37 GMT 43.480953 21.761889 35,025 123 431 64
2019-12-11 10:30:31 GMT 43.487518 21.748287 35,025 123 432 0
2019-12-11 10:30:27 GMT 43.491760 21.739515 35,025 123 432 64
2019-12-11 10:30:21 GMT 43.498856 21.724890 35,025 123 432 128
2019-12-11 10:30:17 GMT 43.502838 21.716522 35,000 123 432 0
2019-12-11 10:30:10 GMT 43.511078 21.699339 35,000 123 433 0
2019-12-11 10:30:07 GMT 43.514145 21.693016 35,000 123 433 192
2019-12-11 10:30:00 GMT 43.521652 21.677303 35,025 123 433 -128
2019-12-11 10:29:57 GMT 43.525223 21.669956 35,025 123 433 -64
2019-12-11 10:29:49 GMT 43.534149 21.651369 35,025 123 432 -64
2019-12-11 10:29:44 GMT 43.539097 21.641106 35,050 123 433 -64
2019-12-11 10:29:41 GMT 43.543613 21.631754 35,050 123 433 128
2019-12-11 10:29:38 GMT 43.546638 21.625410 35,050 123 433 192
2019-12-11 10:29:30 GMT 43.555672 21.606771 35,025 123 434 128
2019-12-11 10:29:27 GMT 43.558231 21.601410 35,025 123 433 192
2019-12-11 10:29:20 GMT 43.567402 21.582249 35,000 123 434 0
2019-12-11 10:29:16 GMT 43.570267 21.576254 35,000 123 435 0
2019-12-11 10:29:09 GMT 43.578014 21.560080 35,000 123 435 -64
2019-12-11 10:29:04 GMT 43.583679 21.548214 35,000 123 434 -64
2019-12-11 10:29:01 GMT 43.587708 21.539782 35,025 123 434 0
2019-12-11 10:28:54 GMT 43.594540 21.525488 35,000 123 434 128
2019-12-11 10:28:49 GMT 43.600891 21.512190 35,000 123 434 64
2019-12-11 10:28:43 GMT 43.607025 21.499477 35,000 123 435 64
2019-12-11 10:28:40 GMT 43.610092 21.492964 34,975 123 435 0
2019-12-11 10:28:37 GMT 43.618793 21.474674 35,000 123 436 -64
2019-12-11 10:28:32 GMT 43.618793 21.474674 35,000 123 436 -64
2019-12-11 10:28:28 GMT 43.623734 21.464283 35,000 123 436 0
2019-12-11 10:28:25 GMT 43.626572 21.458344 35,000 123 436 0
2019-12-11 10:28:21 GMT 43.630829 21.449400 35,000 123 436 0
2019-12-11 10:28:18 GMT 43.635040 21.440538 35,000 123 435 64
2019-12-11 10:28:13 GMT 43.640213 21.429663 35,000 123 435 0
2019-12-11 10:28:10 GMT 43.643280 21.423147 35,000 123 436 0
2019-12-11 10:28:07 GMT 43.648361 21.412416 35,000 123 437 0
2019-12-11 10:27:59 GMT 43.655090 21.398300 35,000 123 437 0
2019-12-11 10:27:56 GMT 43.658157 21.391850 35,000 123 437 0
2019-12-11 10:27:49 GMT 43.667130 21.373007 35,000 123 437 0
2019-12-11 10:27:46 GMT 43.669739 21.367514 35,000 123 437 -64
2019-12-11 10:27:37 GMT 43.681366 21.343178 35,000 123 439 -64
2019-12-11 10:27:29 GMT 43.689182 21.326687 35,025 123 439 -64
2019-12-11 10:27:26 GMT 43.693466 21.317793 35,025 123 439 -64
2019-12-11 10:27:18 GMT 43.701141 21.301723 35,025 123 440 0
2019-12-11 10:27:15 GMT 43.704254 21.295273 35,000 123 444 -64
2019-12-11 10:27:06 GMT 43.715809 21.271166 35,000 123 444 -64
2019-12-11 10:26:58 GMT 43.723572 21.254969 35,000 123 446 -192
2019-12-11 10:26:53 GMT 43.729156 21.243216 35,025 123 449 128
2019-12-11 10:26:48 GMT 43.735222 21.230492 35,025 123 449 256
2019-12-11 10:26:43 GMT 43.741287 21.217730 35,000 123 450 64
2019-12-11 10:26:38 GMT 43.746368 21.206936 35,000 122 451 -256
2019-12-11 10:26:35 GMT 43.750992 21.197098 35,000 122 451 -320
2019-12-11 10:26:28 GMT 43.758270 21.181641 35,050 122 451 -64
2019-12-11 10:26:21 GMT 43.766273 21.164639 35,075 122 451 0
2019-12-11 10:26:17 GMT 43.769905 21.156857 35,075 122 451 64
2019-12-11 10:26:10 GMT 43.778641 21.138269 35,050 122 451 64
2019-12-11 10:26:07 GMT 43.781342 21.132586 35,050 122 452 64
2019-12-11 10:25:56 GMT 43.794437 21.104801 35,050 123 453 -64
2019-12-11 10:25:46 GMT 43.805889 21.080408 35,050 123 453 0
2019-12-11 10:25:36 GMT 43.816830 21.057129 35,050 122 454 64
2019-12-11 10:25:27 GMT 43.829132 21.030834 35,050 122 454 64
2019-12-11 10:25:15 GMT 43.841408 21.004683 35,025 122 454 0
2019-12-11 10:25:06 GMT 43.851105 20.983952 35,025 123 453 64
2019-12-11 10:24:56 GMT 43.863007 20.958656 35,025 122 452 0
2019-12-11 10:24:53 GMT 43.866405 20.951385 35,025 122 452 0
2019-12-11 10:24:45 GMT 43.875809 20.931376 35,025 122 451 0
2019-12-11 10:24:42 GMT 43.878788 20.924967 35,025 122 451 0
2019-12-11 10:24:35 GMT 43.886051 20.909468 35,025 122 451 0
2019-12-11 10:24:31 GMT 43.891159 20.898615 35,025 122 451 0
2019-12-11 10:24:25 GMT 43.897457 20.885141 35,025 122 450 0
2019-12-11 10:24:20 GMT 43.903694 20.871799 35,025 122 449 64
2019-12-11 10:24:15 GMT 43.909241 20.859907 35,025 122 449 64
2019-12-11 10:24:09 GMT 43.916218 20.844923 35,000 122 449 128
2019-12-11 10:24:05 GMT 43.920315 20.836226 35,000 122 448 -64
2019-12-11 10:23:58 GMT 43.928238 20.819283 35,000 123 448 -64
2019-12-11 10:23:55 GMT 43.931854 20.811556 35,000 123 448 -128
2019-12-11 10:23:45 GMT 43.943451 20.786919 35,025 123 447 0
2019-12-11 10:23:34 GMT 43.956116 20.759945 35,000 122 446 64
2019-12-11 10:23:24 GMT 43.966496 20.737806 35,000 123 446 -64
2019-12-11 10:23:14 GMT 43.978317 20.712742 35,025 123 445 -64
2019-12-11 10:23:04 GMT 43.989578 20.688917 35,000 123 444 256
2019-12-11 10:22:54 GMT 44.001938 20.662600 34,950 122 444 0
2019-12-11 10:22:50 GMT 44.004620 20.656847 34,950 122 444 0
2019-12-11 10:22:41 GMT 44.015327 20.633959 34,950 122 443 0
2019-12-11 10:22:36 GMT 44.020340 20.623190 34,950 122 442 0
2019-12-11 10:22:33 GMT 44.023613 20.616106 34,950 122 443 0
2019-12-11 10:22:29 GMT 44.027893 20.606966 34,950 122 443 64
2019-12-11 10:22:23 GMT 44.035156 20.591190 34,950 122 442 64
2019-12-11 10:22:18 GMT 44.039841 20.580971 34,950 122 442 0
2019-12-11 10:22:13 GMT 44.046192 20.567190 34,950 122 441 0
2019-12-11 10:22:08 GMT 44.051285 20.555996 34,950 122 441 -64
2019-12-11 10:22:03 GMT 44.057133 20.543192 34,950 122 441 -64
2019-12-11 10:21:59 GMT 44.062454 20.531595 34,950 122 441 -64
2019-12-11 10:21:52 GMT 44.068584 20.518276 34,950 122 441 -128
2019-12-11 10:21:48 GMT 44.075893 20.502451 34,975 122 441 -64
2019-12-11 10:21:42 GMT 44.079849 20.493845 34,975 122 441 -128
2019-12-11 10:21:38 GMT 44.083603 20.485733 34,975 122 441 -64
2019-12-11 10:21:35 GMT 44.087128 20.478132 34,975 122 441 -64
2019-12-11 10:21:32 GMT 44.090652 20.470404 35,000 122 441 -64
2019-12-11 10:21:28 GMT 44.095348 20.460270 35,000 122 441 -64
2019-12-11 10:21:21 GMT 44.102425 20.445032 35,000 122 442 -64
2019-12-11 10:21:17 GMT 44.107967 20.433001 35,000 122 442 -64
2019-12-11 10:21:12 GMT 44.113506 20.421099 35,000 122 442 -128
2019-12-11 10:21:07 GMT 44.118210 20.410831 35,025 122 443 -128
2019-12-11 10:21:01 GMT 44.124756 20.396564 35,025 122 443 -64
2019-12-11 10:20:56 GMT 44.129929 20.385323 35,050 122 443 -128
2019-12-11 10:20:51 GMT 44.140915 20.361179 35,050 122 443 0
2019-12-11 10:20:46 GMT 44.140915 20.361179 35,050 122 443 0
2019-12-11 10:20:41 GMT 44.146931 20.347857 35,050 122 444 0
2019-12-11 10:20:37 GMT 44.151855 20.337034 35,050 122 444 64
2019-12-11 10:20:30 GMT 44.160461 20.318129 35,025 122 444 128
2019-12-11 10:20:27 GMT 44.162384 20.313848 35,025 122 445 64
2019-12-11 10:20:21 GMT 44.169228 20.298876 35,000 122 446 64
2019-12-11 10:20:15 GMT 44.175095 20.285994 35,025 122 447 0
2019-12-11 10:20:11 GMT 44.180511 20.274055 35,000 122 447 0
2019-12-11 10:20:06 GMT 44.185684 20.262686 35,000 122 447 128
2019-12-11 10:20:00 GMT 44.192131 20.248587 35,000 122 447 128
2019-12-11 10:19:56 GMT 44.196323 20.239363 35,000 122 448 128
2019-12-11 10:19:45 GMT 44.208435 20.212881 34,975 122 449 -128
2019-12-11 10:19:38 GMT 44.217690 20.192602 35,000 122 449 -256
2019-12-11 10:19:27 GMT 44.228584 20.168621 35,050 122 448 0
2019-12-11 10:19:24 GMT 44.232376 20.160303 35,025 122 449 128
2019-12-11 10:19:20 GMT 44.237103 20.149931 35,025 122 449 128
2019-12-11 10:19:16 GMT 44.240685 20.142094 35,025 122 449 128
2019-12-11 10:19:13 GMT 44.244225 20.134321 35,000 122 449 0
2019-12-11 10:19:09 GMT 44.248741 20.124475 35,025 122 449 -64
2019-12-11 10:19:05 GMT 44.253296 20.114464 35,025 122 450 -128
2019-12-11 10:19:02 GMT 44.256607 20.107258 35,025 122 449 -64
2019-12-11 10:18:59 GMT 44.259933 20.099880 35,050 122 449 -64
2019-12-11 10:18:53 GMT 44.267532 20.083269 35,050 122 450 0
2019-12-11 10:18:49 GMT 44.271084 20.075438 35,050 122 450 0
2019-12-11 10:18:45 GMT 44.275368 20.065992 35,050 122 450 64
2019-12-11 10:18:42 GMT 44.279205 20.057634 35,050 122 450 64
2019-12-11 10:18:39 GMT 44.282318 20.050835 35,050 122 450 64
2019-12-11 10:18:33 GMT 44.288307 20.037724 35,025 122 451 0
2019-12-11 10:18:29 GMT 44.293804 20.025799 35,025 122 451 -64
2019-12-11 10:18:24 GMT 44.299347 20.013756 35,025 122 452 0
2019-12-11 10:18:21 GMT 44.303421 20.004795 35,050 122 452 0
2019-12-11 10:18:18 GMT 44.305344 20.000675 35,050 122 452 0
2019-12-11 10:18:13 GMT 44.311306 19.987680 35,050 122 452 0
2019-12-11 10:18:10 GMT 44.314728 19.980337 35,025 122 452 0
2019-12-11 10:18:07 GMT 44.318523 19.971939 35,025 122 451 0
2019-12-11 10:18:03 GMT 44.322418 19.963531 35,025 122 452 0
2019-12-11 10:17:58 GMT 44.328114 19.950905 35,025 122 452 0
2019-12-11 10:17:54 GMT 44.333130 19.939924 35,025 122 452 64
2019-12-11 10:17:51 GMT 44.337158 19.931030 35,025 122 452 64
2019-12-11 10:17:48 GMT 44.339561 19.925716 35,025 122 452 64
2019-12-11 10:17:45 GMT 44.343842 19.916250 35,025 122 452 64
2019-12-11 10:17:40 GMT 44.352814 19.896305 35,000 122 452 0
2019-12-11 10:17:33 GMT 44.356415 19.888334 35,000 122 452 -64
2019-12-11 10:17:27 GMT 44.364624 19.870148 35,025 122 452 -64
2019-12-11 10:17:22 GMT 44.367783 19.863150 35,025 122 451 -64
2019-12-11 10:17:16 GMT 44.375221 19.846802 35,025 122 451 64
2019-12-11 10:17:12 GMT 44.379692 19.836821 35,025 122 451 64
2019-12-11 10:17:06 GMT 44.385883 19.823154 35,000 122 452 64
2019-12-11 10:17:01 GMT 44.391998 19.809526 35,000 122 451 64
2019-12-11 10:16:57 GMT 44.396301 19.799978 35,000 122 451 -64
2019-12-11 10:16:50 GMT 44.404083 19.782694 35,025 122 451 0
2019-12-11 10:16:47 GMT 44.407425 19.775261 35,025 122 451 0
2019-12-11 10:16:42 GMT 44.413116 19.762663 35,025 122 451 0
2019-12-11 10:16:39 GMT 44.417130 19.753679 35,025 122 451 64
2019-12-11 10:16:31 GMT 44.425140 19.735826 35,025 122 451 0
2019-12-11 10:16:26 GMT 44.430340 19.724344 35,025 122 451 0
2019-12-11 10:16:22 GMT 44.435349 19.713200 35,025 122 451 0
2019-12-11 10:16:16 GMT 44.441978 19.698553 35,025 122 450 -64
2019-12-11 10:16:10 GMT 44.448807 19.683380 35,025 122 450 0
2019-12-11 10:16:06 GMT 44.452652 19.674944 35,025 122 450 0
2019-12-11 10:16:02 GMT 44.460880 19.656618 35,025 122 450 0
2019-12-11 10:15:56 GMT 44.464188 19.649244 35,025 122 449 0
2019-12-11 10:15:50 GMT 44.470562 19.635048 35,000 121 449 0
2019-12-11 10:15:44 GMT 44.477097 19.620405 35,000 121 449 64
2019-12-11 10:15:39 GMT 44.482315 19.608765 35,000 121 449 0
2019-12-11 10:15:33 GMT 44.488861 19.594116 35,000 121 449 64
2019-12-11 10:15:30 GMT 44.492844 19.585157 35,000 121 449 0
2019-12-11 10:15:25 GMT 44.497982 19.573685 35,000 122 448 64
2019-12-11 10:15:22 GMT 44.501312 19.566322 35,000 122 448 64
2019-12-11 10:15:19 GMT 44.504333 19.559523 35,000 122 448 64
2019-12-11 10:15:14 GMT 44.509758 19.547491 34,975 122 448 128
2019-12-11 10:15:11 GMT 44.512783 19.540726 34,975 122 448 128
2019-12-11 10:15:08 GMT 44.517014 19.531273 34,975 122 448 64
2019-12-11 10:15:02 GMT 44.523926 19.515774 34,975 122 448 0
2019-12-11 10:14:59 GMT 44.526844 19.509308 34,975 122 447 64
2019-12-11 10:14:55 GMT 44.531067 19.499882 34,975 122 447 0
2019-12-11 10:14:50 GMT 44.537567 19.485298 34,975 122 447 0
2019-12-11 10:14:47 GMT 44.539692 19.480635 34,975 122 447 0
2019-12-11 10:14:44 GMT 44.542511 19.474314 34,975 122 447 -64
2019-12-11 10:14:38 GMT 44.549282 19.459131 34,975 121 446 64
2019-12-11 10:14:34 GMT 44.553955 19.448677 34,975 121 445 128
2019-12-11 10:14:28 GMT 44.560410 19.434095 34,950 121 445 128
2019-12-11 10:14:24 GMT 44.564804 19.424219 34,950 121 445 0
2019-12-11 10:14:17 GMT 44.572037 19.408003 34,950 121 445 -128
2019-12-11 10:14:14 GMT 44.575974 19.399174 34,950 121 445 -128
2019-12-11 10:14:07 GMT 44.583344 19.382433 34,950 121 444 -64
2019-12-11 10:14:04 GMT 44.586823 19.374586 34,950 121 444 -64
2019-12-11 10:13:57 GMT 44.594238 19.357910 34,975 121 444 -64
2019-12-11 10:13:53 GMT 44.598392 19.348532 34,975 121 444 -64
2019-12-11 10:13:46 GMT 44.606049 19.331360 34,975 121 444 -64
2019-12-11 10:13:43 GMT 44.610626 19.321093 34,975 121 444 -64
2019-12-11 10:13:36 GMT 44.616642 19.307400 34,975 121 444 -128
2019-12-11 10:13:33 GMT 44.619873 19.300035 35,000 121 443 0
2019-12-11 10:13:26 GMT 44.627861 19.281811 35,000 121 444 -64
2019-12-11 10:13:23 GMT 44.630653 19.275446 35,000 121 443 0
2019-12-11 10:13:16 GMT 44.638382 19.257692 35,000 121 444 0
2019-12-11 10:13:13 GMT 44.642246 19.248852 35,000 121 444 64
2019-12-11 10:13:06 GMT 44.649811 19.231567 35,000 121 444 64
2019-12-11 10:13:03 GMT 44.652534 19.225269 35,000 121 444 0
2019-12-11 10:12:59 GMT 44.655979 19.217434 35,000 121 444 0
2019-12-11 10:12:55 GMT 44.660355 19.207451 35,000 121 445 0
2019-12-11 10:12:51 GMT 44.665192 19.196384 35,000 121 445 0
2019-12-11 10:12:45 GMT 44.671783 19.181278 35,000 121 444 0
2019-12-11 10:12:40 GMT 44.679657 19.163099 35,000 121 444 -64
2019-12-11 10:12:35 GMT 44.682266 19.157084 35,000 121 443 -128
2019-12-11 10:12:30 GMT 44.688995 19.141584 35,000 121 443 -128
2019-12-11 10:12:25 GMT 44.693172 19.131887 35,025 121 444 -128
2019-12-11 10:12:22 GMT 44.696320 19.124580 35,025 121 444 -128
2019-12-11 10:12:14 GMT 44.704468 19.105618 35,025 121 445 64
2019-12-11 10:12:11 GMT 44.709003 19.095041 35,025 121 447 64
2019-12-11 10:12:04 GMT 44.718155 19.073900 34,975 121 450 192
2019-12-11 10:12:01 GMT 44.723236 19.062391 34,975 121 450 192
2019-12-11 10:11:54 GMT 44.726692 19.054781 34,975 123 453 -64
2019-12-11 10:11:51 GMT 44.730927 19.045454 34,975 123 453 -64
2019-12-11 10:11:48 GMT 44.732697 19.041651 34,975 123 453 -64
2019-12-11 10:11:44 GMT 44.737839 19.030609 35,000 123 453 -64
2019-12-11 10:11:40 GMT 44.743057 19.019688 35,000 124 452 64
2019-12-11 10:11:32 GMT 44.752075 19.000984 35,000 124 452 128
2019-12-11 10:11:29 GMT 44.755554 18.993820 35,000 124 452 128
2019-12-11 10:11:22 GMT 44.762787 18.978750 34,975 124 452 0
2019-12-11 10:11:18 GMT 44.768028 18.967829 34,975 123 451 -128
2019-12-11 10:11:13 GMT 44.774223 18.954899 35,000 123 451 -256
2019-12-11 10:11:10 GMT 44.777206 18.948669 35,000 123 451 -256
2019-12-11 10:11:02 GMT 44.786865 18.928461 35,050 123 449 -192
2019-12-11 10:10:59 GMT 44.791077 18.919634 35,050 124 450 -384
2019-12-11 10:10:52 GMT 44.797775 18.905729 35,075 124 450 -768
2019-12-11 10:10:48 GMT 44.803207 18.894392 35,075 124 450 -832
2019-12-11 10:10:42 GMT 44.816353 18.867144 35,250 124 451 -1024
2019-12-11 10:10:38 GMT 44.816353 18.867144 35,300 124 451 -1024
2019-12-11 10:10:34 GMT 44.818958 18.861784 35,350 124 451 -1024
2019-12-11 10:10:30 GMT 44.824173 18.850904 35,425 124 452 -1024
2019-12-11 10:10:26 GMT 44.828175 18.842491 35,475 123 451 -1024
2019-12-11 10:10:21 GMT 44.834610 18.829062 35,575 123 451 -1024
2019-12-11 10:10:18 GMT 44.838093 18.821791 35,625 123 452 -1024
2019-12-11 10:10:15 GMT 44.841305 18.815025 35,650 123 452 -1024
2019-12-11 10:10:11 GMT 44.845772 18.805511 35,750 123 452 -1024
2019-12-11 10:10:07 GMT 44.850941 18.794661 35,800 123 452 -960
2019-12-11 10:09:59 GMT 44.859833 18.775837 35,900 123 453 -960
2019-12-11 10:09:56 GMT 44.863815 18.767395 35,975 123 454 -960
2019-12-11 10:09:53 GMT 44.866814 18.761099 36,025 123 454 -960
2019-12-11 10:09:50 GMT 44.871964 18.750261 36,075 123 454 -960
2019-12-11 10:09:47 GMT 44.875534 18.742807 36,150 123 456 -960
2019-12-11 10:09:44 GMT 44.881805 18.729612 36,250 123 457 -960
2019-12-11 10:09:40 GMT 44.881805 18.729612 36,250 123 457 -960
2019-12-11 10:09:34 GMT 44.889084 18.714359 36,325 123 458 -960
2019-12-11 10:09:31 GMT 44.893581 18.704826 36,400 123 458 -960
2019-12-11 10:09:28 GMT 44.895863 18.700136 36,425 123 458 -960
2019-12-11 10:09:24 GMT 44.901123 18.689016 36,475 123 458 -896
2019-12-11 10:09:18 GMT 44.907898 18.674730 36,575 123 459 -896
2019-12-11 10:09:15 GMT 44.911968 18.666241 36,650 123 459 -896
2019-12-11 10:09:08 GMT 44.919559 18.650297 36,700 123 461 -960
2019-12-11 10:09:03 GMT 44.925339 18.638174 36,800 123 462 -1024
2019-12-11 10:08:58 GMT 44.931702 18.624769 36,875 123 462 -896
2019-12-11 10:08:53 GMT 44.937286 18.613064 36,950 123 462 -512
2019-12-11 10:08:50 GMT 44.942596 18.601814 37,000 123 462 -256
2019-12-11 10:08:45 GMT 44.948685 18.588999 37,025 123 462 0
2019-12-11 10:08:37 GMT 44.956787 18.571865 37,025 123 462 -64
2019-12-11 10:08:33 GMT 44.961826 18.561268 37,025 123 462 -128
2019-12-11 10:08:27 GMT 44.968903 18.546194 37,025 123 463 -128
2019-12-11 10:08:23 GMT 44.973141 18.537151 37,050 123 462 -64
2019-12-11 10:08:19 GMT 44.978989 18.524845 37,050 123 462 0
2019-12-11 10:08:12 GMT 44.986542 18.508759 37,050 123 462 -64
2019-12-11 10:08:08 GMT 44.991062 18.499168 37,050 123 462 0
2019-12-11 10:08:05 GMT 44.998650 18.483089 37,050 123 462 0
2019-12-11 10:08:01 GMT 44.998650 18.483089 37,050 123 462 0
2019-12-11 10:07:57 GMT 45.004234 18.471233 37,050 123 462 0
2019-12-11 10:07:51 GMT 45.012661 18.453279 37,050 123 462 64
2019-12-11 10:07:46 GMT 45.016251 18.445654 37,025 123 462 64
2019-12-11 10:07:41 GMT 45.023346 18.430613 37,025 123 462 64
2019-12-11 10:07:38 GMT 45.027603 18.421587 37,025 123 462 64
2019-12-11 10:07:30 GMT 45.035473 18.404913 37,025 123 462 64
2019-12-11 10:07:27 GMT 45.039505 18.396345 37,025 123 462 0
2019-12-11 10:07:20 GMT 45.047855 18.378653 37,025 123 462 64
2019-12-11 10:07:16 GMT 45.052368 18.369011 37,025 123 462 64
2019-12-11 10:07:11 GMT 45.058655 18.355677 37,025 123 461 64
2019-12-11 10:07:06 GMT 45.064476 18.343283 37,000 123 462 128
2019-12-11 10:06:58 GMT 45.073273 18.324526 37,000 123 461 64
2019-12-11 10:06:55 GMT 45.076767 18.317085 37,000 123 461 64
2019-12-11 10:06:50 GMT 45.083542 18.302633 37,000 123 461 64
2019-12-11 10:06:45 GMT 45.088577 18.291843 36,975 123 461 64
2019-12-11 10:06:39 GMT 45.095387 18.277431 36,975 123 461 0
2019-12-11 10:06:34 GMT 45.101898 18.263462 36,975 123 461 -64
2019-12-11 10:06:29 GMT 45.107895 18.250580 36,975 123 460 0
2019-12-11 10:06:25 GMT 45.112843 18.239918 36,975 123 459 0
2019-12-11 10:06:18 GMT 45.120071 18.224422 37,000 123 459 -64
2019-12-11 10:06:14 GMT 45.125565 18.212650 37,000 123 459 -64
2019-12-11 10:06:10 GMT 45.130783 18.201468 37,000 123 459 0
2019-12-11 10:06:03 GMT 45.138245 18.185448 37,000 123 458 0
2019-12-11 10:05:55 GMT 45.148270 18.164085 37,000 123 458 -64
2019-12-11 10:05:48 GMT 45.155502 18.148695 37,000 123 458 0
2019-12-11 10:05:43 GMT 45.161270 18.136465 37,000 123 458 0
2019-12-11 10:05:39 GMT 45.166718 18.124760 37,000 123 458 0
2019-12-11 10:05:34 GMT 45.173409 18.110493 37,000 123 458 0
2019-12-11 10:05:28 GMT 45.179443 18.097622 37,000 123 457 -64
2019-12-11 10:05:23 GMT 45.184673 18.086376 37,000 123 457 -64
2019-12-11 10:05:17 GMT 45.192123 18.070482 37,000 123 457 -64
2019-12-11 10:05:14 GMT 45.196869 18.060318 37,000 123 457 0
2019-12-11 10:05:08 GMT 45.202789 18.047594 37,000 123 456 0
2019-12-11 10:05:03 GMT 45.208740 18.034777 37,000 123 456 0
2019-12-11 10:04:58 GMT 45.214466 18.022535 37,000 123 456 0
2019-12-11 10:04:53 GMT 45.220146 18.010410 37,000 123 456 0
2019-12-11 10:04:46 GMT 45.229221 17.990849 37,000 123 456 64
2019-12-11 10:04:43 GMT 45.232498 17.983768 37,000 123 455 0
2019-12-11 10:04:36 GMT 45.239140 17.969412 37,000 123 455 0
2019-12-11 10:04:32 GMT 45.244122 17.958694 37,000 123 455 0
2019-12-11 10:04:26 GMT 45.251522 17.942751 37,000 123 455 0
2019-12-11 10:04:22 GMT 45.255890 17.933285 37,000 123 456 0
2019-12-11 10:04:16 GMT 45.262321 17.919371 37,000 123 455 0
2019-12-11 10:04:12 GMT 45.267673 17.907715 37,000 123 455 0
2019-12-11 10:04:07 GMT 45.273834 17.894308 37,000 123 455 0
2019-12-11 10:04:01 GMT 45.280708 17.879444 37,000 122 455 0
2019-12-11 10:03:56 GMT 45.285599 17.868727 37,000 122 455 64
2019-12-11 10:03:50 GMT 45.292236 17.854353 36,975 123 455 0
2019-12-11 10:03:45 GMT 45.297821 17.842190 36,975 123 455 0
2019-12-11 10:03:40 GMT 45.303474 17.829941 36,975 123 455 0
2019-12-11 10:03:35 GMT 45.309620 17.816608 36,975 123 455 64
2019-12-11 10:03:32 GMT 45.313568 17.808052 36,975 123 454 0
2019-12-11 10:03:26 GMT 45.321442 17.791117 36,975 123 454 0
2019-12-11 10:03:22 GMT 45.324886 17.783649 36,975 123 454 0
2019-12-11 10:03:18 GMT 45.329544 17.773590 36,975 123 455 0
2019-12-11 10:03:15 GMT 45.332794 17.766594 36,975 123 455 0
2019-12-11 10:03:09 GMT 45.339432 17.752272 36,975 123 455 0
2019-12-11 10:03:03 GMT 45.347946 17.733765 36,975 123 455 0
2019-12-11 10:02:59 GMT 45.351196 17.726702 36,975 123 455 -64
2019-12-11 10:02:54 GMT 45.356323 17.715519 36,975 123 454 -64
2019-12-11 10:02:49 GMT 45.363144 17.700674 36,975 123 454 -64
2019-12-11 10:02:45 GMT 45.368271 17.689491 36,975 123 454 -64
2019-12-11 10:02:41 GMT 45.372185 17.680954 36,975 122 454 -64
2019-12-11 10:02:34 GMT 45.380219 17.663401 37,000 122 454 0
2019-12-11 10:02:31 GMT 45.385025 17.652937 37,000 122 454 -64
2019-12-11 10:02:24 GMT 45.391689 17.638350 37,000 122 453 0
2019-12-11 10:02:19 GMT 45.397743 17.625017 37,000 122 453 64
2019-12-11 10:02:12 GMT 45.405796 17.607332 36,975 122 454 0
2019-12-11 10:02:09 GMT 45.408218 17.602039 36,975 122 454 -64
2019-12-11 10:02:03 GMT 45.414780 17.587673 37,000 123 454 -64
2019-12-11 10:01:58 GMT 45.421097 17.573874 37,000 123 454 -64
2019-12-11 10:01:53 GMT 45.426773 17.561581 37,000 123 453 -64
2019-12-11 10:01:50 GMT 45.429932 17.554647 37,000 122 454 64
2019-12-11 10:01:47 GMT 45.433353 17.547176 37,000 123 453 -64
2019-12-11 10:01:42 GMT 45.439453 17.533918 37,000 123 453 0
2019-12-11 10:01:38 GMT 45.445084 17.521624 37,000 123 454 0
2019-12-11 10:01:32 GMT 45.450207 17.510399 37,000 123 454 0
2019-12-11 10:01:26 GMT 45.458176 17.492981 37,000 122 454 0
2019-12-11 10:01:22 GMT 45.462433 17.483629 37,000 122 454 0
2019-12-11 10:01:16 GMT 45.468246 17.470812 37,000 122 454 64
2019-12-11 10:01:12 GMT 45.473831 17.458584 37,000 122 454 64
2019-12-11 10:01:07 GMT 45.480148 17.444590 37,000 122 455 64
2019-12-11 10:01:00 GMT 45.486923 17.429613 37,000 122 455 0
2019-12-11 10:00:56 GMT 45.491779 17.418823 37,000 122 455 -64
2019-12-11 10:00:51 GMT 45.504639 17.390375 37,000 122 452 -64
2019-12-11 10:00:45 GMT 45.504639 17.390375 37,000 122 454 -64
2019-12-11 10:00:41 GMT 45.508492 17.381845 37,025 122 453 -64
2019-12-11 10:00:38 GMT 45.512119 17.373806 37,025 122 452 64
2019-12-11 10:00:33 GMT 45.517708 17.361481 37,025 122 452 64
2019-12-11 10:00:30 GMT 45.522549 17.350761 37,000 122 452 0
2019-12-11 10:00:24 GMT 45.528305 17.338060 37,000 122 453 -128
2019-12-11 10:00:21 GMT 45.531921 17.330082 37,000 122 453 -192
2019-12-11 10:00:15 GMT 45.543777 17.303860 37,025 123 450 192
2019-12-11 10:00:11 GMT 45.543777 17.303860 37,025 122 451 192
2019-12-11 10:00:05 GMT 45.554390 17.280533 36,975 123 450 128
2019-12-11 10:00:01 GMT 45.554390 17.280533 36,975 123 450 128
2019-12-11 09:59:58 GMT 45.557091 17.274696 36,975 123 450 64
2019-12-11 09:59:54 GMT 45.562908 17.261925 36,975 122 451 0
2019-12-11 09:59:49 GMT 45.568222 17.250277 36,975 122 450 -64
2019-12-11 09:59:43 GMT 45.574688 17.235901 37,000 122 449 -128
2019-12-11 09:59:39 GMT 45.579483 17.225224 37,000 122 447 0
2019-12-11 09:59:34 GMT 45.585396 17.212074 37,000 122 445 192
2019-12-11 09:59:30 GMT 45.589233 17.203585 37,000 122 445 192
2019-12-11 09:59:27 GMT 45.591820 17.197792 36,975 122 444 64
2019-12-11 09:59:20 GMT 45.600151 17.179459 37,000 122 444 -256
2019-12-11 09:59:16 GMT 45.604622 17.169571 37,000 122 444 -256
2019-12-11 09:59:10 GMT 45.612442 17.152405 36,950 122 444 -128
2019-12-11 09:59:06 GMT 45.616352 17.143822 36,950 123 443 -192
2019-12-11 09:59:03 GMT 45.620121 17.135513 36,975 122 444 -192
2019-12-11 09:58:57 GMT 45.626362 17.121849 37,000 122 444 -128
2019-12-11 09:58:54 GMT 45.628510 17.117102 37,000 122 444 -128
2019-12-11 09:58:51 GMT 45.632996 17.107187 37,000 122 444 -64
2019-12-11 09:58:48 GMT 45.643707 17.083607 37,000 122 444 -64
2019-12-11 09:58:42 GMT 45.643707 17.083607 37,000 122 444 -64
2019-12-11 09:58:36 GMT 45.650566 17.068291 37,000 122 445 -64
2019-12-11 09:58:31 GMT 45.656155 17.055794 37,000 122 446 -128
2019-12-11 09:58:27 GMT 45.659500 17.048304 37,000 122 444 -64
2019-12-11 09:58:23 GMT 45.666256 17.033134 37,000 122 444 -64
2019-12-11 09:58:18 GMT 45.669662 17.025459 37,025 122 446 -128
2019-12-11 09:58:11 GMT 45.677719 17.007505 37,025 122 447 -64
2019-12-11 09:58:08 GMT 45.681244 16.999535 37,025 122 447 -64
2019-12-11 09:58:05 GMT 45.683899 16.993721 37,025 122 448 0
2019-12-11 09:57:59 GMT 45.691406 16.976891 37,025 122 448 0
2019-12-11 09:57:56 GMT 45.694046 16.970856 37,025 122 446 0
2019-12-11 09:57:50 GMT 45.701172 16.954926 37,025 122 449 64
2019-12-11 09:57:47 GMT 45.703995 16.948488 37,025 122 451 64
2019-12-11 09:57:43 GMT 45.709362 16.936386 37,025 122 449 64
2019-12-11 09:57:38 GMT 45.713745 16.926582 37,025 122 450 0
2019-12-11 09:57:35 GMT 45.717323 16.918602 37,025 122 450 0
2019-12-11 09:57:32 GMT 45.720161 16.912148 37,025 122 450 0
2019-12-11 09:57:28 GMT 45.728264 16.894020 37,025 122 450 0
2019-12-11 09:57:25 GMT 45.728264 16.894020 37,025 122 451 0
2019-12-11 09:57:22 GMT 45.731335 16.887085 37,025 122 451 64
2019-12-11 09:57:18 GMT 45.737480 16.873352 37,025 122 451 64
2019-12-11 09:57:15 GMT 45.739483 16.868820 37,025 122 451 64
2019-12-11 09:57:12 GMT 45.743069 16.860786 37,025 122 451 64
2019-12-11 09:57:07 GMT 45.748535 16.848473 37,025 122 452 64
2019-12-11 09:57:03 GMT 45.755451 16.833046 37,025 122 453 0
2019-12-11 09:56:59 GMT 45.758194 16.826900 37,025 122 453 64
2019-12-11 09:56:55 GMT 45.763367 16.815311 37,025 122 453 64
2019-12-11 09:56:52 GMT 45.764900 16.811897 37,000 122 454 64
2019-12-11 09:56:46 GMT 45.771370 16.797340 37,000 122 454 64
2019-12-11 09:56:43 GMT 45.774769 16.789719 37,000 122 454 0
2019-12-11 09:56:38 GMT 45.781704 16.774132 37,000 122 454 0
2019-12-11 09:56:35 GMT 45.784561 16.767614 37,000 122 454 -64
2019-12-11 09:56:31 GMT 45.788177 16.759510 37,000 122 454 0
2019-12-11 09:56:28 GMT 45.792503 16.749825 37,000 122 454 0
2019-12-11 09:56:25 GMT 45.796371 16.741087 37,000 121 450 -128
2019-12-11 09:56:18 GMT 45.804283 16.723183 37,025 122 455 -128
2019-12-11 09:56:14 GMT 45.809265 16.711716 37,000 121 450 -128
2019-12-11 09:56:10 GMT 45.812576 16.704243 37,025 122 454 -64
2019-12-11 09:56:05 GMT 45.817383 16.693323 37,025 122 454 -64
2019-12-11 09:56:02 GMT 45.821693 16.683563 37,025 122 453 -64
2019-12-11 09:55:59 GMT 45.824299 16.677521 37,025 122 455 64
2019-12-11 09:55:56 GMT 45.828598 16.667801 37,025 122 455 0
2019-12-11 09:55:53 GMT 45.831936 16.660286 37,025 122 455 64
2019-12-11 09:55:47 GMT 45.842010 16.637453 37,025 122 455 64
2019-12-11 09:55:44 GMT 45.842010 16.637453 37,025 122 456 0
2019-12-11 09:55:40 GMT 45.848099 16.623856 37,000 122 456 0
2019-12-11 09:55:36 GMT 45.853069 16.612633 37,025 122 456 -64
2019-12-11 09:55:33 GMT 45.854607 16.609200 37,025 122 454 64
2019-12-11 09:55:29 GMT 45.858948 16.599403 37,025 122 456 0
2019-12-11 09:55:25 GMT 45.863297 16.589622 37,025 122 455 64
2019-12-11 09:55:21 GMT 45.867359 16.580498 37,025 122 454 64
2019-12-11 09:55:18 GMT 45.871445 16.571201 37,000 122 455 64
2019-12-11 09:55:15 GMT 45.873825 16.565842 37,000 122 455 128
2019-12-11 09:55:12 GMT 45.880814 16.550011 37,000 122 456 64
2019-12-11 09:55:09 GMT 45.880814 16.550011 37,000 122 456 64
2019-12-11 09:55:05 GMT 45.886322 16.537437 37,000 122 456 0
2019-12-11 09:55:02 GMT 45.889427 16.530373 37,000 122 456 0
2019-12-11 09:54:59 GMT 45.895660 16.516203 37,000 122 456 -64
2019-12-11 09:54:56 GMT 45.895660 16.516203 37,000 122 456 -64
2019-12-11 09:54:53 GMT 45.898544 16.509638 37,000 122 455 -64
2019-12-11 09:54:50 GMT 45.902370 16.500984 37,000 121 450 -128
2019-12-11 09:54:45 GMT 45.913403 16.475990 37,025 122 455 -64
2019-12-11 09:54:41 GMT 45.913403 16.475990 37,025 122 454 -64
2019-12-11 09:54:38 GMT 45.915619 16.471119 37,025 122 454 -64
2019-12-11 09:54:34 GMT 45.919964 16.461365 37,025 122 455 -64
2019-12-11 09:54:31 GMT 45.924946 16.450104 37,025 122 453 -64
2019-12-11 09:54:25 GMT 45.931732 16.434675 37,025 122 454 -64
2019-12-11 09:54:20 GMT 45.939285 16.417326 37,025 122 453 0
2019-12-11 09:54:13 GMT 45.945011 16.404305 37,025 122 453 0
2019-12-11 09:54:09 GMT 45.949585 16.393946 37,025 122 453 0
2019-12-11 09:54:03 GMT 45.958324 16.373886 37,025 122 451 0
2019-12-11 09:53:57 GMT 45.961395 16.366882 37,025 122 452 0
2019-12-11 09:53:54 GMT 45.964935 16.358711 37,025 122 452 0
2019-12-11 09:53:51 GMT 45.968472 16.350609 37,025 122 452 0
2019-12-11 09:53:47 GMT 45.972988 16.340240 37,025 121 452 0
2019-12-11 09:53:44 GMT 45.976524 16.332069 37,025 121 452 0
2019-12-11 09:53:41 GMT 45.980530 16.322937 37,025 121 452 0
2019-12-11 09:53:34 GMT 45.988449 16.304649 37,025 121 451 64
2019-12-11 09:53:30 GMT 45.991096 16.298492 37,025 121 450 0
2019-12-11 09:53:23 GMT 45.998871 16.280502 37,025 121 450 -128
2019-12-11 09:53:20 GMT 46.002594 16.271891 37,025 121 449 -64
2019-12-11 09:53:16 GMT 46.006832 16.262100 37,025 121 450 -128
2019-12-11 09:53:13 GMT 46.010323 16.253998 37,050 121 449 -64
2019-12-11 09:53:09 GMT 46.014278 16.244865 37,050 121 450 -128
2019-12-11 09:53:06 GMT 46.017818 16.236694 37,000 121 434 0
2019-12-11 09:53:03 GMT 46.021088 16.229151 37,050 121 449 0
2019-12-11 09:52:59 GMT 46.025314 16.219391 37,050 121 450 64
2019-12-11 09:52:54 GMT 46.031830 16.204353 37,050 121 449 0
2019-12-11 09:52:51 GMT 46.034904 16.197281 37,025 121 449 0
2019-12-11 09:52:43 GMT 46.044525 16.175224 37,025 122 448 0
2019-12-11 09:52:38 GMT 46.053432 16.154778 37,025 122 448 0
2019-12-11 09:52:32 GMT 46.055527 16.149902 37,025 122 447 0
2019-12-11 09:52:29 GMT 46.058853 16.142399 37,025 122 446 64
2019-12-11 09:52:26 GMT 46.062103 16.134964 37,000 121 434 0
2019-12-11 09:52:22 GMT 46.066315 16.125317 37,025 122 446 64
2019-12-11 09:52:18 GMT 46.070095 16.116669 37,025 121 445 128
2019-12-11 09:52:15 GMT 46.073776 16.108101 37,000 121 445 64
2019-12-11 09:52:11 GMT 46.082386 16.088379 37,000 121 444 64
2019-12-11 09:52:07 GMT 46.082386 16.088379 37,000 121 444 64
2019-12-11 09:52:02 GMT 46.089321 16.072311 37,000 121 444 64
2019-12-11 09:51:58 GMT 46.093468 16.062836 37,000 121 444 64
2019-12-11 09:51:54 GMT 46.097935 16.052536 37,000 122 443 0
2019-12-11 09:51:51 GMT 46.101334 16.044708 37,000 122 443 0
2019-12-11 09:51:48 GMT 46.103985 16.038666 37,000 122 441 0
2019-12-11 09:51:45 GMT 46.106731 16.032349 37,000 122 442 0
2019-12-11 09:51:41 GMT 46.111294 16.021912 37,000 122 442 0
2019-12-11 09:51:38 GMT 46.115067 16.013243 37,000 122 441 -128
2019-12-11 09:51:35 GMT 46.118912 16.004400 37,000 122 441 -128
2019-12-11 09:51:31 GMT 46.122234 15.996780 37,000 122 441 -128
2019-12-11 09:51:27 GMT 46.125916 15.988323 37,025 121 439 -64
2019-12-11 09:51:23 GMT 46.130520 15.977692 37,025 121 439 -64
2019-12-11 09:51:20 GMT 46.132988 15.971924 37,025 121 439 -64
2019-12-11 09:51:17 GMT 46.137543 15.961326 37,025 121 438 64
2019-12-11 09:51:10 GMT 46.145416 15.943038 37,000 121 437 0
2019-12-11 09:51:05 GMT 46.153423 15.924408 37,000 121 437 -128
2019-12-11 09:50:57 GMT 46.157753 15.914314 37,000 121 437 -64
2019-12-11 09:50:54 GMT 46.162689 15.902985 37,000 121 437 -64
2019-12-11 09:50:50 GMT 46.165970 15.895341 37,025 121 437 0
2019-12-11 09:50:45 GMT 46.172279 15.880669 37,000 121 435 0
2019-12-11 09:50:41 GMT 46.175903 15.872297 37,000 121 435 0
2019-12-11 09:50:35 GMT 46.181351 15.859703 37,000 121 435 0
2019-12-11 09:50:30 GMT 46.186569 15.847641 37,000 121 435 64
2019-12-11 09:50:27 GMT 46.190853 15.837685 37,000 121 435 64
2019-12-11 09:50:24 GMT 46.192886 15.832974 37,000 121 434 128
2019-12-11 09:50:20 GMT 46.197418 15.822456 36,975 121 434 0
2019-12-11 09:50:17 GMT 46.200348 15.815690 37,000 121 434 -64
2019-12-11 09:50:14 GMT 46.204399 15.806236 37,000 121 432 -128
2019-12-11 09:50:10 GMT 46.208038 15.797804 37,000 121 432 -128
2019-12-11 09:50:07 GMT 46.210464 15.792110 37,000 121 435 0
2019-12-11 09:50:04 GMT 46.214081 15.783714 37,025 121 432 -64
2019-12-11 09:49:58 GMT 46.220367 15.769089 37,025 121 432 -192
2019-12-11 09:49:55 GMT 46.224602 15.759270 37,025 121 432 -64
2019-12-11 09:49:48 GMT 46.231155 15.744078 37,025 121 432 -64
2019-12-11 09:49:44 GMT 46.237591 15.729126 37,025 121 434 -64
2019-12-11 09:49:38 GMT 46.242188 15.718488 37,000 121 436 0
2019-12-11 09:49:35 GMT 46.245598 15.710587 37,000 121 439 0
2019-12-11 09:49:31 GMT 46.250114 15.699944 37,000 121 439 0
2019-12-11 09:49:27 GMT 46.253048 15.693077 37,000 121 441 -64
2019-12-11 09:49:23 GMT 46.257431 15.682849 37,000 121 442 -64
2019-12-11 09:49:20 GMT 46.260635 15.675362 37,025 121 443 -128
2019-12-11 09:49:16 GMT 46.264252 15.666772 37,000 121 449 0
2019-12-11 09:49:12 GMT 46.269974 15.653307 37,000 121 448 0
2019-12-11 09:49:06 GMT 46.275009 15.641316 37,025 121 449 0
2019-12-11 09:49:02 GMT 46.281162 15.626678 37,025 121 450 0
2019-12-11 09:48:57 GMT 46.286316 15.614453 37,000 121 452 128
2019-12-11 09:48:54 GMT 46.290009 15.605667 37,000 121 454 -64
2019-12-11 09:48:45 GMT 46.298172 15.586183 37,000 121 458 -128
2019-12-11 09:48:42 GMT 46.303345 15.573991 37,025 121 458 0
2019-12-11 09:48:33 GMT 46.313240 15.550529 37,000 121 461 0
2019-12-11 09:48:27 GMT 46.319595 15.536008 37,000 124 468 -320
2019-12-11 09:48:23 GMT 46.324677 15.525222 37,025 125 469 -320
2019-12-11 09:48:20 GMT 46.326599 15.521210 37,025 127 473 64
2019-12-11 09:48:16 GMT 46.332870 15.508877 37,050 127 471 0
2019-12-11 09:48:10 GMT 46.340565 15.494362 37,050 127 472 64
2019-12-11 09:48:05 GMT 46.346478 15.483307 37,025 127 473 0
2019-12-11 09:48:01 GMT 46.351925 15.473076 37,025 127 472 0
2019-12-11 09:47:58 GMT 46.357510 15.462502 37,025 127 473 64
2019-12-11 09:47:55 GMT 46.360397 15.457008 37,025 127 473 0
2019-12-11 09:47:50 GMT 46.367477 15.443629 37,025 127 474 0
2019-12-11 09:47:45 GMT 46.374023 15.431303 37,025 127 473 64
2019-12-11 09:47:39 GMT 46.381348 15.417369 37,025 127 474 -64
2019-12-11 09:47:35 GMT 46.387619 15.405512 37,025 127 474 0
2019-12-11 09:47:31 GMT 46.392143 15.396927 37,025 127 473 64
2019-12-11 09:47:25 GMT 46.399780 15.382439 37,000 127 474 128
2019-12-11 09:47:22 GMT 46.404602 15.373290 37,000 127 474 128
2019-12-11 09:47:19 GMT 46.409409 15.364246 37,000 127 474 64
2019-12-11 09:47:14 GMT 46.414810 15.353996 37,000 127 474 64
2019-12-11 09:47:10 GMT 46.419617 15.344886 37,000 127 474 0
2019-12-11 09:47:06 GMT 46.425568 15.333632 37,000 127 473 0
2019-12-11 09:47:00 GMT 46.433533 15.318492 37,000 127 473 -64
2019-12-11 09:46:57 GMT 46.437195 15.311592 37,000 127 473 128
2019-12-11 09:46:54 GMT 46.442001 15.302414 37,000 127 473 64
2019-12-11 09:46:50 GMT 46.446796 15.293312 37,000 127 473 0
2019-12-11 09:46:47 GMT 46.451591 15.284180 37,000 127 473 128
2019-12-11 09:46:43 GMT 46.455315 15.277107 36,975 127 472 -64
2019-12-11 09:46:40 GMT 46.460907 15.266508 36,975 127 472 64
2019-12-11 09:46:37 GMT 46.466858 15.255186 36,975 127 473 64
2019-12-11 09:46:33 GMT 46.469143 15.250877 36,975 127 473 64
2019-12-11 09:46:29 GMT 46.474731 15.240248 36,950 127 473 64
2019-12-11 09:46:25 GMT 46.482697 15.225108 36,950 127 472 0
2019-12-11 09:46:17 GMT 46.489471 15.212246 36,975 127 472 -64
2019-12-11 09:46:13 GMT 46.499260 15.193542 36,975 127 471 -64
2019-12-11 09:46:10 GMT 46.505917 15.180771 36,975 127 471 -64
2019-12-11 09:46:06 GMT 46.505917 15.180771 36,975 127 471 0
2019-12-11 09:46:02 GMT 46.510246 15.172531 36,975 127 471 0
2019-12-11 09:45:58 GMT 46.515556 15.162369 36,975 127 471 64
2019-12-11 09:45:55 GMT 46.518951 15.155908 36,975 127 471 0
2019-12-11 09:45:52 GMT 46.523117 15.147869 36,975 127 471 -64
2019-12-11 09:45:47 GMT 46.529022 15.136615 36,975 127 471 -128
2019-12-11 09:45:43 GMT 46.536503 15.122337 36,975 127 471 0
2019-12-11 09:45:40 GMT 46.539715 15.116158 36,975 127 471 -64
2019-12-11 09:45:37 GMT 46.542507 15.110802 36,975 127 471 -64
2019-12-11 09:45:32 GMT 46.550079 15.096354 36,975 127 471 0
2019-12-11 09:45:27 GMT 46.555637 15.085670 37,000 127 471 0
2019-12-11 09:45:24 GMT 46.561222 15.074890 37,000 127 471 -64
2019-12-11 09:45:21 GMT 46.563503 15.070564 37,000 127 471 -64
2019-12-11 09:45:18 GMT 46.569031 15.059911 37,000 127 471 -64
2019-12-11 09:45:15 GMT 46.571884 15.054428 37,000 127 471 -64
2019-12-11 09:45:11 GMT 46.578232 15.042293 37,000 127 471 -64
2019-12-11 09:45:07 GMT 46.581703 15.035614 37,000 127 471 -64
2019-12-11 09:45:04 GMT 46.590645 15.018517 37,000 127 471 0
2019-12-11 09:45:00 GMT 46.590645 15.018517 37,025 127 471 -64
2019-12-11 09:44:56 GMT 46.596222 15.007726 37,025 127 471 -64
2019-12-11 09:44:52 GMT 46.601814 14.997093 37,025 127 471 -64
2019-12-11 09:44:49 GMT 46.606293 14.988366 37,025 127 471 0
2019-12-11 09:44:46 GMT 46.614384 14.972855 37,025 126 472 0
2019-12-11 09:44:43 GMT 46.614384 14.972855 37,025 127 471 0
2019-12-11 09:44:40 GMT 46.617737 14.966393 37,025 126 472 64
2019-12-11 09:44:37 GMT 46.632496 14.938042 37,000 127 472 -64
2019-12-11 09:44:30 GMT 46.632496 14.938042 37,000 126 472 -64
2019-12-11 09:44:26 GMT 46.635681 14.931894 37,025 127 472 -64
2019-12-11 09:44:20 GMT 46.644104 14.915682 37,025 127 472 -64
2019-12-11 09:44:17 GMT 46.647995 14.908173 37,025 127 472 0
2019-12-11 09:44:14 GMT 46.653259 14.898064 37,025 127 472 0
2019-12-11 09:44:11 GMT 46.655910 14.892998 37,025 127 472 -64
2019-12-11 09:44:07 GMT 46.662521 14.880226 37,025 127 472 -64
2019-12-11 09:44:04 GMT 46.665405 14.874664 37,025 127 472 0
2019-12-11 09:43:59 GMT 46.671040 14.863815 37,025 126 472 64
2019-12-11 09:43:56 GMT 46.676907 14.852486 37,025 126 472 64
2019-12-11 09:43:53 GMT 46.679123 14.848223 37,025 126 472 0
2019-12-11 09:43:50 GMT 46.683655 14.839508 37,025 126 472 0
2019-12-11 09:43:47 GMT 46.688076 14.830856 37,025 126 471 -64
2019-12-11 09:43:43 GMT 46.691711 14.823906 37,025 126 472 -64
2019-12-11 09:43:40 GMT 46.697945 14.811905 37,025 126 472 -128
2019-12-11 09:43:37 GMT 46.700459 14.807030 37,025 126 472 -64
2019-12-11 09:43:34 GMT 46.711899 14.784851 37,025 127 473 64
2019-12-11 09:43:28 GMT 46.716431 14.776142 37,025 127 473 0
2019-12-11 09:43:25 GMT 46.716431 14.776142 37,025 127 473 0
2019-12-11 09:43:19 GMT 46.725086 14.759377 37,025 127 473 0
2019-12-11 09:43:15 GMT 46.729881 14.750107 37,025 127 473 0
2019-12-11 09:43:10 GMT 46.737190 14.736031 37,025 127 473 64
2019-12-11 09:43:07 GMT 46.739685 14.731192 37,025 127 473 64
2019-12-11 09:43:04 GMT 46.749805 14.711586 37,025 126 474 64
2019-12-11 09:43:00 GMT 46.749805 14.711586 37,025 126 474 64
2019-12-11 09:42:57 GMT 46.752598 14.706161 37,000 126 474 64
2019-12-11 09:42:54 GMT 46.758652 14.694489 37,000 126 473 64
2019-12-11 09:42:50 GMT 46.762390 14.687247 36,975 126 473 64
2019-12-11 09:42:47 GMT 46.765503 14.681218 37,000 126 474 64
2019-12-11 09:42:43 GMT 46.771133 14.670299 37,000 126 474 0
2019-12-11 09:42:38 GMT 46.778946 14.655075 36,975 126 474 0
2019-12-11 09:42:34 GMT 46.784225 14.644775 36,975 126 474 0
2019-12-11 09:42:28 GMT 46.790680 14.632248 37,000 126 473 0
2019-12-11 09:42:25 GMT 46.795990 14.621932 36,975 126 473 64
2019-12-11 09:42:22 GMT 46.805531 14.603371 36,975 126 473 64
2019-12-11 09:42:17 GMT 46.813065 14.588705 36,975 126 473 0
2019-12-11 09:42:11 GMT 46.813065 14.588705 36,975 126 473 0
2019-12-11 09:42:06 GMT 46.819427 14.576245 36,975 126 473 0
2019-12-11 09:42:01 GMT 46.826431 14.562584 36,975 126 473 0
2019-12-11 09:41:57 GMT 46.832809 14.550156 36,975 126 473 0
2019-12-11 09:41:52 GMT 46.837555 14.540817 36,975 126 472 0
2019-12-11 09:41:48 GMT 46.842583 14.531067 36,975 126 472 0
2019-12-11 09:41:45 GMT 46.847580 14.521246 36,975 126 472 -64
2019-12-11 09:41:42 GMT 46.851746 14.513140 36,975 126 472 -64
2019-12-11 09:41:38 GMT 46.856178 14.504425 36,975 126 472 -64
2019-12-11 09:41:35 GMT 46.860321 14.496323 36,975 126 471 -64
2019-12-11 09:41:32 GMT 46.864510 14.488152 36,975 126 471 0
2019-12-11 09:41:26 GMT 46.872284 14.472868 36,975 126 471 -64
2019-12-11 09:41:23 GMT 46.875359 14.466881 36,975 126 471 -64
2019-12-11 09:41:20 GMT 46.880615 14.456599 36,975 126 471 -64
2019-12-11 09:41:16 GMT 46.885025 14.447914 36,975 126 471 -64
2019-12-11 09:41:13 GMT 46.888577 14.440894 36,975 126 471 -64
2019-12-11 09:41:10 GMT 46.893047 14.432162 36,975 126 471 -64
2019-12-11 09:41:06 GMT 46.899124 14.420242 36,975 126 471 -64
2019-12-11 09:41:02 GMT 46.904343 14.409943 36,975 126 470 0
2019-12-11 09:40:58 GMT 46.909664 14.399555 36,975 126 470 64
2019-12-11 09:40:55 GMT 46.917618 14.383919 36,975 126 470 0
2019-12-11 09:40:51 GMT 46.917618 14.383919 36,975 126 471 -64
2019-12-11 09:40:46 GMT 46.925400 14.368607 37,000 126 471 -192
2019-12-11 09:40:43 GMT 46.928696 14.362083 36,975 126 471 -128
2019-12-11 09:40:40 GMT 46.931717 14.356178 37,000 126 470 -128
2019-12-11 09:40:37 GMT 46.935883 14.348007 37,000 126 470 -192
2019-12-11 09:40:34 GMT 46.940002 14.339905 37,000 126 470 -128
2019-12-11 09:40:31 GMT 46.945312 14.329468 37,025 126 469 0
2019-12-11 09:40:28 GMT 46.948288 14.323563 37,025 126 470 -64
2019-12-11 09:40:25 GMT 46.951355 14.317589 37,025 126 469 -64
2019-12-11 09:40:21 GMT 46.957718 14.305023 37,025 126 470 0
2019-12-11 09:40:17 GMT 46.962132 14.296382 37,025 126 470 0
2019-12-11 09:40:13 GMT 46.966553 14.287649 37,000 126 470 0
2019-12-11 09:40:10 GMT 46.970673 14.279549 37,025 126 470 0
2019-12-11 09:40:07 GMT 46.973694 14.273575 37,000 126 470 0
2019-12-11 09:40:04 GMT 46.979233 14.262657 37,000 126 471 0
2019-12-11 09:39:59 GMT 46.985046 14.251190 37,000 126 471 0
2019-12-11 09:39:55 GMT 46.991131 14.239267 37,000 126 471 0
2019-12-11 09:39:51 GMT 46.995850 14.229973 37,025 126 471 0
2019-12-11 09:39:46 GMT 47.001328 14.219126 37,000 126 471 0
2019-12-11 09:39:42 GMT 47.012638 14.196660 37,025 126 472 -64
2019-12-11 09:39:38 GMT 47.012638 14.196660 37,025 126 472 -64
2019-12-11 09:39:32 GMT 47.019527 14.182997 37,025 126 472 -64
2019-12-11 09:39:28 GMT 47.024460 14.173187 37,025 126 472 -64
2019-12-11 09:39:25 GMT 47.032799 14.156658 37,025 126 472 -64
2019-12-11 09:39:22 GMT 47.032799 14.156658 37,025 126 472 -64
2019-12-11 09:39:19 GMT 47.037643 14.146957 37,025 126 472 -64
2019-12-11 09:39:13 GMT 47.044342 14.133700 37,000 126 472 -64
2019-12-11 09:39:10 GMT 47.048813 14.124826 37,025 126 472 0
2019-12-11 09:39:07 GMT 47.053185 14.116164 37,025 126 472 0
2019-12-11 09:39:04 GMT 47.058632 14.105319 37,025 126 473 64
2019-12-11 09:38:59 GMT 47.062309 14.098065 37,025 126 473 64
2019-12-11 09:38:56 GMT 47.065887 14.090927 37,025 126 473 64
2019-12-11 09:38:51 GMT 47.072830 14.077148 37,025 126 473 128
2019-12-11 09:38:48 GMT 47.076416 14.070035 37,025 126 473 64
2019-12-11 09:38:45 GMT 47.081406 14.060165 37,000 126 473 64
2019-12-11 09:38:41 GMT 47.086990 14.049110 37,000 126 473 64
2019-12-11 09:38:38 GMT 47.091408 14.040386 37,000 126 474 0
2019-12-11 09:38:35 GMT 47.093307 14.036545 37,000 126 474 64
2019-12-11 09:38:32 GMT 47.097782 14.027640 37,000 126 474 0
2019-12-11 09:38:29 GMT 47.101639 14.019997 37,000 126 474 0
2019-12-11 09:38:23 GMT 47.111847 13.999741 37,000 126 474 0
2019-12-11 09:38:19 GMT 47.114960 13.993554 37,000 126 474 0
2019-12-11 09:38:15 GMT 47.120270 13.982986 37,000 126 474 0
2019-12-11 09:38:10 GMT 47.127182 13.969185 37,000 126 474 0
2019-12-11 09:38:06 GMT 47.130508 13.962567 37,000 126 474 0
2019-12-11 09:38:02 GMT 47.136330 13.951017 37,000 126 474 64
2019-12-11 09:37:59 GMT 47.141602 13.940552 37,000 126 474 64
2019-12-11 09:37:55 GMT 47.146618 13.930594 37,000 126 474 64
2019-12-11 09:37:52 GMT 47.149643 13.924467 36,975 126 474 64
2019-12-11 09:37:49 GMT 47.153320 13.917213 36,975 126 475 64
2019-12-11 09:37:46 GMT 47.157139 13.909537 36,975 126 475 64
2019-12-11 09:37:42 GMT 47.162979 13.897980 36,975 126 475 0
2019-12-11 09:37:39 GMT 47.167145 13.889671 36,975 126 475 0
2019-12-11 09:37:35 GMT 47.171860 13.880196 36,975 126 475 0
2019-12-11 09:37:32 GMT 47.176529 13.870857 36,975 126 475 0
2019-12-11 09:37:28 GMT 47.183121 13.857674 36,975 126 474 64
2019-12-11 09:37:24 GMT 47.185673 13.852633 36,975 126 475 -64
2019-12-11 09:37:20 GMT 47.190376 13.843126 36,975 126 475 -64
2019-12-11 09:37:17 GMT 47.195114 13.833710 36,975 126 475 -64
2019-12-11 09:37:14 GMT 47.198990 13.825871 36,975 126 475 -64
2019-12-11 09:37:11 GMT 47.204109 13.815589 37,000 126 475 -64
2019-12-11 09:37:07 GMT 47.208069 13.807686 36,975 126 475 -64
2019-12-11 09:37:04 GMT 47.211685 13.800407 37,000 126 475 -64
2019-12-11 09:37:00 GMT 47.217190 13.789391 37,000 126 475 -64
2019-12-11 09:36:57 GMT 47.221619 13.780426 37,000 126 474 64
2019-12-11 09:36:52 GMT 47.226593 13.770447 37,000 126 475 64
2019-12-11 09:36:48 GMT 47.231853 13.759953 37,000 126 475 64
2019-12-11 09:36:45 GMT 47.236542 13.750488 37,000 126 475 64
2019-12-11 09:36:42 GMT 47.240421 13.742699 37,000 126 475 64
2019-12-11 09:36:38 GMT 47.246979 13.729477 36,975 126 475 64
2019-12-11 09:36:34 GMT 47.250847 13.721642 36,975 126 475 0
2019-12-11 09:36:29 GMT 47.258331 13.706680 36,975 126 475 -64
2019-12-11 09:36:26 GMT 47.261353 13.700500 36,975 126 475 -64
2019-12-11 09:36:23 GMT 47.264393 13.694458 37,000 126 475 0
2019-12-11 09:36:20 GMT 47.272980 13.677155 37,000 126 475 -64
2019-12-11 09:36:13 GMT 47.277660 13.667626 37,000 126 475 -64
2019-12-11 09:36:10 GMT 47.286758 13.649414 37,000 126 475 0
2019-12-11 09:36:07 GMT 47.286758 13.649414 37,000 126 475 0
2019-12-11 09:36:03 GMT 47.290375 13.642136 37,000 126 475 0
2019-12-11 09:36:00 GMT 47.294792 13.633259 37,000 126 475 0
2019-12-11 09:35:57 GMT 47.298100 13.626568 37,000 126 475 0
2019-12-11 09:35:54 GMT 47.303329 13.616043 37,000 126 475 -64
2019-12-11 09:35:50 GMT 47.306946 13.608765 37,000 126 476 -128
2019-12-11 09:35:47 GMT 47.311615 13.599358 37,025 126 476 -128
2019-12-11 09:35:42 GMT 47.319260 13.583839 37,025 126 476 -64
2019-12-11 09:35:39 GMT 47.328186 13.565918 37,025 126 476 0
2019-12-11 09:35:34 GMT 47.328186 13.565918 37,025 126 476 0
2019-12-11 09:35:31 GMT 47.331524 13.559101 37,025 126 476 0
2019-12-11 09:35:27 GMT 47.338120 13.545799 37,025 126 476 0
2019-12-11 09:35:23 GMT 47.343933 13.534126 37,000 126 476 0
2019-12-11 09:35:18 GMT 47.349472 13.522865 37,000 125 476 0
2019-12-11 09:35:14 GMT 47.353355 13.515015 37,000 126 476 0
2019-12-11 09:35:07 GMT 47.364624 13.492172 37,025 125 476 0
2019-12-11 09:35:03 GMT 47.369568 13.482216 37,025 125 476 -64
2019-12-11 09:35:00 GMT 47.373466 13.474238 37,025 125 476 -64
2019-12-11 09:34:57 GMT 47.376213 13.468604 37,025 125 476 -64
2019-12-11 09:34:51 GMT 47.383667 13.453514 37,025 125 477 0
2019-12-11 09:34:48 GMT 47.388336 13.443970 37,025 125 477 -64
2019-12-11 09:34:45 GMT 47.393051 13.434357 37,025 125 476 -64
2019-12-11 09:34:41 GMT 47.396622 13.427147 37,025 125 477 0
2019-12-11 09:34:36 GMT 47.402981 13.414166 37,050 125 477 0
2019-12-11 09:34:33 GMT 47.412338 13.395151 37,025 125 477 0
2019-12-11 09:34:30 GMT 47.412338 13.395151 37,025 125 478 64
2019-12-11 09:34:26 GMT 47.417267 13.384987 37,025 125 477 0
2019-12-11 09:34:20 GMT 47.424160 13.370995 37,025 125 478 0
2019-12-11 09:34:17 GMT 47.428024 13.363083 37,025 125 478 0
2019-12-11 09:34:13 GMT 47.434635 13.349586 37,025 125 478 64
2019-12-11 09:34:10 GMT 47.436310 13.346191 37,025 125 478 64
2019-12-11 09:34:07 GMT 47.440979 13.336578 37,025 125 478 64
2019-12-11 09:34:03 GMT 47.444832 13.328740 37,025 125 478 0
2019-12-11 09:34:00 GMT 47.450363 13.317490 37,025 125 478 0
2019-12-11 09:33:57 GMT 47.454529 13.309044 37,025 125 478 0
2019-12-11 09:33:54 GMT 47.457260 13.303457 37,025 125 478 0
2019-12-11 09:33:51 GMT 47.461716 13.294350 37,025 125 477 0
2019-12-11 09:33:47 GMT 47.466663 13.284231 37,025 125 478 0
2019-12-11 09:33:44 GMT 47.472931 13.271416 37,025 125 478 0
2019-12-11 09:33:41 GMT 47.475220 13.266815 37,025 125 478 0
2019-12-11 09:33:36 GMT 47.481003 13.254934 37,025 125 478 64
2019-12-11 09:33:33 GMT 47.484634 13.247610 37,000 125 478 0
2019-12-11 09:33:29 GMT 47.489288 13.238032 37,025 125 478 64
2019-12-11 09:33:24 GMT 47.495667 13.225074 37,000 125 478 64
2019-12-11 09:33:21 GMT 47.500275 13.215567 37,000 125 478 0
2019-12-11 09:33:18 GMT 47.503345 13.209299 37,000 125 478 0
2019-12-11 09:33:13 GMT 47.511028 13.193524 37,000 125 477 64
2019-12-11 09:33:10 GMT 47.520721 13.173706 37,000 125 478 0
2019-12-11 09:33:06 GMT 47.520721 13.173706 37,000 125 478 0
2019-12-11 09:33:03 GMT 47.526390 13.162114 37,000 125 477 64
2019-12-11 09:32:59 GMT 47.532532 13.149467 37,000 125 477 64
2019-12-11 09:32:53 GMT 47.537468 13.139296 37,000 125 477 0
2019-12-11 09:32:50 GMT 47.539936 13.134226 36,975 125 475 0
2019-12-11 09:32:47 GMT 47.544594 13.124648 37,000 125 477 0
2019-12-11 09:32:43 GMT 47.549561 13.114449 36,975 125 477 0
2019-12-11 09:32:40 GMT 47.553085 13.107170 36,975 125 477 64
2019-12-11 09:32:37 GMT 47.557205 13.098724 36,975 125 477 0
2019-12-11 09:32:34 GMT 47.559677 13.093643 36,975 125 477 0
2019-12-11 09:32:31 GMT 47.564896 13.082794 36,975 125 476 0
2019-12-11 09:32:28 GMT 47.568195 13.076054 36,975 125 476 -128
2019-12-11 09:32:24 GMT 47.574188 13.063637 36,975 125 476 -128
2019-12-11 09:32:21 GMT 47.577713 13.056358 37,000 125 475 -128
2019-12-11 09:32:18 GMT 47.581284 13.048943 37,000 125 475 -128
2019-12-11 09:32:15 GMT 47.584808 13.041664 37,000 125 475 -128
2019-12-11 09:32:12 GMT 47.588676 13.033729 37,000 125 475 0
2019-12-11 09:32:09 GMT 47.593002 13.024773 37,000 125 475 0
2019-12-11 09:32:05 GMT 47.597942 13.014644 37,000 125 475 0
2019-12-11 09:32:02 GMT 47.601196 13.007881 37,000 125 475 -64
2019-12-11 09:31:59 GMT 47.604767 13.000603 37,000 125 474 0
2019-12-11 09:31:56 GMT 47.609390 12.990990 37,000 125 475 -64
2019-12-11 09:31:52 GMT 47.617260 12.974783 37,000 125 475 -64
2019-12-11 09:31:49 GMT 47.619232 12.970665 37,000 125 475 -64
2019-12-11 09:31:44 GMT 47.628479 12.951576 37,000 125 475 -64
2019-12-11 09:31:41 GMT 47.628479 12.951576 37,000 125 474 -64
2019-12-11 09:31:38 GMT 47.633972 12.940247 37,025 125 474 -64
2019-12-11 09:31:33 GMT 47.644318 12.918892 37,025 125 474 0
2019-12-11 09:31:30 GMT 47.644318 12.918892 37,000 125 473 64
2019-12-11 09:31:27 GMT 47.646744 12.913811 37,025 125 473 64
2019-12-11 09:31:23 GMT 47.652733 12.901470 37,000 125 473 64
2019-12-11 09:31:20 GMT 47.657108 12.892386 37,000 125 473 64
2019-12-11 09:31:13 GMT 47.665211 12.875484 37,000 125 474 0
2019-12-11 09:31:10 GMT 47.668980 12.867666 37,000 125 474 0
2019-12-11 09:31:07 GMT 47.672241 12.860870 37,000 125 474 -64
2019-12-11 09:31:02 GMT 47.682220 12.839996 37,000 125 474 0
2019-12-11 09:30:56 GMT 47.685791 12.832649 37,000 125 474 0
2019-12-11 09:30:53 GMT 47.690872 12.821938 37,000 125 474 0
2019-12-11 09:30:50 GMT 47.694675 12.814002 37,000 125 474 0
2019-12-11 09:30:47 GMT 47.698380 12.806213 37,000 125 474 0
2019-12-11 09:30:42 GMT 47.703598 12.795296 37,000 125 474 0
2019-12-11 09:30:39 GMT 47.706825 12.788579 37,000 125 474 64
2019-12-11 09:30:36 GMT 47.711388 12.779001 37,000 125 474 64
2019-12-11 09:30:33 GMT 47.720306 12.760345 37,000 125 474 64
2019-12-11 09:30:30 GMT 47.720306 12.760345 37,000 125 474 64
2019-12-11 09:30:27 GMT 47.724098 12.752451 37,000 125 474 64
2019-12-11 09:30:21 GMT 47.729507 12.741119 37,000 125 474 0
2019-12-11 09:30:18 GMT 47.734085 12.731575 37,000 125 474 0
2019-12-11 09:30:15 GMT 47.738201 12.722943 37,000 125 474 0
2019-12-11 09:30:12 GMT 47.743011 12.712898 37,000 125 474 0
2019-12-11 09:30:09 GMT 47.745712 12.707130 37,000 125 474 0
2019-12-11 09:30:06 GMT 47.750355 12.697519 37,000 125 473 0
2019-12-11 09:30:02 GMT 47.754639 12.688522 37,000 125 474 0
2019-12-11 09:29:59 GMT 47.759171 12.678978 37,000 125 474 0
2019-12-11 09:29:56 GMT 47.761917 12.673279 37,000 125 473 0
2019-12-11 09:29:53 GMT 47.765667 12.665405 37,000 125 473 0
2019-12-11 09:29:50 GMT 47.770557 12.655194 37,000 125 473 0
2019-12-11 09:29:47 GMT 47.772949 12.650208 37,000 125 473 0
2019-12-11 09:29:44 GMT 47.777527 12.640526 37,000 125 473 0
2019-12-11 09:29:41 GMT 47.781822 12.631531 37,000 125 473 0
2019-12-11 09:29:38 GMT 47.784290 12.626460 36,975 125 473 0
2019-12-11 09:29:35 GMT 47.787506 12.619652 36,975 125 473 0
2019-12-11 09:29:32 GMT 47.792084 12.610039 37,000 125 473 0
2019-12-11 09:29:29 GMT 47.795609 12.602760 36,975 125 473 0
2019-12-11 09:29:26 GMT 47.801003 12.591388 37,000 125 473 0
2019-12-11 09:29:20 GMT 47.807472 12.577867 37,000 125 473 -64
2019-12-11 09:29:17 GMT 47.810684 12.571036 37,000 125 473 -64
2019-12-11 09:29:14 GMT 47.814175 12.563711 37,000 125 473 -64
2019-12-11 09:29:11 GMT 47.819824 12.551880 37,000 125 473 -64
2019-12-11 09:29:08 GMT 47.823074 12.545082 37,000 125 473 -64
2019-12-11 09:29:05 GMT 47.826050 12.538834 37,000 125 472 -64
2019-12-11 09:29:02 GMT 47.829529 12.531487 37,025 125 472 -64
2019-12-11 09:28:59 GMT 47.839920 12.509583 37,025 125 473 0
2019-12-11 09:28:55 GMT 47.839920 12.509583 37,025 124 472 0
2019-12-11 09:28:52 GMT 47.842667 12.503746 37,000 125 472 0
2019-12-11 09:28:48 GMT 47.848812 12.490751 37,000 125 472 0
2019-12-11 09:28:45 GMT 47.851746 12.484483 37,000 125 472 0
2019-12-11 09:28:41 GMT 47.855236 12.477088 37,000 125 472 0
2019-12-11 09:28:37 GMT 47.862965 12.460679 37,000 124 472 0
2019-12-11 09:28:34 GMT 47.865601 12.455063 37,000 124 472 0
2019-12-11 09:28:31 GMT 47.869583 12.446548 37,000 124 472 0
2019-12-11 09:28:27 GMT 47.873856 12.437369 37,000 124 472 0
2019-12-11 09:28:24 GMT 47.877548 12.429451 37,000 124 472 0
2019-12-11 09:28:19 GMT 47.884235 12.415185 37,025 125 471 0
2019-12-11 09:28:16 GMT 47.888752 12.405677 37,025 125 472 0
2019-12-11 09:28:13 GMT 47.890640 12.401642 37,000 126 473 64
2019-12-11 09:28:10 GMT 47.900249 12.381521 37,025 125 472 0
2019-12-11 09:28:07 GMT 47.900249 12.381521 37,025 125 472 0
2019-12-11 09:28:04 GMT 47.903370 12.375113 37,025 126 473 64
2019-12-11 09:27:58 GMT 47.911057 12.359482 37,000 126 472 64
2019-12-11 09:27:55 GMT 47.914627 12.352341 37,000 126 473 64
2019-12-11 09:27:52 GMT 47.918594 12.344548 37,000 126 473 64
2019-12-11 09:27:49 GMT 47.922455 12.336823 37,000 126 473 64
2019-12-11 09:27:46 GMT 47.930283 12.321236 37,000 126 473 64
2019-12-11 09:27:43 GMT 47.930283 12.321236 37,000 126 473 64
2019-12-11 09:27:40 GMT 47.934139 12.313491 36,975 126 473 0
2019-12-11 09:27:36 GMT 47.940006 12.301800 37,000 126 473 0
2019-12-11 09:27:30 GMT 47.947495 12.286766 37,000 126 473 -64
2019-12-11 09:27:27 GMT 47.951157 12.279488 37,000 126 473 -64
2019-12-11 09:27:24 GMT 47.954483 12.272785 37,000 126 473 -64
2019-12-11 09:27:21 GMT 47.964958 12.251657 37,000 126 472 0
2019-12-11 09:27:17 GMT 47.964958 12.251657 37,000 126 472 0
2019-12-11 09:27:14 GMT 47.968323 12.245018 37,000 126 472 0
2019-12-11 09:27:11 GMT 47.971615 12.238277 37,000 126 472 0
2019-12-11 09:27:08 GMT 47.980270 12.220985 37,000 126 472 0
2019-12-11 09:27:05 GMT 47.980270 12.220985 37,000 126 472 0
2019-12-11 09:27:02 GMT 47.983578 12.214332 37,000 126 472 0
2019-12-11 09:26:59 GMT 47.986908 12.207664 37,000 126 472 -64
2019-12-11 09:26:56 GMT 47.992218 12.197090 37,000 126 472 0
2019-12-11 09:26:53 GMT 47.994965 12.191597 37,000 126 472 0
2019-12-11 09:26:50 GMT 47.998032 12.185417 37,000 126 472 0
2019-12-11 09:26:47 GMT 48.002480 12.176584 37,000 126 472 -64
2019-12-11 09:26:44 GMT 48.007507 12.166443 37,000 126 472 0
2019-12-11 09:26:41 GMT 48.016399 12.148766 37,000 126 472 0
2019-12-11 09:26:37 GMT 48.016399 12.148766 37,000 126 472 0
2019-12-11 09:26:34 GMT 48.020542 12.140386 37,000 126 472 0
2019-12-11 09:26:31 GMT 48.025196 12.131160 37,000 126 472 0
2019-12-11 09:26:28 GMT 48.027237 12.127052 37,000 126 472 0
2019-12-11 09:26:25 GMT 48.031952 12.117577 37,000 126 471 0
2019-12-11 09:26:22 GMT 48.034973 12.111534 37,000 126 471 0
2019-12-11 09:26:19 GMT 48.040283 12.100891 37,000 126 471 0
2019-12-11 09:26:16 GMT 48.043304 12.094849 37,000 126 472 0
2019-12-11 09:26:13 GMT 48.048065 12.085373 37,000 126 472 0
2019-12-11 09:26:10 GMT 48.052479 12.076510 37,000 126 471 0
2019-12-11 09:26:07 GMT 48.056622 12.068200 37,000 126 472 0
2019-12-11 09:26:04 GMT 48.060562 12.060379 37,000 126 471 0
2019-12-11 09:26:01 GMT 48.063034 12.055367 37,000 126 472 0
2019-12-11 09:25:58 GMT 48.066650 12.048157 37,000 126 472 0
2019-12-11 09:25:54 GMT 48.075531 12.030304 37,000 126 471 0
2019-12-11 09:25:51 GMT 48.075531 12.030304 37,000 126 471 0
2019-12-11 09:25:48 GMT 48.079697 12.021996 37,000 126 471 0
2019-12-11 09:25:45 GMT 48.083015 12.015310 37,000 126 471 0
2019-12-11 09:25:42 GMT 48.087765 12.005803 37,000 126 471 0
2019-12-11 09:25:39 GMT 48.092419 11.996366 37,000 126 471 64
2019-12-11 09:25:36 GMT 48.096050 11.989112 37,000 126 471 0
2019-12-11 09:25:33 GMT 48.099121 11.982915 37,000 126 471 0
2019-12-11 09:25:30 GMT 48.103264 11.974605 37,000 126 471 0
2019-12-11 09:25:27 GMT 48.106293 11.968506 37,000 126 471 0
2019-12-11 09:25:24 GMT 48.111557 11.958000 37,000 126 471 0
2019-12-11 09:25:20 GMT 48.116253 11.948477 37,000 126 471 0
2019-12-11 09:25:17 GMT 48.118999 11.942984 37,000 126 471 0
2019-12-11 09:25:14 GMT 48.124008 11.932938 37,000 126 471 0
2019-12-11 09:25:11 GMT 48.129196 11.922490 37,000 126 471 0
2019-12-11 09:25:08 GMT 48.132614 11.915634 37,000 126 471 0
2019-12-11 09:25:04 GMT 48.137016 11.906715 37,000 126 471 0
2019-12-11 09:25:01 GMT 48.140648 11.899461 37,000 126 471 0
2019-12-11 09:24:58 GMT 48.144463 11.891714 37,000 126 471 0
2019-12-11 09:24:55 GMT 48.148933 11.882700 37,000 126 471 0
2019-12-11 09:24:51 GMT 48.153587 11.873333 37,000 126 470 -64
2019-12-11 09:24:48 GMT 48.157471 11.865509 37,000 126 471 0
2019-12-11 09:24:45 GMT 48.161362 11.857645 37,000 126 471 -64
2019-12-11 09:24:42 GMT 48.165436 11.849389 37,000 126 470 0
2019-12-11 09:24:39 GMT 48.169876 11.840374 37,000 126 470 0
2019-12-11 09:24:35 GMT 48.175690 11.828684 37,000 126 470 0
2019-12-11 09:24:32 GMT 48.182281 11.815303 37,000 126 470 0
2019-12-11 09:24:29 GMT 48.182281 11.815303 37,000 126 469 0
2019-12-11 09:24:26 GMT 48.186951 11.805936 37,000 126 470 0
2019-12-11 09:24:23 GMT 48.191528 11.796640 37,000 126 470 0
2019-12-11 09:24:20 GMT 48.194416 11.790788 37,000 126 470 0
2019-12-11 09:24:17 GMT 48.197674 11.784138 37,000 126 470 0
2019-12-11 09:24:13 GMT 48.203167 11.772935 37,000 126 470 0
2019-12-11 09:24:09 GMT 48.211166 11.756780 37,000 126 469 64
2019-12-11 09:24:06 GMT 48.211166 11.756780 37,000 126 469 64
2019-12-11 09:24:03 GMT 48.216621 11.745686 37,000 126 469 64
2019-12-11 09:24:00 GMT 48.219406 11.740018 37,000 126 470 64
2019-12-11 09:23:57 GMT 48.224030 11.730581 36,975 126 470 64
2019-12-11 09:23:54 GMT 48.227325 11.723891 37,000 126 470 64
2019-12-11 09:23:51 GMT 48.232269 11.713891 36,975 126 470 64
2019-12-11 09:23:48 GMT 48.235016 11.708186 36,975 126 470 0
2019-12-11 09:23:44 GMT 48.245178 11.687552 36,975 126 470 0
2019-12-11 09:23:40 GMT 48.245178 11.687552 36,975 126 470 -64
2019-12-11 09:23:37 GMT 48.248703 11.680368 37,000 126 470 -64
2019-12-11 09:23:34 GMT 48.253418 11.670790 37,000 126 470 0
2019-12-11 09:23:31 GMT 48.256702 11.664083 37,000 126 470 -64
2019-12-11 09:23:28 GMT 48.264103 11.649049 37,000 126 470 -64
2019-12-11 09:23:22 GMT 48.269039 11.638930 37,000 126 470 -64
2019-12-11 09:23:19 GMT 48.271736 11.633437 37,000 126 470 0
2019-12-11 09:23:16 GMT 48.282166 11.612126 37,000 126 470 0
2019-12-11 09:23:12 GMT 48.282166 11.612126 37,000 126 470 0
2019-12-11 09:23:09 GMT 48.285187 11.605929 37,000 126 469 64
2019-12-11 09:23:06 GMT 48.289055 11.598093 37,000 126 469 64
2019-12-11 09:23:03 GMT 48.296970 11.581975 37,000 126 469 0
2019-12-11 09:22:57 GMT 48.304413 11.566913 37,000 126 470 0
2019-12-11 09:22:54 GMT 48.304413 11.566913 37,000 126 470 0
2019-12-11 09:22:51 GMT 48.309082 11.557335 37,000 126 470 0
2019-12-11 09:22:48 GMT 48.312889 11.549594 37,000 126 470 0
2019-12-11 09:22:45 GMT 48.315311 11.544535 37,000 126 470 0
2019-12-11 09:22:42 GMT 48.319454 11.536150 37,000 126 470 0
2019-12-11 09:22:39 GMT 48.324108 11.526610 37,000 126 470 0
2019-12-11 09:22:36 GMT 48.327133 11.520394 37,000 126 470 0
2019-12-11 09:22:33 GMT 48.330917 11.512615 37,000 126 470 0
2019-12-11 09:22:30 GMT 48.335327 11.503625 37,000 126 470 0
2019-12-11 09:22:27 GMT 48.338333 11.497545 37,000 126 470 0
2019-12-11 09:22:24 GMT 48.342728 11.488530 37,000 126 470 0
2019-12-11 09:22:20 GMT 48.348179 11.477388 37,000 126 469 0
2019-12-11 09:22:17 GMT 48.351761 11.470016 37,000 126 469 -64
2019-12-11 09:22:13 GMT 48.357487 11.458234 37,000 126 469 0
2019-12-11 09:22:10 GMT 48.361584 11.449850 37,000 126 469 0
2019-12-11 09:22:06 GMT 48.366753 11.439225 37,000 126 469 0
2019-12-11 09:22:00 GMT 48.373535 11.425288 37,000 126 469 0
2019-12-11 09:21:57 GMT 48.379040 11.414000 37,000 126 469 0
2019-12-11 09:21:54 GMT 48.382874 11.406133 37,000 126 469 0
2019-12-11 09:21:51 GMT 48.388824 11.393808 37,025 126 469 0
2019-12-11 09:21:48 GMT 48.388824 11.393808 37,000 126 469 0
2019-12-11 09:21:45 GMT 48.393192 11.384872 37,000 125 469 0
2019-12-11 09:21:42 GMT 48.396217 11.378656 37,000 126 469 -64
2019-12-11 09:21:39 GMT 48.400314 11.370271 37,025 126 469 0
2019-12-11 09:21:36 GMT 48.404366 11.361815 37,000 126 470 -64
2019-12-11 09:21:32 GMT 48.409019 11.352274 37,000 126 469 -64
2019-12-11 09:21:28 GMT 48.419353 11.331024 37,025 126 470 -64
2019-12-11 09:21:24 GMT 48.419353 11.331024 37,025 126 470 -64
2019-12-11 09:21:21 GMT 48.423752 11.321975 37,025 125 469 0
2019-12-11 09:21:18 GMT 48.432995 11.302908 37,025 125 469 64
2019-12-11 09:21:14 GMT 48.432995 11.302908 37,025 125 469 64
2019-12-11 09:21:11 GMT 48.436581 11.295535 37,025 125 469 0
2019-12-11 09:21:08 GMT 48.440094 11.288241 37,025 125 469 128
2019-12-11 09:21:05 GMT 48.443024 11.282114 37,000 125 469 128
2019-12-11 09:21:02 GMT 48.446869 11.274213 37,000 125 469 -64
2019-12-11 09:20:59 GMT 48.451767 11.264085 37,000 125 469 0
2019-12-11 09:20:53 GMT 48.458862 11.249437 36,975 125 469 0
2019-12-11 09:20:50 GMT 48.462601 11.241616 37,000 125 469 0
2019-12-11 09:20:47 GMT 48.471085 11.224084 37,000 126 470 0
2019-12-11 09:20:44 GMT 48.474609 11.216759 37,000 125 469 -64
2019-12-11 09:20:41 GMT 48.474609 11.216759 37,000 125 469 -64
2019-12-11 09:20:38 GMT 48.479500 11.206633 37,000 125 469 0
2019-12-11 09:20:35 GMT 48.481968 11.201573 37,000 125 469 0
2019-12-11 09:20:32 GMT 48.487061 11.190984 37,000 125 469 0
2019-12-11 09:20:29 GMT 48.489601 11.185744 37,000 125 469 0
2019-12-11 09:20:26 GMT 48.498260 11.167747 37,000 125 469 0
2019-12-11 09:20:23 GMT 48.498260 11.167747 37,000 125 469 0
2019-12-11 09:20:20 GMT 48.501755 11.160490 37,000 125 469 0
2019-12-11 09:20:17 GMT 48.504776 11.154222 37,000 125 469 0
2019-12-11 09:20:14 GMT 48.509903 11.143517 37,000 125 469 0
2019-12-11 09:20:11 GMT 48.513157 11.136812 37,000 125 469 0
2019-12-11 09:20:08 GMT 48.516403 11.129995 37,025 125 469 0
2019-12-11 09:20:05 GMT 48.519676 11.123224 37,000 125 469 0
2019-12-11 09:20:02 GMT 48.528893 11.103997 37,000 125 469 0
2019-12-11 09:19:58 GMT 48.528893 11.103997 37,000 125 469 0
2019-12-11 09:19:55 GMT 48.533249 11.094994 37,000 125 469 0
2019-12-11 09:19:52 GMT 48.537552 11.086000 37,000 125 469 0
2019-12-11 09:19:49 GMT 48.541599 11.077471 37,000 125 469 0
2019-12-11 09:19:46 GMT 48.545139 11.070099 37,000 125 469 0
2019-12-11 09:19:43 GMT 48.549747 11.060558 37,000 125 469 0
2019-12-11 09:19:40 GMT 48.552727 11.054342 37,000 125 469 0
2019-12-11 09:19:37 GMT 48.555954 11.047528 37,025 125 469 0
2019-12-11 09:19:34 GMT 48.563293 11.032297 37,025 125 469 0
2019-12-11 09:19:28 GMT 48.568600 11.021166 37,025 125 469 0
2019-12-11 09:19:25 GMT 48.570885 11.016468 37,025 125 469 0
2019-12-11 09:19:20 GMT 48.579712 10.998019 37,000 125 469 0
2019-12-11 09:19:17 GMT 48.581955 10.993371 37,025 125 469 0
2019-12-11 09:19:14 GMT 48.584614 10.987774 37,025 125 469 0
2019-12-11 09:19:11 GMT 48.588898 10.978883 37,025 125 468 -64
2019-12-11 09:19:08 GMT 48.593323 10.969704 37,025 125 469 0
2019-12-11 09:19:05 GMT 48.596558 10.962877 37,025 125 468 -64
2019-12-11 09:19:02 GMT 48.600349 10.954959 37,025 125 468 0
2019-12-11 09:18:59 GMT 48.604401 10.946503 37,025 125 468 -64
2019-12-11 09:18:55 GMT 48.609787 10.935270 37,025 125 468 0
2019-12-11 09:18:51 GMT 48.614960 10.924495 37,025 125 468 0
2019-12-11 09:18:48 GMT 48.618179 10.917736 37,025 125 468 0
2019-12-11 09:18:45 GMT 48.621113 10.911592 37,025 125 468 0
2019-12-11 09:18:42 GMT 48.626282 10.900823 37,025 125 468 0
2019-12-11 09:18:38 GMT 48.631668 10.889564 37,025 125 468 0
2019-12-11 09:18:35 GMT 48.640503 10.871113 37,025 125 468 0
2019-12-11 09:18:32 GMT 48.640503 10.871113 37,025 125 467 0
2019-12-11 09:18:29 GMT 48.645969 10.859696 37,025 125 467 0
2019-12-11 09:18:26 GMT 48.645969 10.859696 37,025 125 467 0
2019-12-11 09:18:23 GMT 48.654629 10.841554 37,025 125 467 0
2019-12-11 09:18:20 GMT 48.654629 10.841554 37,025 125 467 0
2019-12-11 09:18:17 GMT 48.657051 10.836495 37,025 125 467 -64
2019-12-11 09:18:14 GMT 48.660782 10.828646 37,025 125 467 64
2019-12-11 09:18:11 GMT 48.667759 10.813944 37,025 125 467 0
2019-12-11 09:18:08 GMT 48.672043 10.804983 37,025 125 467 0
2019-12-11 09:18:05 GMT 48.672043 10.804983 37,025 125 467 0
2019-12-11 09:18:02 GMT 48.676895 10.794772 37,025 125 467 0
2019-12-11 09:17:59 GMT 48.681381 10.785335 37,025 125 467 -64
2019-12-11 09:17:56 GMT 48.684128 10.779560 37,025 125 467 -64
2019-12-11 09:17:53 GMT 48.686844 10.773829 37,025 125 467 -64
2019-12-11 09:17:50 GMT 48.690582 10.765968 37,050 125 466 0
2019-12-11 09:17:47 GMT 48.694611 10.757517 37,025 125 467 -64
2019-12-11 09:17:44 GMT 48.698341 10.749544 37,025 125 467 -64
2019-12-11 09:17:41 GMT 48.702904 10.739931 37,050 125 465 128
2019-12-11 09:17:38 GMT 48.707199 10.730896 37,050 125 466 0
2019-12-11 09:17:34 GMT 48.711777 10.721318 37,050 125 466 0
2019-12-11 09:17:31 GMT 48.718689 10.706670 37,050 125 465 128
2019-12-11 09:17:25 GMT 48.725903 10.691504 37,025 125 465 128
2019-12-11 09:17:22 GMT 48.725903 10.691504 37,025 125 464 64
2019-12-11 09:17:19 GMT 48.730362 10.682091 37,025 125 465 128
2019-12-11 09:17:15 GMT 48.736050 10.670038 37,000 125 465 64
2019-12-11 09:17:12 GMT 48.741074 10.659485 37,000 125 465 64
2019-12-11 09:17:09 GMT 48.742722 10.655964 37,000 125 465 64
2019-12-11 09:17:06 GMT 48.746750 10.647513 37,000 125 465 64
2019-12-11 09:17:03 GMT 48.749458 10.641849 37,000 125 465 64
2019-12-11 09:17:00 GMT 48.753925 10.632308 37,000 125 464 64
2019-12-11 09:16:57 GMT 48.758743 10.622160 37,000 125 464 64
2019-12-11 09:16:54 GMT 48.761673 10.615962 37,000 125 464 64
2019-12-11 09:16:50 GMT 48.765938 10.606938 37,000 125 463 0
2019-12-11 09:16:47 GMT 48.770691 10.596806 37,000 125 464 0
2019-12-11 09:16:44 GMT 48.773621 10.590609 37,000 125 463 0
2019-12-11 09:16:41 GMT 48.778412 10.580484 37,000 125 463 0
2019-12-11 09:16:38 GMT 48.780579 10.575961 37,000 125 463 0
2019-12-11 09:16:35 GMT 48.785019 10.566453 37,000 125 463 0
2019-12-11 09:16:32 GMT 48.790005 10.555982 37,000 125 462 0
2019-12-11 09:16:28 GMT 48.794891 10.545646 37,000 125 462 64
2019-12-11 09:16:25 GMT 48.797779 10.539575 36,975 125 460 64
2019-12-11 09:16:21 GMT 48.805691 10.522734 36,975 125 460 64
2019-12-11 09:16:18 GMT 48.805691 10.522734 36,975 125 460 0
2019-12-11 09:16:15 GMT 48.811020 10.511522 36,975 125 460 0
2019-12-11 09:16:12 GMT 48.813141 10.507050 36,975 124 459 0
2019-12-11 09:16:08 GMT 48.818123 10.496425 36,975 125 460 0
2019-12-11 09:16:05 GMT 48.822590 10.486884 36,975 125 460 -64
2019-12-11 09:16:02 GMT 48.824966 10.481824 36,975 125 460 -64
2019-12-11 09:15:59 GMT 48.830460 10.470043 36,975 125 460 -64
2019-12-11 09:15:55 GMT 48.834641 10.461097 36,975 125 460 -64
2019-12-11 09:15:52 GMT 48.838280 10.453202 36,975 124 458 0
2019-12-11 09:15:48 GMT 48.841873 10.445392 37,000 124 458 0
2019-12-11 09:15:45 GMT 48.846565 10.435277 37,000 124 459 0
2019-12-11 09:15:42 GMT 48.849964 10.427905 37,000 124 458 -64
2019-12-11 09:15:39 GMT 48.853313 10.420677 37,000 124 458 -64
2019-12-11 09:15:36 GMT 48.858204 10.410052 37,000 125 458 -64
2019-12-11 09:15:33 GMT 48.862625 10.400511 37,000 133 454 64
2019-12-11 09:15:30 GMT 48.865002 10.395524 37,000 133 454 64
2019-12-11 09:15:27 GMT 48.868835 10.387855 37,000 127 456 0
2019-12-11 09:15:24 GMT 48.872681 10.380418 37,000 129 455 64
2019-12-11 09:15:20 GMT 48.878174 10.370371 37,000 133 454 64
2019-12-11 09:15:17 GMT 48.882038 10.363794 37,000 133 454 64
2019-12-11 09:15:14 GMT 48.886826 10.355811 37,000 134 453 64
2019-12-11 09:15:11 GMT 48.891083 10.349121 37,000 134 453 64
2019-12-11 09:15:08 GMT 48.895260 10.342761 36,975 135 453 64
2019-12-11 09:15:05 GMT 48.900375 10.335036 36,975 135 453 64
2019-12-11 09:15:02 GMT 48.904755 10.328377 36,975 135 453 64
2019-12-11 09:14:59 GMT 48.910110 10.320210 36,975 135 453 64
2019-12-11 09:14:56 GMT 48.914436 10.313632 36,975 135 453 -64
2019-12-11 09:14:53 GMT 48.917137 10.309657 36,975 135 452 128
2019-12-11 09:14:50 GMT 48.921799 10.302500 36,975 135 453 -64
2019-12-11 09:14:47 GMT 48.927475 10.293908 37,000 134 451 192
2019-12-11 09:14:44 GMT 48.935394 10.281865 37,000 135 452 -64
2019-12-11 09:14:41 GMT 48.935394 10.281865 37,000 135 452 0
2019-12-11 09:14:38 GMT 48.940704 10.273766 37,000 134 451 64
2019-12-11 09:14:35 GMT 48.948898 10.261301 36,975 135 452 -64
2019-12-11 09:14:32 GMT 48.948898 10.261301 36,975 134 451 192
2019-12-11 09:14:29 GMT 48.957687 10.247920 36,975 134 451 192
2019-12-11 09:14:26 GMT 48.957687 10.247920 36,975 135 451 0
2019-12-11 09:14:23 GMT 48.962109 10.241209 36,950 135 452 -128
2019-12-11 09:14:20 GMT 48.965599 10.235933 36,975 135 452 -192
2019-12-11 09:14:17 GMT 48.969696 10.229717 36,950 135 452 -192
2019-12-11 09:14:14 GMT 48.974121 10.222990 36,975 135 451 -192
2019-12-11 09:14:11 GMT 48.985104 10.206299 36,975 135 451 -64
2019-12-11 09:14:08 GMT 48.985104 10.206299 37,000 135 451 -64
2019-12-11 09:14:05 GMT 48.988312 10.201510 37,000 135 451 64
2019-12-11 09:14:02 GMT 48.993343 10.193939 37,000 135 451 64
2019-12-11 09:13:59 GMT 48.998604 10.185989 37,000 135 451 64
2019-12-11 09:13:56 GMT 49.002190 10.180568 36,975 135 451 64
2019-12-11 09:13:53 GMT 49.005356 10.175797 36,975 135 451 64
2019-12-11 09:13:50 GMT 49.011314 10.166835 36,975 135 451 0
2019-12-11 09:13:44 GMT 49.019852 10.154043 36,975 134 451 0
2019-12-11 09:13:41 GMT 49.025253 10.145874 36,975 135 451 0
2019-12-11 09:13:37 GMT 49.032589 10.134454 36,975 133 451 0
2019-12-11 09:13:34 GMT 49.036358 10.128383 36,975 132 452 -64
2019-12-11 09:13:31 GMT 49.038483 10.124958 37,000 128 453 0
2019-12-11 09:13:28 GMT 49.045994 10.112481 37,000 132 452 -64
2019-12-11 09:13:25 GMT 49.045994 10.112481 37,000 131 452 -64
2019-12-11 09:13:22 GMT 49.050156 10.105380 37,000 131 452 -64
2019-12-11 09:13:19 GMT 49.055958 10.095062 37,000 129 453 0
2019-12-11 09:13:15 GMT 49.060287 10.087256 37,000 129 453 0
2019-12-11 09:13:12 GMT 49.064758 10.078829 37,000 128 453 0
2019-12-11 09:13:09 GMT 49.067501 10.073523 37,000 127 453 -64
2019-12-11 09:13:06 GMT 49.071945 10.064885 37,000 126 454 -64
2019-12-11 09:13:03 GMT 49.077278 10.054080 37,025 126 454 -64
2019-12-11 09:13:00 GMT 49.080212 10.047937 37,000 125 455 -64
2019-12-11 09:12:56 GMT 49.085144 10.037456 37,025 124 455 -64
2019-12-11 09:12:53 GMT 49.088196 10.030658 37,025 124 455 -64
2019-12-11 09:12:50 GMT 49.092270 10.021555 37,025 123 456 -64
2019-12-11 09:12:47 GMT 49.095245 10.014742 37,025 123 455 0
2019-12-11 09:12:43 GMT 49.100967 10.001784 37,025 123 455 0
2019-12-11 09:12:40 GMT 49.103714 9.995446 37,025 123 455 0
2019-12-11 09:12:37 GMT 49.106701 9.988668 37,025 123 455 0
2019-12-11 09:12:34 GMT 49.110672 9.979600 37,025 123 455 64
2019-12-11 09:12:31 GMT 49.114929 9.969881 37,025 123 455 64
2019-12-11 09:12:25 GMT 49.125412 9.945952 37,025 123 456 0
2019-12-11 09:12:22 GMT 49.125412 9.945952 37,025 123 456 64
2019-12-11 09:12:19 GMT 49.127647 9.940820 37,000 123 456 0
2019-12-11 09:12:16 GMT 49.130447 9.934528 37,025 123 457 0
2019-12-11 09:12:13 GMT 49.140656 9.911217 37,025 123 457 0
2019-12-11 09:12:09 GMT 49.140656 9.911217 37,025 123 456 0
2019-12-11 09:12:05 GMT 49.147659 9.895160 37,000 123 456 64
2019-12-11 09:12:02 GMT 49.151112 9.887262 37,025 123 457 64
2019-12-11 09:11:59 GMT 49.154835 9.878661 37,000 123 457 64
2019-12-11 09:11:56 GMT 49.154835 9.878661 37,000 123 457 64
2019-12-11 09:11:53 GMT 49.157822 9.871850 37,000 123 457 64
2019-12-11 09:11:50 GMT 49.162842 9.860374 37,000 123 457 128
2019-12-11 09:11:47 GMT 49.165073 9.855170 37,000 123 457 128
2019-12-11 09:11:44 GMT 49.169540 9.844877 37,000 123 457 128
2019-12-11 09:11:41 GMT 49.172058 9.839124 36,975 123 457 128
2019-12-11 09:11:38 GMT 49.175308 9.831707 36,975 123 457 128
2019-12-11 09:11:35 GMT 49.180019 9.820838 36,975 123 457 128
2019-12-11 09:11:32 GMT 49.182999 9.813971 36,975 123 457 64
2019-12-11 09:11:29 GMT 49.190727 9.796191 36,950 123 457 0
2019-12-11 09:11:23 GMT 49.195892 9.784193 36,950 123 457 64
2019-12-11 09:11:20 GMT 49.200130 9.774435 36,975 123 457 64
2019-12-11 09:11:14 GMT 49.204784 9.763593 36,950 123 456 64
2019-12-11 09:11:11 GMT 49.210510 9.750366 36,950 123 456 64
2019-12-11 09:11:05 GMT 49.217213 9.734899 36,950 123 456 64
2019-12-11 09:11:02 GMT 49.221916 9.724057 36,950 123 456 0
2019-12-11 09:10:59 GMT 49.221916 9.724057 36,950 123 456 0
2019-12-11 09:10:56 GMT 49.223915 9.719431 36,975 123 456 -64
2019-12-11 09:10:53 GMT 49.231613 9.701702 36,950 123 456 -64
2019-12-11 09:10:47 GMT 49.235882 9.691893 36,950 123 456 -64
2019-12-11 09:10:44 GMT 49.239094 9.684448 36,950 123 456 -64
2019-12-11 09:10:40 GMT 49.246544 9.667246 36,950 123 455 -64
2019-12-11 09:10:33 GMT 49.251709 9.655320 36,975 123 456 -64
2019-12-11 09:10:30 GMT 49.255432 9.646719 36,975 123 455 -64
2019-12-11 09:10:27 GMT 49.258392 9.639869 36,975 123 456 -64
2019-12-11 09:10:22 GMT 49.263859 9.627204 37,000 123 456 -64
2019-12-11 09:10:19 GMT 49.267536 9.618603 37,000 123 456 -64
2019-12-11 09:10:16 GMT 49.271259 9.610001 37,000 123 456 0
2019-12-11 09:10:13 GMT 49.274689 9.602051 37,000 123 456 -64
2019-12-11 09:10:10 GMT 49.278900 9.592332 37,000 123 456 -64
2019-12-11 09:10:06 GMT 49.281647 9.585994 37,000 123 456 -64
2019-12-11 09:10:03 GMT 49.289787 9.567068 37,000 123 456 -64
2019-12-11 09:09:57 GMT 49.297657 9.548782 37,000 123 455 64
2019-12-11 09:09:54 GMT 49.299892 9.543577 37,000 123 455 64
2019-12-11 09:09:51 GMT 49.299892 9.543577 37,000 123 455 64
2019-12-11 09:09:48 GMT 49.303616 9.534976 37,000 123 455 64
2019-12-11 09:09:45 GMT 49.307053 9.526907 36,975 123 457 0
2019-12-11 09:09:42 GMT 49.310040 9.520015 37,000 123 456 64
2019-12-11 09:09:39 GMT 49.317951 9.501584 36,975 123 457 -64
2019-12-11 09:09:36 GMT 49.317951 9.501584 36,975 123 457 -64
2019-12-11 09:09:33 GMT 49.321381 9.493596 37,000 123 457 -128
2019-12-11 09:09:30 GMT 49.324844 9.485466 37,000 123 457 -128
2019-12-11 09:09:26 GMT 49.329498 9.474552 37,000 123 457 -128
2019-12-11 09:09:23 GMT 49.332458 9.467680 37,025 123 457 0
2019-12-11 09:09:20 GMT 49.336853 9.457397 37,025 123 457 0
2019-12-11 09:09:16 GMT 49.340626 9.448676 37,025 123 457 64
2019-12-11 09:09:12 GMT 49.347244 9.433242 37,025 123 457 64
2019-12-11 09:09:09 GMT 49.349049 9.429016 37,025 123 457 0
2019-12-11 09:09:06 GMT 49.352261 9.421571 37,025 123 457 0
2019-12-11 09:09:02 GMT 49.356720 9.411199 37,025 123 457 0
2019-12-11 09:08:59 GMT 49.360931 9.401339 37,025 123 457 0
2019-12-11 09:08:56 GMT 49.363342 9.395623 37,025 123 457 0
2019-12-11 09:08:53 GMT 49.371002 9.377747 37,025 123 457 -64
2019-12-11 09:08:49 GMT 49.371002 9.377747 37,025 123 457 -64
2019-12-11 09:08:46 GMT 49.375168 9.367887 37,025 123 457 -64
2019-12-11 09:08:43 GMT 49.382080 9.351760 37,025 123 457 -64
2019-12-11 09:08:37 GMT 49.386059 9.342427 37,025 123 457 -64
2019-12-11 09:08:34 GMT 49.389782 9.333753 37,050 123 457 -64
2019-12-11 09:08:31 GMT 49.393459 9.325080 37,025 123 457 64
2019-12-11 09:08:25 GMT 49.399372 9.311202 37,050 123 457 0
2019-12-11 09:08:22 GMT 49.403561 9.301372 37,050 123 457 0
2019-12-11 09:08:19 GMT 49.406261 9.295012 37,050 123 457 0
2019-12-11 09:08:16 GMT 49.410500 9.285110 37,025 123 457 64
2019-12-11 09:08:10 GMT 49.417191 9.269503 37,025 123 458 0
2019-12-11 09:08:07 GMT 49.421532 9.259306 37,025 123 458 0
2019-12-11 09:08:04 GMT 49.424332 9.252812 37,025 123 458 0
2019-12-11 09:08:01 GMT 49.428040 9.244128 37,025 123 458 0
2019-12-11 09:07:55 GMT 49.434238 9.229555 37,025 122 458 0
2019-12-11 09:07:52 GMT 49.442368 9.210446 37,000 122 457 0
2019-12-11 09:07:49 GMT 49.442368 9.210446 37,050 123 458 0
2019-12-11 09:07:45 GMT 49.446342 9.201198 37,000 122 458 0
2019-12-11 09:07:42 GMT 49.452766 9.186129 37,050 123 458 64
2019-12-11 09:07:39 GMT 49.452766 9.186129 37,025 122 459 -64
2019-12-11 09:07:36 GMT 49.456696 9.176837 37,050 123 458 64
2019-12-11 09:07:33 GMT 49.464825 9.157698 37,025 123 458 128
2019-12-11 09:07:29 GMT 49.464825 9.157698 37,025 123 458 128
2019-12-11 09:07:25 GMT 49.469761 9.146118 37,025 123 458 192
2019-12-11 09:07:22 GMT 49.472225 9.140328 37,000 123 458 128
2019-12-11 09:07:19 GMT 49.476185 9.130975 37,000 122 459 128
2019-12-11 09:07:16 GMT 49.479584 9.122884 37,000 122 459 128
2019-12-11 09:07:13 GMT 49.484703 9.110784 37,000 122 459 -64
2019-12-11 09:07:10 GMT 49.490940 9.096012 37,000 122 459 -64
2019-12-11 09:07:07 GMT 49.490940 9.096012 37,025 122 457 64
2019-12-11 09:07:04 GMT 49.493591 9.089741 37,025 122 458 0
2019-12-11 09:07:00 GMT 49.501511 9.071093 37,025 122 457 64
2019-12-11 09:06:57 GMT 49.504440 9.064092 37,025 122 457 0
2019-12-11 09:06:50 GMT 49.509796 9.051324 37,025 122 457 64
2019-12-11 09:06:47 GMT 49.513687 9.042109 37,025 122 457 64
2019-12-11 09:06:44 GMT 49.516403 9.035661 37,025 122 456 -128
2019-12-11 09:06:41 GMT 49.519363 9.028738 37,025 122 457 128
2019-12-11 09:06:38 GMT 49.523026 9.019992 37,000 122 457 128
2019-12-11 09:06:35 GMT 49.526924 9.010719 37,000 122 457 128
2019-12-11 09:06:32 GMT 49.530602 9.002034 37,000 122 457 128
2019-12-11 09:06:29 GMT 49.533508 8.995056 37,000 122 457 0
2019-12-11 09:06:26 GMT 49.536423 8.988078 36,975 122 457 -64
2019-12-11 09:06:23 GMT 49.540833 8.977637 36,975 122 456 -128
2019-12-11 09:06:20 GMT 49.548431 8.959573 37,000 122 457 -64
2019-12-11 09:06:16 GMT 49.548431 8.959573 37,000 122 456 -128
2019-12-11 09:06:13 GMT 49.551819 8.951472 37,000 122 456 -64
2019-12-11 09:06:10 GMT 49.555481 8.942799 37,000 122 456 -64
2019-12-11 09:06:07 GMT 49.563095 8.924758 37,000 122 454 0
2019-12-11 09:06:04 GMT 49.563095 8.924758 37,000 122 454 64
2019-12-11 09:05:58 GMT 49.568916 8.910877 37,000 122 454 64
2019-12-11 09:05:55 GMT 49.572327 8.902901 37,000 122 452 64
2019-12-11 09:05:52 GMT 49.575211 8.895962 37,000 122 454 0
2019-12-11 09:05:49 GMT 49.578644 8.887865 37,000 122 452 0
2019-12-11 09:05:46 GMT 49.586884 8.868280 37,000 122 452 0
2019-12-11 09:05:42 GMT 49.586884 8.868280 37,000 122 452 0
2019-12-11 09:05:39 GMT 49.590282 8.860177 37,000 122 452 -64
2019-12-11 09:05:36 GMT 49.594891 8.849265 37,000 122 452 0
2019-12-11 09:05:33 GMT 49.597092 8.844066 37,000 122 452 0
2019-12-11 09:05:30 GMT 49.605274 8.824620 37,025 122 452 64
2019-12-11 09:05:24 GMT 49.608261 8.817468 37,025 122 452 0
2019-12-11 09:05:21 GMT 49.614071 8.803686 37,025 122 452 64
2019-12-11 09:05:18 GMT 49.614071 8.803686 37,025 122 453 64
2019-12-11 09:05:15 GMT 49.620823 8.787578 37,025 122 452 64
2019-12-11 09:05:08 GMT 49.626114 8.774896 37,000 122 454 0
2019-12-11 09:05:05 GMT 49.632431 8.759790 37,000 122 454 0
2019-12-11 09:04:59 GMT 49.636551 8.749888 37,000 122 455 0
2019-12-11 09:04:56 GMT 49.639442 8.742964 36,975 122 455 64
2019-12-11 09:04:53 GMT 49.642776 8.734926 37,000 122 455 64
2019-12-11 09:04:50 GMT 49.645679 8.727895 36,650 121 458 1088
2019-12-11 09:04:47 GMT 49.653671 8.708761 37,000 122 454 128
2019-12-11 09:04:44 GMT 49.653671 8.708761 37,000 122 455 64
2019-12-11 09:04:37 GMT 49.661407 8.690041 36,975 122 455 0
2019-12-11 09:04:34 GMT 49.664303 8.683059 36,975 122 456 0
2019-12-11 09:04:31 GMT 49.666954 8.676601 36,975 122 455 64
2019-12-11 09:04:28 GMT 49.670792 8.667273 36,975 122 456 256
2019-12-11 09:04:25 GMT 49.675102 8.656781 36,950 122 456 384
2019-12-11 09:04:22 GMT 49.680634 8.643277 36,925 121 457 1088
2019-12-11 09:04:16 GMT 49.688232 8.624484 36,825 121 457 1088
2019-12-11 09:04:10 GMT 49.692047 8.614989 36,800 121 457 1152
2019-12-11 09:04:06 GMT 49.695374 8.606848 36,650 121 458 896
2019-12-11 09:04:03 GMT 49.698486 8.599042 36,650 121 458 1088
2019-12-11 09:04:00 GMT 49.703156 8.587406 36,550 121 458 832
2019-12-11 09:03:57 GMT 49.705627 8.581262 36,525 121 458 896
2019-12-11 09:03:54 GMT 49.710114 8.570059 36,475 121 459 832
2019-12-11 09:03:51 GMT 49.713593 8.561385 36,375 121 458 832
2019-12-11 09:03:47 GMT 49.717045 8.552856 36,375 121 458 768
2019-12-11 09:03:44 GMT 49.721008 8.542954 36,350 122 459 768
2019-12-11 09:03:41 GMT 49.723701 8.536303 36,300 122 458 704
2019-12-11 09:03:36 GMT 49.731628 8.517151 36,200 123 457 640
2019-12-11 09:03:33 GMT 49.733433 8.512845 36,250 123 457 640
2019-12-11 09:03:30 GMT 49.735428 8.508188 36,150 125 455 640
2019-12-11 09:03:27 GMT 49.739994 8.497925 36,150 128 451 768
2019-12-11 09:03:24 GMT 49.744556 8.488497 36,125 131 448 1024
2019-12-11 09:03:21 GMT 49.748428 8.481084 36,075 131 449 960
2019-12-11 09:03:18 GMT 49.755123 8.469197 36,025 131 449 960
2019-12-11 09:03:15 GMT 49.755123 8.469197 36,000 131 448 1088
2019-12-11 09:03:12 GMT 49.760651 8.459689 35,925 131 450 960
2019-12-11 09:03:09 GMT 49.762802 8.455931 35,800 130 450 896
2019-12-11 09:03:06 GMT 49.768478 8.445523 35,800 125 454 704
2019-12-11 09:03:03 GMT 49.772095 8.438512 35,800 125 454 704
2019-12-11 09:03:00 GMT 49.776123 8.430200 35,675 125 454 704
2019-12-11 09:02:56 GMT 49.780930 8.419430 35,725 122 456 576
2019-12-11 09:02:52 GMT 49.784592 8.410685 35,675 120 457 512
2019-12-11 09:02:49 GMT 49.791111 8.393184 35,650 117 458 576
2019-12-11 09:02:46 GMT 49.791111 8.393184 35,650 117 459 576
2019-12-11 09:02:43 GMT 49.793762 8.385092 35,600 114 461 640
2019-12-11 09:02:40 GMT 49.797638 8.372377 35,575 113 461 640
2019-12-11 09:02:37 GMT 49.799286 8.366595 35,550 111 463 704
2019-12-11 09:02:34 GMT 49.802280 8.354806 35,500 108 464 896
2019-12-11 09:02:31 GMT 49.804642 8.344405 35,375 106 466 1216
2019-12-11 09:02:28 GMT 49.805878 8.338768 35,425 106 465 1024
2019-12-11 09:02:25 GMT 49.807617 8.330022 35,375 106 466 1152
2019-12-11 09:02:22 GMT 49.809860 8.318385 35,300 106 466 1152
2019-12-11 09:02:19 GMT 49.811871 8.307520 35,125 106 467 1216
2019-12-11 09:02:16 GMT 49.814255 8.294678 35,200 106 467 1216
2019-12-11 09:02:13 GMT 49.815224 8.289704 35,100 106 467 1216
2019-12-11 09:02:10 GMT 49.816853 8.280871 35,050 106 468 1408
2019-12-11 09:02:07 GMT 49.818764 8.270627 35,050 106 467 1280
2019-12-11 09:02:03 GMT 49.821075 8.258249 34,900 106 468 1344
2019-12-11 09:02:00 GMT 49.822723 8.249431 34,825 106 468 1408
2019-12-11 09:01:57 GMT 49.824142 8.241842 34,800 106 468 1408
2019-12-11 09:01:54 GMT 49.826443 8.229502 34,700 105 464 960
2019-12-11 09:01:51 GMT 49.830540 8.207455 34,650 106 469 960
2019-12-11 09:01:48 GMT 49.830540 8.207455 34,600 105 468 576
2019-12-11 09:01:45 GMT 49.831833 8.200643 34,525 105 468 576
2019-12-11 09:01:42 GMT 49.833611 8.190976 34,550 105 468 576
2019-12-11 09:01:39 GMT 49.835289 8.182142 34,500 106 467 640
2019-12-11 09:01:36 GMT 49.837646 8.169275 34,475 105 466 640
2019-12-11 09:01:33 GMT 49.838688 8.163658 34,450 105 464 1216
2019-12-11 09:01:30 GMT 49.840733 8.152672 34,425 105 465 768
2019-12-11 09:01:27 GMT 49.843063 8.139978 34,350 105 464 1152
2019-12-11 09:01:24 GMT 49.844879 8.130316 34,300 105 464 1088
2019-12-11 09:01:21 GMT 49.846973 8.118822 34,250 105 464 1152
2019-12-11 09:01:18 GMT 49.850044 8.102343 34,150 105 464 1216
2019-12-11 09:01:14 GMT 49.850044 8.102343 34,025 105 464 1216
2019-12-11 09:01:11 GMT 49.851440 8.094771 34,050 105 464 1216
2019-12-11 09:01:08 GMT 49.853954 8.081112 34,025 105 464 1216
2019-12-11 09:01:05 GMT 49.856655 8.066414 33,925 105 464 1216
2019-12-11 09:01:02 GMT 49.857586 8.061441 33,875 105 464 1216
2019-12-11 09:00:59 GMT 49.858841 8.054641 33,825 105 465 1216
2019-12-11 09:00:56 GMT 49.860844 8.043625 33,775 105 465 1152
2019-12-11 09:00:53 GMT 49.863144 8.031367 33,575 105 464 1024
2019-12-11 09:00:50 GMT 49.864288 8.025224 33,650 105 465 1216
2019-12-11 09:00:47 GMT 49.867767 8.006142 33,550 105 465 1216
2019-12-11 09:00:44 GMT 49.869415 7.997324 31,075 105 472 1472
2019-12-11 09:00:41 GMT 49.869415 7.997324 33,450 105 465 1088
2019-12-11 09:00:38 GMT 49.871460 7.986318 33,325 105 465 1024
2019-12-11 09:00:35 GMT 49.873718 7.974050 33,325 105 465 1024
2019-12-11 09:00:32 GMT 49.875229 7.965830 33,300 105 465 1024
2019-12-11 09:00:29 GMT 49.876968 7.956342 33,275 105 465 1024
2019-12-11 09:00:26 GMT 49.878719 7.946753 33,175 105 464 1024
2019-12-11 09:00:23 GMT 49.882233 7.927720 32,475 105 482 320
2019-12-11 09:00:20 GMT 49.882233 7.927720 33,100 105 464 832
2019-12-11 09:00:17 GMT 49.883980 7.918173 33,075 105 464 640
2019-12-11 09:00:13 GMT 49.885620 7.909072 33,025 105 465 128
2019-12-11 09:00:10 GMT 49.887844 7.896943 33,000 105 465 128
2019-12-11 09:00:07 GMT 49.890289 7.883558 33,000 105 466 256
2019-12-11 09:00:04 GMT 49.891617 7.876381 33,000 105 466 256
2019-12-11 09:00:00 GMT 49.894318 7.861609 32,975 105 467 320
2019-12-11 08:59:57 GMT 49.895340 7.855818 32,700 105 476 1792
2019-12-11 08:59:54 GMT 49.897568 7.843588 32,925 105 469 704
2019-12-11 08:59:51 GMT 49.899345 7.833846 32,725 105 470 896
2019-12-11 08:59:48 GMT 49.900223 7.829060 32,800 105 473 1600
2019-12-11 08:59:45 GMT 49.902462 7.816624 32,825 105 472 1408
2019-12-11 08:59:42 GMT 49.904205 7.806870 32,775 105 472 1472
2019-12-11 08:59:39 GMT 49.906235 7.795839 32,650 105 473 1472
2019-12-11 08:59:36 GMT 49.907730 7.787500 32,550 105 473 1408
2019-12-11 08:59:32 GMT 49.910282 7.773495 32,475 105 474 1408
2019-12-11 08:59:29 GMT 49.911400 7.767260 32,475 105 474 1408
2019-12-11 08:59:26 GMT 49.914101 7.752636 32,375 105 475 1664
2019-12-11 08:59:23 GMT 49.915962 7.742169 31,950 105 476 1856
2019-12-11 08:59:20 GMT 49.917641 7.733113 32,225 105 475 1664
2019-12-11 08:59:15 GMT 49.920155 7.719083 32,100 105 476 1792
2019-12-11 08:59:12 GMT 49.922665 7.705276 31,975 105 478 1920
2019-12-11 08:59:09 GMT 49.923843 7.698742 31,625 105 479 1984
2019-12-11 08:59:06 GMT 49.925354 7.690285 31,750 105 480 1984
2019-12-11 08:59:03 GMT 49.928101 7.675107 31,650 105 482 512
2019-12-11 08:59:00 GMT 49.932861 7.648786 31,525 105 480 1984
2019-12-11 08:58:55 GMT 49.932861 7.648786 31,425 105 481 1856
2019-12-11 08:58:52 GMT 49.934647 7.638823 31,325 105 482 1728
2019-12-11 08:58:49 GMT 49.935791 7.632390 31,275 105 482 1472
2019-12-11 08:58:46 GMT 49.938076 7.619612 31,075 105 482 640
2019-12-11 08:58:43 GMT 49.939518 7.611818 31,150 105 482 960
2019-12-11 08:58:40 GMT 49.941521 7.600609 31,100 105 482 512
2019-12-11 08:58:37 GMT 49.942932 7.592637 31,050 105 482 448
2019-12-11 08:58:34 GMT 49.944855 7.582012 31,025 105 482 128
2019-12-11 08:58:31 GMT 49.947105 7.569506 31,000 105 482 64
2019-12-11 08:58:28 GMT 49.948132 7.563642 31,000 105 481 64
2019-12-11 08:58:25 GMT 49.949661 7.555124 31,000 105 481 64
2019-12-11 08:58:22 GMT 49.951946 7.542337 30,975 105 481 64
2019-12-11 08:58:19 GMT 49.954193 7.529610 31,000 105 481 64
2019-12-11 08:58:16 GMT 49.955208 7.523853 31,000 105 481 64
2019-12-11 08:58:13 GMT 49.957115 7.513238 31,000 105 481 128
2019-12-11 08:58:10 GMT 49.959091 7.501927 31,000 105 481 64
2019-12-11 08:58:07 GMT 49.962002 7.485624 31,000 105 481 0
2019-12-11 08:58:01 GMT 49.963989 7.474317 31,000 105 480 -64
2019-12-11 08:57:58 GMT 49.965912 7.463692 31,000 105 481 0
2019-12-11 08:57:55 GMT 49.967636 7.453704 31,000 105 481 0
2019-12-11 08:57:52 GMT 49.970058 7.440268 31,000 105 480 -64
2019-12-11 08:57:48 GMT 49.971920 7.429653 31,025 105 478 64
2019-12-11 08:57:45 GMT 49.973549 7.420374 31,000 105 479 -64
2019-12-11 08:57:42 GMT 49.975296 7.410567 31,025 105 479 -64
2019-12-11 08:57:39 GMT 49.977551 7.397882 31,025 105 479 -64
2019-12-11 08:57:36 GMT 49.979324 7.387944 31,025 105 478 0
2019-12-11 08:57:33 GMT 49.983810 7.362647 31,000 105 478 64
2019-12-11 08:57:28 GMT 49.986073 7.349928 31,000 105 478 64
2019-12-11 08:57:24 GMT 49.986073 7.349928 31,000 105 479 64
2019-12-11 08:57:21 GMT 49.987934 7.339387 31,000 105 478 64
2019-12-11 08:57:17 GMT 49.990265 7.326002 31,000 105 478 64
2019-12-11 08:57:13 GMT 49.992310 7.314668 31,000 105 478 64
2019-12-11 08:57:10 GMT 49.995895 7.294344 31,000 105 479 128
2019-12-11 08:57:07 GMT 49.995895 7.294344 31,000 105 479 64
2019-12-11 08:57:01 GMT 49.999054 7.276563 31,000 105 479 64
2019-12-11 08:56:58 GMT 50.000782 7.266788 31,000 105 479 64
2019-12-11 08:56:55 GMT 50.003296 7.252610 31,000 105 479 64
2019-12-11 08:56:51 GMT 50.005901 7.237763 31,000 105 479 0
2019-12-11 08:56:48 GMT 50.007626 7.228113 31,000 105 478 64
2019-12-11 08:56:45 GMT 50.008621 7.222354 31,000 105 476 0
2019-12-11 08:56:40 GMT 50.012836 7.198569 31,000 105 474 -64
2019-12-11 08:56:37 GMT 50.015350 7.184336 31,000 105 475 0
2019-12-11 08:56:31 GMT 50.016998 7.175084 31,000 105 475 -64
2019-12-11 08:56:28 GMT 50.019104 7.163230 31,025 105 475 -64
2019-12-11 08:56:25 GMT 50.020332 7.156182 31,000 105 475 -64
2019-12-11 08:56:22 GMT 50.021915 7.147052 31,000 105 474 -64
2019-12-11 08:56:18 GMT 50.025146 7.128826 31,025 105 474 -64
2019-12-11 08:56:15 GMT 50.025871 7.124634 31,025 105 474 -128
2019-12-11 08:56:12 GMT 50.027573 7.114876 31,025 105 490 1216
2019-12-11 08:56:09 GMT 50.029404 7.104396 31,025 105 474 -128
2019-12-11 08:56:06 GMT 50.031364 7.093085 31,025 105 475 -64
2019-12-11 08:56:03 GMT 50.033691 7.079798 31,025 105 475 0
2019-12-11 08:55:59 GMT 50.035400 7.069919 31,025 105 482 640
2019-12-11 08:55:55 GMT 50.038071 7.054485 31,025 105 478 320
2019-12-11 08:55:52 GMT 50.039417 7.046690 31,000 105 481 512
2019-12-11 08:55:48 GMT 50.041237 7.036075 30,925 105 478 384
2019-12-11 08:55:45 GMT 50.043686 7.021998 30,950 105 481 576
2019-12-11 08:55:42 GMT 50.045654 7.010506 30,900 105 485 1024
2019-12-11 08:55:39 GMT 50.048492 6.994099 30,850 105 486 1152
2019-12-11 08:55:33 GMT 50.050644 6.981812 30,775 105 488 1472
2019-12-11 08:55:29 GMT 50.052639 6.970306 30,675 105 490 1728
2019-12-11 08:55:26 GMT 50.054920 6.957167 30,625 105 490 1728
2019-12-11 08:55:23 GMT 50.055817 6.952177 30,400 105 490 1472
2019-12-11 08:55:20 GMT 50.057693 6.941263 29,800 105 490 1344
2019-12-11 08:55:17 GMT 50.059948 6.928216 30,400 105 490 1088
2019-12-11 08:55:14 GMT 50.061722 6.918134 30,350 105 490 1088
2019-12-11 08:55:11 GMT 50.063210 6.909435 30,150 105 490 1088
2019-12-11 08:55:08 GMT 50.064884 6.899934 30,225 105 490 1088
2019-12-11 08:55:05 GMT 50.069504 6.873177 29,375 104 489 1472
2019-12-11 08:55:01 GMT 50.069504 6.873177 30,125 105 489 1088
2019-12-11 08:54:58 GMT 50.070648 6.866672 30,075 104 489 1408
2019-12-11 08:54:54 GMT 50.073257 6.851493 29,675 104 490 1600
2019-12-11 08:54:51 GMT 50.074860 6.842097 29,900 104 489 1408
2019-12-11 08:54:48 GMT 50.076736 6.831255 29,825 104 489 1472
2019-12-11 08:54:45 GMT 50.079117 6.817450 29,775 104 489 1472
2019-12-11 08:54:42 GMT 50.080490 6.809572 29,675 104 488 1024
2019-12-11 08:54:36 GMT 50.083969 6.789189 29,225 104 493 1408
2019-12-11 08:54:32 GMT 50.088181 6.764542 29,375 104 493 1664
2019-12-11 08:54:26 GMT 50.089554 6.756520 29,225 104 493 1408
2019-12-11 08:54:20 GMT 50.092575 6.739100 29,025 104 491 1792
2019-12-11 08:54:17 GMT 50.094818 6.726008 28,975 104 493 1664
2019-12-11 08:54:14 GMT 50.096786 6.714381 28,775 104 493 1600
2019-12-11 08:54:11 GMT 50.098263 6.705669 28,725 104 493 1600
2019-12-11 08:54:08 GMT 50.100636 6.691787 28,750 104 493 1408
2019-12-11 08:54:04 GMT 50.103149 6.677158 28,350 104 493 1408
2019-12-11 08:54:01 GMT 50.104019 6.672098 28,650 104 493 1408
2019-12-11 08:53:56 GMT 50.109055 6.642753 27,700 104 485 0
2019-12-11 08:53:50 GMT 50.110271 6.635445 28,400 104 493 1216
2019-12-11 08:53:47 GMT 50.112411 6.622974 27,525 104 482 64
2019-12-11 08:53:44 GMT 50.114277 6.612062 27,775 104 492 1024
2019-12-11 08:53:41 GMT 50.115623 6.604045 28,150 104 493 1088
2019-12-11 08:53:38 GMT 50.118118 6.589412 28,100 104 493 1088
2019-12-11 08:53:35 GMT 50.119350 6.582147 27,775 104 492 1024
2019-12-11 08:53:32 GMT 50.120979 6.572571 28,000 104 491 1024
2019-12-11 08:53:29 GMT 50.125683 6.545031 27,925 104 491 1024
2019-12-11 08:53:25 GMT 50.125683 6.545031 27,875 104 490 960
2019-12-11 08:53:21 GMT 50.127686 6.533251 27,850 104 490 960
2019-12-11 08:53:18 GMT 50.129356 6.523207 27,800 104 488 1024
2019-12-11 08:53:15 GMT 50.131577 6.510122 27,725 104 488 1152
2019-12-11 08:53:11 GMT 50.133545 6.498485 27,675 104 488 1152
2019-12-11 08:53:07 GMT 50.137939 6.472465 27,575 104 487 1344
2019-12-11 08:53:03 GMT 50.137939 6.472465 27,525 104 487 1280
2019-12-11 08:53:00 GMT 50.139999 6.460250 27,450 104 486 1472
2019-12-11 08:52:57 GMT 50.141602 6.450782 27,375 104 486 1472
2019-12-11 08:52:53 GMT 50.143044 6.442145 27,050 104 486 0
2019-12-11 08:52:50 GMT 50.145370 6.428487 27,050 104 484 64
2019-12-11 08:52:47 GMT 50.146820 6.419774 27,125 104 482 128
2019-12-11 08:52:44 GMT 50.149338 6.404596 27,075 104 484 448
2019-12-11 08:52:40 GMT 50.151051 6.394488 27,075 104 484 512
2019-12-11 08:52:37 GMT 50.153053 6.382389 27,000 104 484 0
2019-12-11 08:52:33 GMT 50.155014 6.370769 27,025 104 484 64
2019-12-11 08:52:30 GMT 50.157166 6.357831 27,000 104 484 0
2019-12-11 08:52:26 GMT 50.158997 6.346990 27,025 104 484 64
2019-12-11 08:52:23 GMT 50.161106 6.334360 27,025 104 484 64
2019-12-11 08:52:20 GMT 50.162430 6.326246 27,000 104 484 64
2019-12-11 08:52:16 GMT 50.164948 6.311284 27,000 104 484 64
2019-12-11 08:52:13 GMT 50.166641 6.301021 27,000 104 485 0
2019-12-11 08:52:09 GMT 50.168091 6.292345 27,000 104 485 0
2019-12-11 08:52:05 GMT 50.171070 6.274381 27,000 104 485 0
2019-12-11 08:52:02 GMT 50.172421 6.266438 27,000 104 485 0
2019-12-11 08:51:59 GMT 50.174702 6.252780 27,000 104 481 384
2019-12-11 08:51:56 GMT 50.176003 6.244837 27,000 104 482 128
2019-12-11 08:51:53 GMT 50.177353 6.236820 27,000 104 484 0
2019-12-11 08:51:50 GMT 50.179504 6.223899 27,000 104 484 0
2019-12-11 08:51:47 GMT 50.180939 6.215292 27,000 104 483 0
2019-12-11 08:51:43 GMT 50.185364 6.188772 27,000 104 483 64
2019-12-11 08:51:40 GMT 50.185364 6.188772 27,000 104 482 128
2019-12-11 08:51:37 GMT 50.186234 6.183785 27,000 104 482 64
2019-12-11 08:51:34 GMT 50.188019 6.173015 27,000 104 482 64
2019-12-11 08:51:31 GMT 50.190079 6.160800 27,000 104 482 128
2019-12-11 08:51:28 GMT 50.192184 6.148152 27,000 104 482 64
2019-12-11 08:51:25 GMT 50.193554 6.139947 27,000 104 482 0
2019-12-11 08:51:19 GMT 50.197266 6.118011 27,000 104 482 128
2019-12-11 08:51:16 GMT 50.198116 6.112778 27,000 104 481 256
2019-12-11 08:51:13 GMT 50.199829 6.102761 26,975 104 481 512
2019-12-11 08:51:10 GMT 50.203053 6.083457 26,925 104 479 832
2019-12-11 08:51:04 GMT 50.205185 6.070597 26,900 104 480 768
2019-12-11 08:51:01 GMT 50.207100 6.059257 26,675 104 480 768
2019-12-11 08:50:57 GMT 50.211044 6.035686 26,775 104 480 768
2019-12-11 08:50:54 GMT 50.211044 6.035686 26,750 104 480 768
2019-12-11 08:50:51 GMT 50.212219 6.028451 26,700 104 480 768
2019-12-11 08:50:48 GMT 50.214222 6.016425 26,675 104 480 832
2019-12-11 08:50:44 GMT 50.215805 6.006998 26,650 104 480 832
2019-12-11 08:50:41 GMT 50.217911 5.994198 26,575 104 477 1280
2019-12-11 08:50:38 GMT 50.219528 5.984283 25,600 114 463 896
2019-12-11 08:50:34 GMT 50.221485 5.972183 26,475 104 477 1408
2019-12-11 08:50:31 GMT 50.223862 5.957481 26,350 104 478 1920
2019-12-11 08:50:27 GMT 50.225601 5.946567 26,100 104 478 1920
2019-12-11 08:50:22 GMT 50.228096 5.930910 26,125 109 474 1280
2019-12-11 08:50:18 GMT 50.230820 5.914548 25,950 107 475 1536
2019-12-11 08:50:15 GMT 50.232697 5.904212 25,875 107 475 1536
2019-12-11 08:50:11 GMT 50.234528 5.894888 25,775 107 475 1536
2019-12-11 08:50:08 GMT 50.237137 5.882600 25,650 109 473 1216
2019-12-11 08:50:05 GMT 50.239380 5.872771 25,650 109 473 1216
2019-12-11 08:50:02 GMT 50.245422 5.848485 25,525 129 428 1856
2019-12-11 08:49:57 GMT 50.245422 5.848485 25,475 112 468 1152
2019-12-11 08:49:54 GMT 50.247391 5.841185 25,450 112 467 1088
2019-12-11 08:49:51 GMT 50.253887 5.818300 25,275 114 464 960
2019-12-11 08:49:47 GMT 50.253887 5.818300 25,300 114 464 960
2019-12-11 08:49:44 GMT 50.256351 5.809838 25,275 115 461 896
2019-12-11 08:49:40 GMT 50.260078 5.797738 25,200 116 458 1024
2019-12-11 08:49:37 GMT 50.262863 5.788855 25,150 116 457 1088
2019-12-11 08:49:34 GMT 50.266937 5.776351 25,125 117 456 1216
2019-12-11 08:49:31 GMT 50.268585 5.771364 25,025 117 455 1344
2019-12-11 08:49:28 GMT 50.271576 5.762700 24,925 118 452 1344
2019-12-11 08:49:25 GMT 50.274994 5.752933 24,875 120 450 1216
2019-12-11 08:49:22 GMT 50.278046 5.744365 24,825 120 450 1152
2019-12-11 08:49:19 GMT 50.280048 5.738946 24,800 129 428 1856
2019-12-11 08:49:16 GMT 50.284515 5.727129 24,675 121 447 1088
2019-12-11 08:49:13 GMT 50.287949 5.718312 24,650 122 445 1024
2019-12-11 08:49:10 GMT 50.290707 5.711332 24,525 125 434 1344
2019-12-11 08:49:06 GMT 50.294712 5.701459 24,550 122 443 960
2019-12-11 08:49:03 GMT 50.297832 5.694110 24,500 126 433 1472
2019-12-11 08:49:00 GMT 50.305847 5.675667 24,300 126 433 1408
2019-12-11 08:48:57 GMT 50.305847 5.675667 24,375 125 437 1152
2019-12-11 08:48:53 GMT 50.308819 5.669094 24,275 125 435 1216
2019-12-11 08:48:49 GMT 50.314079 5.657662 24,225 126 433 1472
2019-12-11 08:48:46 GMT 50.321247 5.642667 24,025 127 431 1664
2019-12-11 08:48:40 GMT 50.325157 5.634799 23,850 127 431 1728
2019-12-11 08:48:37 GMT 50.329330 5.626518 23,875 128 429 1792
2019-12-11 08:48:33 GMT 50.333584 5.618319 23,800 129 428 1728
2019-12-11 08:48:29 GMT 50.338394 5.609099 23,700 129 428 1792
2019-12-11 08:48:25 GMT 50.344757 5.596739 23,525 129 428 1856
2019-12-11 08:48:22 GMT 50.346680 5.593125 23,475 129 428 1856
2019-12-11 08:48:17 GMT 50.353554 5.579867 23,275 129 428 1792
2019-12-11 08:48:14 GMT 50.357510 5.572147 22,275 128 425 1920
2019-12-11 08:48:11 GMT 50.360443 5.566505 23,075 129 427 1728
2019-12-11 08:48:08 GMT 50.365219 5.557275 23,025 129 427 1728
2019-12-11 08:48:05 GMT 50.367893 5.552178 22,575 128 426 1792
2019-12-11 08:48:01 GMT 50.374237 5.539928 22,800 128 426 1920
2019-12-11 08:47:53 GMT 50.383720 5.521521 22,575 128 425 2048
2019-12-11 08:47:49 GMT 50.391167 5.507194 22,400 128 399 2240
2019-12-11 08:47:43 GMT 50.396027 5.497718 22,250 128 425 2048
2019-12-11 08:47:40 GMT 50.402252 5.485719 22,075 128 425 1792
2019-12-11 08:47:34 GMT 50.407459 5.475645 21,950 129 423 1600
2019-12-11 08:47:30 GMT 50.416168 5.458832 21,725 129 422 1600
2019-12-11 08:47:26 GMT 50.416168 5.458832 21,725 129 422 1600
2019-12-11 08:47:23 GMT 50.421158 5.449146 21,650 129 420 1536
2019-12-11 08:47:19 GMT 50.426331 5.439244 21,550 129 420 1600
2019-12-11 08:47:16 GMT 50.428738 5.434595 20,900 128 414 1856
2019-12-11 08:47:12 GMT 50.433159 5.425984 20,350 128 414 2048
2019-12-11 08:47:09 GMT 50.437317 5.417994 21,300 128 418 1728
2019-12-11 08:47:06 GMT 50.441257 5.410395 21,200 128 417 1792
2019-12-11 08:47:02 GMT 50.445374 5.402382 21,150 128 417 1792
2019-12-11 08:46:58 GMT 50.451782 5.389950 20,950 128 414 1856
2019-12-11 08:46:55 GMT 50.457962 5.377952 20,775 128 413 2048
2019-12-11 08:46:49 GMT 50.461555 5.370904 20,700 128 414 1984
2019-12-11 08:46:46 GMT 50.466396 5.361477 20,550 128 414 2048
2019-12-11 08:46:43 GMT 50.469704 5.355018 20,450 128 413 2112
2019-12-11 08:46:40 GMT 50.477337 5.340098 20,375 128 412 2048
2019-12-11 08:46:37 GMT 50.477337 5.340098 20,275 128 399 2240
2019-12-11 08:46:32 GMT 50.481949 5.331188 20,150 128 412 2048
2019-12-11 08:46:29 GMT 50.485531 5.324212 19,950 128 412 2048
2019-12-11 08:46:26 GMT 50.493393 5.308854 19,725 128 411 1920
2019-12-11 08:46:22 GMT 50.493393 5.308854 19,775 128 410 1920
2019-12-11 08:46:18 GMT 50.499214 5.297414 18,425 128 397 2048
2019-12-11 08:46:15 GMT 50.503033 5.290065 19,525 128 409 1792
2019-12-11 08:46:11 GMT 50.506302 5.283701 19,400 128 408 1792
2019-12-11 08:46:08 GMT 50.512024 5.272498 19,300 128 406 1664
2019-12-11 08:46:04 GMT 50.515640 5.265487 19,225 128 405 1600
2019-12-11 08:46:01 GMT 50.517883 5.261078 19,125 128 404 1664
2019-12-11 08:45:57 GMT 50.526123 5.245007 19,000 128 402 1728
2019-12-11 08:45:54 GMT 50.526123 5.245007 18,900 128 401 1856
2019-12-11 08:45:51 GMT 50.531757 5.233872 18,850 128 401 1920
2019-12-11 08:45:48 GMT 50.533012 5.231422 18,850 128 401 1920
2019-12-11 08:45:45 GMT 50.537476 5.222770 18,625 128 398 2304
2019-12-11 08:45:41 GMT 50.541393 5.215091 18,475 128 398 2304
2019-12-11 08:45:38 GMT 50.544605 5.208707 18,175 128 398 2304
2019-12-11 08:45:35 GMT 50.549973 5.198196 18,350 128 397 2048
2019-12-11 08:45:32 GMT 50.555637 5.187106 17,725 128 395 2112
2019-12-11 08:45:29 GMT 50.555637 5.187106 18,075 128 396 1984
2019-12-11 08:45:26 GMT 50.562992 5.172705 17,975 128 396 1984
2019-12-11 08:45:23 GMT 50.562992 5.172705 17,875 128 395 2176
2019-12-11 08:45:20 GMT 50.566811 5.165133 17,650 128 394 2304
2019-12-11 08:45:17 GMT 50.568832 5.161189 17,600 128 394 2304
2019-12-11 08:45:13 GMT 50.574909 5.149322 17,300 128 394 2176
2019-12-11 08:45:10 GMT 50.578541 5.142195 17,375 128 394 2112
2019-12-11 08:45:06 GMT 50.582428 5.134591 17,250 128 391 2304
2019-12-11 08:45:02 GMT 50.587292 5.125122 16,200 106 399 3712
2019-12-11 08:44:58 GMT 50.591446 5.117099 16,975 128 391 2432
2019-12-11 08:44:55 GMT 50.595520 5.109221 15,925 120 386 1728
2019-12-11 08:44:51 GMT 50.598724 5.102933 16,725 129 390 2112
2019-12-11 08:44:48 GMT 50.603584 5.093648 16,625 129 388 1984
2019-12-11 08:44:45 GMT 50.605728 5.089489 16,525 129 387 1856
2019-12-11 08:44:42 GMT 50.609390 5.082478 16,025 129 385 1792
2019-12-11 08:44:37 GMT 50.615875 5.069968 16,250 129 383 1856
2019-12-11 08:44:32 GMT 50.621788 5.058536 15,725 127 383 1920
2019-12-11 08:44:28 GMT 50.624908 5.052338 15,875 121 385 1792
2019-12-11 08:44:25 GMT 50.631657 5.037306 15,875 106 398 1984
2019-12-11 08:44:22 GMT 50.631657 5.037306 15,825 120 386 1728
2019-12-11 08:44:18 GMT 50.638081 5.018228 15,575 114 387 1856
2019-12-11 08:44:15 GMT 50.638081 5.018228 15,550 113 388 1856
2019-12-11 08:44:12 GMT 50.639282 5.013813 15,525 109 390 1984
2019-12-11 08:44:08 GMT 50.641617 5.004128 15,200 106 389 3264
2019-12-11 08:44:05 GMT 50.643585 4.994443 15,200 106 389 3072
2019-12-11 08:44:02 GMT 50.645157 4.986308 14,850 106 393 4288
2019-12-11 08:43:59 GMT 50.646515 4.979336 14,850 106 393 4288
2019-12-11 08:43:56 GMT 50.647934 4.971819 14,800 106 390 3584
2019-12-11 08:43:50 GMT 50.651161 4.954982 13,875 106 394 4352
2019-12-11 08:43:45 GMT 50.653908 4.940359 14,050 106 398 3968
2019-12-11 08:43:40 GMT 50.656265 4.928019 13,750 106 399 3648
2019-12-11 08:43:37 GMT 50.658283 4.917273 13,550 106 399 3648
2019-12-11 08:43:34 GMT 50.659775 4.909478 13,400 106 401 3008
2019-12-11 08:43:30 GMT 50.661449 4.900496 12,550 106 401 3008
2019-12-11 08:43:27 GMT 50.663174 4.891588 13,000 106 401 2432
2019-12-11 08:43:24 GMT 50.664734 4.883278 12,675 106 393 2112
2019-12-11 08:43:19 GMT 50.667736 4.867092 12,700 106 398 1984
2019-12-11 08:43:15 GMT 50.670250 4.853582 12,550 106 394 2112
2019-12-11 08:43:11 GMT 50.671459 4.847049 12,325 106 392 2176
2019-12-11 08:43:07 GMT 50.673615 4.835395 12,000 109 374 1344
2019-12-11 08:43:04 GMT 50.675556 4.824905 12,175 106 390 2304
2019-12-11 08:42:59 GMT 50.677551 4.814461 12,025 106 388 2112
2019-12-11 08:42:55 GMT 50.679749 4.802881 11,875 107 383 1792
2019-12-11 08:42:52 GMT 50.681702 4.792557 11,750 107 384 1856
2019-12-11 08:42:49 GMT 50.683044 4.785808 11,725 107 381 1664
2019-12-11 08:42:46 GMT 50.684631 4.777832 11,575 109 372 1280
2019-12-11 08:42:43 GMT 50.686066 4.771184 11,550 108 375 1408
2019-12-11 08:42:40 GMT 50.688313 4.760895 11,475 110 371 1152
2019-12-11 08:42:37 GMT 50.692036 4.747772 11,375 118 358 960
2019-12-11 08:42:31 GMT 50.695175 4.739339 11,300 125 347 960
2019-12-11 08:42:28 GMT 50.700165 4.728204 11,250 130 337 1152
2019-12-11 08:42:25 GMT 50.700165 4.728204 10,975 131 327 1280
2019-12-11 08:42:21 GMT 50.704651 4.719772 11,150 131 333 1216
2019-12-11 08:42:18 GMT 50.706985 4.715510 11,025 131 325 1280
2019-12-11 08:42:15 GMT 50.710831 4.708607 11,025 131 325 1280
2019-12-11 08:42:12 GMT 50.712749 4.705200 10,975 131 323 1344
2019-12-11 08:42:09 GMT 50.715729 4.699847 10,350 131 318 1408
2019-12-11 08:42:04 GMT 50.720261 4.691756 10,825 131 314 1408
2019-12-11 08:42:01 GMT 50.724152 4.684778 10,650 131 308 1536
2019-12-11 08:41:58 GMT 50.726807 4.680102 10,650 131 306 1600
2019-12-11 08:41:54 GMT 50.730392 4.673691 10,425 131 299 2048
2019-12-11 08:41:50 GMT 50.733791 4.667740 10,425 132 297 2240
2019-12-11 08:41:47 GMT 50.737099 4.661942 10,300 131 295 2560
2019-12-11 08:41:43 GMT 50.740032 4.656830 9,900 132 294 2816
2019-12-11 08:41:39 GMT 50.743336 4.651031 10,000 132 293 2688
2019-12-11 08:41:36 GMT 50.747040 4.644619 9,800 132 291 2560
2019-12-11 08:41:33 GMT 50.749557 4.640239 9,725 132 290 2560
2019-12-11 08:41:30 GMT 50.756470 4.628213 9,375 132 287 2880
2019-12-11 08:41:25 GMT 50.756470 4.628213 9,350 132 286 2944
2019-12-11 08:41:22 GMT 50.758743 4.624252 9,275 132 286 3008
2019-12-11 08:41:18 GMT 50.763027 4.616699 8,975 131 285 3008
2019-12-11 08:41:14 GMT 50.766796 4.610062 8,750 131 284 2880
2019-12-11 08:41:11 GMT 50.771828 4.601135 8,575 131 283 2880
2019-12-11 08:41:08 GMT 50.771828 4.601135 8,475 131 281 2944
2019-12-11 08:41:05 GMT 50.774570 4.596252 8,375 131 281 3072
2019-12-11 08:41:02 GMT 50.776947 4.591980 8,100 131 280 3200
2019-12-11 08:40:59 GMT 50.779366 4.587708 8,025 131 279 3136
2019-12-11 08:40:56 GMT 50.781876 4.583155 7,175 130 276 3584
2019-12-11 08:40:53 GMT 50.787003 4.574024 7,575 131 278 3008
2019-12-11 08:40:50 GMT 50.787003 4.574024 7,500 131 277 3136
2019-12-11 08:40:47 GMT 50.793846 4.561691 7,125 130 276 3648
2019-12-11 08:40:43 GMT 50.793846 4.561691 7,225 131 275 3520
2019-12-11 08:40:39 GMT 50.797150 4.555664 6,925 130 276 3584
2019-12-11 08:40:35 GMT 50.800049 4.550344 6,000 130 276 3328
2019-12-11 08:40:32 GMT 50.802704 4.545445 6,450 130 277 3264
2019-12-11 08:40:29 GMT 50.804672 4.541807 6,325 129 276 3008
2019-12-11 08:40:23 GMT 50.810486 4.530747 6,025 129 274 3264
2019-12-11 08:40:19 GMT 50.812775 4.526367 5,800 129 272 3648
2019-12-11 08:40:13 GMT 50.817680 4.516754 5,400 128 274 3840
2019-12-11 08:40:09 GMT 50.820892 4.510345 5,125 128 274 3584
2019-12-11 08:40:02 GMT 50.826096 4.499866 4,300 127 273 3136
2019-12-11 08:39:59 GMT 50.828388 4.495163 4,575 127 273 3072
2019-12-11 08:39:52 GMT 50.836720 4.478073 4,025 127 267 0
2019-12-11 08:39:48 GMT 50.836720 4.478073 4,025 127 268 2752
2019-12-11 08:39:41 GMT 50.842209 4.466907 3,825 128 265 2432
2019-12-11 08:39:38 GMT 50.844131 4.463047 3,450 129 257 1856
2019-12-11 08:39:31 GMT 50.853432 4.446030 3,150 134 241 1856
2019-12-11 08:39:27 GMT 50.853432 4.446030 3,225 133 243 1856
2019-12-11 08:39:23 GMT 50.856224 4.441452 3,100 136 237 1920
2019-12-11 08:39:20 GMT 50.857716 4.439087 3,025 139 231 1984
2019-12-11 08:39:17 GMT 50.861206 4.434245 2,900 141 228 1984
2019-12-11 08:39:11 GMT 50.865829 4.428678 2,700 146 222 2048
2019-12-11 08:39:06 GMT 50.870636 4.424224 2,525 157 213 1280
2019-12-11 08:39:01 GMT 50.874195 4.422226 2,425 175 202 960
2019-12-11 08:38:58 GMT 50.877590 4.421387 2,375 192 191 896
2019-12-11 08:38:55 GMT 50.881271 4.421768 2,300 192 191 896
2019-12-11 08:38:52 GMT 50.882900 4.422379 2,275 198 188 896
2019-12-11 08:38:49 GMT 50.888763 4.427268 2,275 201 185 896
2019-12-11 08:38:44 GMT 50.888996 4.427643 2,150 226 171 1024
We lost coverage of the aircraft here for a total of 69 minutes
2019-12-11 07:29:34 GMT 50.922050 4.535599 850 246 129 -704
2019-12-11 07:29:28 GMT 50.923553 4.540917 825 246 129 -832
2019-12-11 07:29:17 GMT 50.926300 4.550418 975 246 128 -640
2019-12-11 07:29:09 GMT 50.928177 4.557025 1,050 246 129 -768
2019-12-11 07:29:02 GMT 50.929916 4.562964 1,150 246 129 -704
2019-12-11 07:28:53 GMT 50.932339 4.571381 1,275 246 129 -576
2019-12-11 07:28:42 GMT 50.934898 4.580307 1,400 246 130 -704
2019-12-11 07:28:33 GMT 50.937412 4.589005 1,500 246 131 -576
2019-12-11 07:28:25 GMT 50.939301 4.595551 1,575 246 133 -640
2019-12-11 07:28:22 GMT 50.940067 4.598236 1,625 246 135 -768
2019-12-11 07:28:12 GMT 50.942734 4.607503 1,750 246 137 -704
2019-12-11 07:28:04 GMT 50.944908 4.615021 1,850 246 144 -832
2019-12-11 07:28:01 GMT 50.945511 4.617081 1,875 246 145 -832
2019-12-11 07:27:58 GMT 50.946815 4.621582 1,925 246 151 -832
2019-12-11 07:27:54 GMT 50.947495 4.623982 2,025 246 151 -832
2019-12-11 07:27:51 GMT 50.948818 4.628677 2,100 246 154 -1024
2019-12-11 07:27:48 GMT 50.949703 4.631729 2,100 246 154 -1024
2019-12-11 07:27:45 GMT 50.950150 4.633335 2,125 246 156 -960
2019-12-11 07:27:42 GMT 50.951569 4.638160 2,175 246 159 -960
2019-12-11 07:27:39 GMT 50.952118 4.640016 2,225 246 161 -896
2019-12-11 07:27:32 GMT 50.954636 4.648819 2,350 246 168 -960
2019-12-11 07:27:26 GMT 50.956604 4.655753 2,425 246 170 -832
2019-12-11 07:27:22 GMT 50.957848 4.660187 2,500 246 170 -768
2019-12-11 07:27:19 GMT 50.959805 4.666901 2,600 246 169 -704
2019-12-11 07:27:15 GMT 50.961575 4.673080 2,600 246 167 -576
2019-12-11 07:27:10 GMT 50.963242 4.678914 2,625 246 169 -512
2019-12-11 07:27:05 GMT 50.963242 4.678914 2,650 246 174 -704
2019-12-11 07:27:01 GMT 50.964367 4.682846 2,700 246 175 -768
2019-12-11 07:26:57 GMT 50.965439 4.686584 2,750 246 176 -1216
2019-12-11 07:26:54 GMT 50.966904 4.691830 2,875 246 176 -1216
2019-12-11 07:26:51 GMT 50.967636 4.694428 2,900 246 177 -1088
2019-12-11 07:26:48 GMT 50.969284 4.700144 2,950 246 177 -1024
2019-12-11 07:26:44 GMT 50.969971 4.702445 3,000 246 178 -1088
2019-12-11 07:26:40 GMT 50.971161 4.706528 3,075 246 179 -1344
2019-12-11 07:26:36 GMT 50.972672 4.711873 3,175 246 181 -1472
2019-12-11 07:26:31 GMT 50.974655 4.718857 3,350 246 181 -1344
2019-12-11 07:26:28 GMT 50.975693 4.722414 3,400 246 182 -768
2019-12-11 07:26:23 GMT 50.978378 4.731598 3,500 246 187 -1152
2019-12-11 07:26:20 GMT 50.978378 4.731598 3,500 246 187 -1152
2019-12-11 07:26:16 GMT 50.979584 4.735850 3,700 247 192 -768
2019-12-11 07:26:13 GMT 50.980911 4.740452 3,650 246 191 -832
2019-12-11 07:26:10 GMT 50.981964 4.744339 3,675 247 193 -704
2019-12-11 07:26:07 GMT 50.983063 4.748172 3,725 247 195 -704
2019-12-11 07:26:04 GMT 50.984344 4.752997 3,775 248 197 -896
2019-12-11 07:26:00 GMT 50.986294 4.760284 4,150 271 219 -384
2019-12-11 07:25:57 GMT 50.986588 4.761534 3,875 249 199 -1024
2019-12-11 07:25:53 GMT 50.987736 4.766159 3,950 250 200 -1152
2019-12-11 07:25:49 GMT 50.989552 4.773788 4,050 251 200 -640
2019-12-11 07:25:45 GMT 50.990528 4.778214 4,075 252 202 -192
2019-12-11 07:25:41 GMT 50.991806 4.784249 4,100 253 206 -192
2019-12-11 07:25:37 GMT 50.992855 4.789505 4,100 254 211 64
2019-12-11 07:25:34 GMT 50.994579 4.798660 4,100 256 214 -64
2019-12-11 07:25:31 GMT 50.994579 4.798660 4,100 257 216 -64
2019-12-11 07:25:27 GMT 50.995651 4.806444 4,100 261 218 -128
2019-12-11 07:25:22 GMT 50.996067 4.810944 4,125 264 219 -64
2019-12-11 07:25:19 GMT 50.996395 4.824295 4,150 271 219 -384
2019-12-11 07:25:14 GMT 50.996346 4.832840 4,125 271 218 -192
2019-12-11 07:25:09 GMT 50.996346 4.832840 4,150 271 218 -256
2019-12-11 07:25:05 GMT 50.996300 4.840240 4,150 271 219 -448
2019-12-11 07:25:02 GMT 50.996300 4.845963 4,175 271 219 -512
2019-12-11 07:24:59 GMT 50.996292 4.847792 4,200 271 219 -512
2019-12-11 07:24:56 GMT 50.996246 4.854992 4,250 270 219 -512
2019-12-11 07:24:53 GMT 50.996208 4.859772 4,250 270 219 -512
2019-12-11 07:24:50 GMT 50.996246 4.863158 4,300 270 220 -448
2019-12-11 07:24:44 GMT 50.996246 4.872140 4,350 271 220 -512
2019-12-11 07:24:41 GMT 50.996208 4.878311 4,350 271 220 -512
2019-12-11 07:24:38 GMT 50.996208 4.882126 4,375 271 220 -512
2019-12-11 07:24:32 GMT 50.996201 4.892034 4,425 270 219 -512
2019-12-11 07:24:29 GMT 50.996201 4.898566 4,475 270 219 -512
2019-12-11 07:24:24 GMT 50.996208 4.906082 4,500 270 219 -512
2019-12-11 07:24:21 GMT 50.996201 4.910221 4,525 270 219 -512
2019-12-11 07:24:18 GMT 50.996201 4.915343 4,550 270 219 -512
2019-12-11 07:24:14 GMT 50.996201 4.922172 4,600 270 219 -512
2019-12-11 07:24:11 GMT 50.996208 4.925232 4,625 270 218 -448
2019-12-11 07:24:08 GMT 50.996201 4.930709 4,650 270 218 -448
2019-12-11 07:24:04 GMT 50.996201 4.937538 4,650 271 217 -448
2019-12-11 07:24:00 GMT 50.996162 4.942932 4,725 271 216 -512
2019-12-11 07:23:57 GMT 50.996162 4.947968 4,775 271 216 -512
2019-12-11 07:23:51 GMT 50.996109 4.959139 4,800 271 216 -512
2019-12-11 07:23:48 GMT 50.996063 4.961812 4,800 271 216 -512
2019-12-11 07:23:44 GMT 50.996021 4.969559 4,850 271 216 -576
2019-12-11 07:23:41 GMT 50.995975 4.973984 4,875 271 216 -576
2019-12-11 07:23:38 GMT 50.995930 4.977722 4,900 272 217 -576
2019-12-11 07:23:33 GMT 50.995834 4.986191 4,925 272 217 -512
2019-12-11 07:23:30 GMT 50.995789 4.990911 5,075 272 217 -512
2019-12-11 07:23:27 GMT 50.995743 4.994965 5,125 272 217 -512
2019-12-11 07:23:21 GMT 50.995556 5.005875 5,050 272 217 -512
2019-12-11 07:23:18 GMT 50.995422 5.011250 5,075 272 216 -448
2019-12-11 07:23:14 GMT 50.995331 5.016298 5,100 273 214 -384
2019-12-11 07:23:10 GMT 50.995193 5.022014 5,125 273 215 -384
2019-12-11 07:23:07 GMT 50.995090 5.027390 5,150 273 215 -448
2019-12-11 07:23:04 GMT 50.994965 5.032109 5,175 273 215 -448
2019-12-11 07:23:01 GMT 50.994858 5.037460 5,200 273 215 -512
2019-12-11 07:22:58 GMT 50.994762 5.041122 5,225 272 217 -832
2019-12-11 07:22:55 GMT 50.994644 5.045917 5,275 272 217 -896
2019-12-11 07:22:51 GMT 50.994484 5.054398 5,325 272 219 -832
2019-12-11 07:22:48 GMT 50.994438 5.057831 5,375 272 220 -896
2019-12-11 07:22:44 GMT 50.994301 5.064087 5,475 272 221 -768
2019-12-11 07:22:39 GMT 50.994095 5.076203 5,500 272 226 -576
2019-12-11 07:22:36 GMT 50.994095 5.076203 5,500 272 227 -576
2019-12-11 07:22:31 GMT 50.993927 5.086670 5,575 272 225 -576
2019-12-11 07:22:28 GMT 50.993683 5.099661 5,650 272 233 -704
2019-12-11 07:22:23 GMT 50.993683 5.099661 5,700 272 232 -640
2019-12-11 07:22:17 GMT 50.993507 5.108719 5,725 272 236 -768
2019-12-11 07:22:13 GMT 50.993366 5.116425 5,775 272 237 -832
2019-12-11 07:22:10 GMT 50.993271 5.123118 5,825 272 238 -832
2019-12-11 07:22:06 GMT 50.993179 5.127201 5,975 272 241 -704
2019-12-11 07:22:02 GMT 50.993042 5.135040 5,925 272 241 -704
2019-12-11 07:21:59 GMT 50.992950 5.141754 5,975 272 243 -576
2019-12-11 07:21:56 GMT 50.992855 5.145264 6,375 272 245 -576
2019-12-11 07:21:53 GMT 50.992767 5.150658 6,025 273 247 -640
2019-12-11 07:21:50 GMT 50.992538 5.159046 6,050 290 259 -2048
2019-12-11 07:21:47 GMT 50.992435 5.161896 6,375 296 257 -2624
2019-12-11 07:21:42 GMT 50.991898 5.172631 6,300 278 257 -1408
2019-12-11 07:21:39 GMT 50.991413 5.177460 6,300 285 259 -1792
2019-12-11 07:21:35 GMT 50.990341 5.184582 6,725 288 259 -1920
2019-12-11 07:21:31 GMT 50.988602 5.192599 6,575 296 256 -2624
2019-12-11 07:21:27 GMT 50.986542 5.200022 6,725 296 257 -2624
2019-12-11 07:21:21 GMT 50.984150 5.208054 6,900 296 255 -2688
2019-12-11 07:21:17 GMT 50.981731 5.215988 7,150 297 252 -1600
2019-12-11 07:21:11 GMT 50.978256 5.227265 7,350 297 252 -1472
2019-12-11 07:21:08 GMT 50.977306 5.230103 7,425 297 251 -1408
2019-12-11 07:21:05 GMT 50.975784 5.235060 7,500 297 251 -1216
2019-12-11 07:21:02 GMT 50.973492 5.242310 7,800 297 250 -960
2019-12-11 07:20:59 GMT 50.972260 5.246269 7,625 297 249 -832
2019-12-11 07:20:56 GMT 50.969860 5.253830 7,675 297 248 -896
2019-12-11 07:20:52 GMT 50.968964 5.256661 7,800 347 270 -1152
2019-12-11 07:20:48 GMT 50.966949 5.262897 7,775 300 246 -832
2019-12-11 07:20:45 GMT 50.965210 5.267944 7,800 300 246 -832
2019-12-11 07:20:42 GMT 50.960861 5.278634 7,850 305 248 -896
2019-12-11 07:20:36 GMT 50.959106 5.281982 7,975 320 256 -1024
2019-12-11 07:20:32 GMT 50.955002 5.287838 8,025 324 258 -1024
2019-12-11 07:20:28 GMT 50.952076 5.291138 8,100 330 261 -1024
2019-12-11 07:20:25 GMT 50.949371 5.293554 8,250 348 272 -1152
2019-12-11 07:20:22 GMT 50.944244 5.296895 8,200 343 269 -1088
2019-12-11 07:20:15 GMT 50.937012 5.299641 8,325 353 273 -1216
2019-12-11 07:20:12 GMT 50.932709 5.300674 8,375 353 274 -1088
2019-12-11 07:20:09 GMT 50.928955 5.301423 8,425 353 274 -1088
2019-12-11 07:20:05 GMT 50.923050 5.302611 8,550 353 273 -1152
2019-12-11 07:20:01 GMT 50.919342 5.303353 8,600 353 272 -1216
2019-12-11 07:19:55 GMT 50.911530 5.304947 8,825 353 270 -960
2019-12-11 07:19:50 GMT 50.905930 5.306025 8,875 353 271 -1152
2019-12-11 07:19:47 GMT 50.900391 5.307139 8,900 353 270 -1024
2019-12-11 07:19:44 GMT 50.898010 5.307658 8,925 353 268 -1024
2019-12-11 07:19:40 GMT 50.893280 5.308533 8,975 45 349 -1024
2019-12-11 07:19:37 GMT 50.889324 5.309296 9,000 354 272 -960
2019-12-11 07:19:34 GMT 50.886345 5.309830 9,025 354 276 -960
2019-12-11 07:19:30 GMT 50.880711 5.310898 9,525 357 287 -960
2019-12-11 07:19:27 GMT 50.876907 5.311518 9,175 355 281 -960
2019-12-11 07:19:24 GMT 50.871914 5.312271 9,225 356 284 -960
2019-12-11 07:19:21 GMT 50.865070 5.312805 9,525 18 317 -1024
2019-12-11 07:19:18 GMT 50.865070 5.312805 9,325 0 294 -960
2019-12-11 07:19:15 GMT 50.862167 5.312855 9,400 7 303 -1024
2019-12-11 07:19:12 GMT 50.857433 5.312195 9,400 7 303 -1024
2019-12-11 07:19:08 GMT 50.851196 5.310211 9,475 15 313 -1024
2019-12-11 07:19:05 GMT 50.847332 5.308456 9,550 29 330 -1024
2019-12-11 07:19:02 GMT 50.843170 5.305877 9,625 30 331 -1024
2019-12-11 07:18:56 GMT 50.834610 5.298676 9,775 35 337 -1024
2019-12-11 07:18:53 GMT 50.831367 5.295029 9,725 39 343 -1024
2019-12-11 07:18:50 GMT 50.828156 5.291138 9,750 39 343 -1024
2019-12-11 07:18:47 GMT 50.822342 5.282197 9,825 54 360 -1024
2019-12-11 07:18:43 GMT 50.818844 5.275803 10,025 54 360 -1024
2019-12-11 07:18:39 GMT 50.814934 5.267181 10,000 59 367 -1024
2019-12-11 07:18:36 GMT 50.809799 5.252578 10,100 62 370 -1024
2019-12-11 07:18:32 GMT 50.809799 5.252578 10,125 66 376 -1088
2019-12-11 07:18:29 GMT 50.807098 5.242334 10,175 68 379 -1088
2019-12-11 07:18:26 GMT 50.805634 5.236247 10,300 70 386 -1024
2019-12-11 07:18:22 GMT 50.802643 5.223389 10,275 69 389 -1088
2019-12-11 07:18:19 GMT 50.799408 5.209375 10,325 69 396 -1344
2019-12-11 07:18:16 GMT 50.799408 5.209375 10,500 69 401 -2240
2019-12-11 07:18:11 GMT 50.796497 5.197067 10,600 68 411 -2944
2019-12-11 07:18:07 GMT 50.793797 5.185852 10,750 69 410 -2752
2019-12-11 07:18:04 GMT 50.791489 5.176416 11,200 68 418 -3392
2019-12-11 07:18:01 GMT 50.788818 5.165634 11,175 68 418 -3392
2019-12-11 07:17:58 GMT 50.787468 5.160217 11,175 68 418 -3392
2019-12-11 07:17:55 GMT 50.785675 5.152959 12,325 67 433 -4224
2019-12-11 07:17:52 GMT 50.780731 5.133510 11,725 68 423 -3264
2019-12-11 07:17:45 GMT 50.778252 5.123749 12,150 67 428 -3520
2019-12-11 07:17:42 GMT 50.774899 5.110855 12,125 68 434 -4352
2019-12-11 07:17:39 GMT 50.772995 5.103372 12,300 67 431 -3840
2019-12-11 07:17:35 GMT 50.770428 5.093384 12,950 67 433 -4224
2019-12-11 07:17:31 GMT 50.767502 5.082216 12,950 67 433 -4480
2019-12-11 07:17:28 GMT 50.764843 5.072327 13,050 67 433 -4608
2019-12-11 07:17:25 GMT 50.762054 5.061728 13,350 67 434 -4608
2019-12-11 07:17:21 GMT 50.760281 5.054932 13,425 67 433 -4544
2019-12-11 07:17:18 GMT 50.757156 5.043022 14,100 69 435 -4288
2019-12-11 07:17:14 GMT 50.754181 5.031144 14,250 76 433 -4096
2019-12-11 07:17:10 GMT 50.751526 5.019935 14,650 73 434 -4160
2019-12-11 07:17:07 GMT 50.749481 5.010071 14,600 74 434 -4096
2019-12-11 07:17:04 GMT 50.748138 5.002268 14,700 76 433 -4096
2019-12-11 07:17:01 GMT 50.746639 4.990387 15,025 81 431 -4160
2019-12-11 07:16:55 GMT 50.745430 4.971313 16,775 104 420 -4288
2019-12-11 07:16:51 GMT 50.745758 4.949935 15,800 93 424 -4736
2019-12-11 07:16:48 GMT 50.745758 4.949935 16,100 95 424 -4736
2019-12-11 07:16:45 GMT 50.746269 4.942093 16,200 100 420 -4416
2019-12-11 07:16:40 GMT 50.747910 4.927888 17,200 103 429 -3008
2019-12-11 07:16:37 GMT 50.749100 4.919648 17,000 104 419 -4352
2019-12-11 07:16:33 GMT 50.751019 4.907532 17,200 104 421 -4160
2019-12-11 07:16:30 GMT 50.752991 4.895151 17,200 104 421 -4096
2019-12-11 07:16:27 GMT 50.754364 4.886689 17,525 104 424 -3520
2019-12-11 07:16:22 GMT 50.756332 4.874070 17,725 103 427 -3200
2019-12-11 07:16:19 GMT 50.758209 4.862193 17,975 103 431 -2944
2019-12-11 07:16:16 GMT 50.758839 4.858246 18,175 103 434 -3072
2019-12-11 07:16:10 GMT 50.762192 4.836582 18,625 103 438 -3136
2019-12-11 07:16:06 GMT 50.763748 4.826635 18,550 103 441 -2752
2019-12-11 07:16:01 GMT 50.766495 4.809339 18,850 103 443 -2432
2019-12-11 07:15:58 GMT 50.767635 4.802094 19,125 103 445 -2304
2019-12-11 07:15:55 GMT 50.769287 4.791227 19,075 103 447 -2304
2019-12-11 07:15:50 GMT 50.772217 4.772223 19,525 103 451 -3072
2019-12-11 07:15:44 GMT 50.775318 4.752350 19,650 103 452 -3136
2019-12-11 07:15:41 GMT 50.776669 4.743500 19,775 103 452 -3136
2019-12-11 07:15:38 GMT 50.777599 4.737396 19,850 103 452 -3072
2019-12-11 07:15:35 GMT 50.779587 4.724566 20,025 103 453 -2944
2019-12-11 07:15:31 GMT 50.781181 4.714127 20,225 103 455 -2688
2019-12-11 07:15:28 GMT 50.782349 4.706497 20,375 103 459 -2176
2019-12-11 07:15:25 GMT 50.783695 4.697495 20,425 103 455 -2624
2019-12-11 07:15:22 GMT 50.785465 4.685822 20,625 103 457 -2368
2019-12-11 07:15:18 GMT 50.787933 4.669876 20,825 103 459 -2176
2019-12-11 07:15:14 GMT 50.789200 4.661544 21,150 103 463 -2496
2019-12-11 07:15:11 GMT 50.790680 4.651871 22,850 103 498 -3328
2019-12-11 07:15:07 GMT 50.793091 4.636379 21,225 103 465 -3264
2019-12-11 07:15:04 GMT 50.794693 4.625838 21,475 103 465 -3264
2019-12-11 07:15:01 GMT 50.796219 4.616089 21,700 103 465 -3712
2019-12-11 07:14:58 GMT 50.797802 4.605560 21,700 103 465 -3712
2019-12-11 07:14:54 GMT 50.800278 4.589613 22,850 103 463 -4352
2019-12-11 07:14:51 GMT 50.800873 4.585800 22,625 103 460 -4096
2019-12-11 07:14:48 GMT 50.802876 4.572525 22,950 103 460 -3968
2019-12-11 07:14:44 GMT 50.804459 4.562073 22,625 103 460 -4032
2019-12-11 07:14:41 GMT 50.806087 4.551620 22,775 103 459 -3904
2019-12-11 07:14:37 GMT 50.808601 4.534912 23,175 103 459 -3008
2019-12-11 07:14:34 GMT 50.809345 4.530029 24,225 103 480 -832
2019-12-11 07:14:31 GMT 50.811493 4.515678 24,150 103 498 -3328
2019-12-11 07:14:27 GMT 50.813232 4.504320 23,650 103 459 -2688
2019-12-11 07:14:24 GMT 50.814972 4.492592 24,325 103 487 -832
2019-12-11 07:14:20 GMT 50.816467 4.482727 23,900 103 463 -1920
2019-12-11 07:14:17 GMT 50.817818 4.473648 24,200 103 467 -1536
2019-12-11 07:14:14 GMT 50.819687 4.460895 24,150 103 476 -896
2019-12-11 07:14:11 GMT 50.820801 4.453735 26,150 102 490 -5568
2019-12-11 07:14:08 GMT 50.822479 4.442337 24,200 103 475 -896
2019-12-11 07:14:05 GMT 50.823669 4.434320 24,300 103 483 -768
2019-12-11 07:14:02 GMT 50.827469 4.409081 24,300 103 483 -768
2019-12-11 07:13:59 GMT 50.827469 4.409081 24,325 103 486 -832
2019-12-11 07:13:56 GMT 50.830200 4.391098 24,400 103 494 -1664
2019-12-11 07:13:53 GMT 50.830200 4.391098 24,425 103 493 -1408
2019-12-11 07:13:50 GMT 50.831924 4.379959 24,475 103 494 -1664
2019-12-11 07:13:47 GMT 50.833740 4.367956 24,600 103 497 -2624
2019-12-11 07:13:44 GMT 50.835068 4.358974 24,825 103 498 -3712
2019-12-11 07:13:41 GMT 50.837044 4.346085 24,875 103 499 -3904
2019-12-11 07:13:38 GMT 50.838116 4.338531 25,150 102 497 -4800
2019-12-11 07:13:32 GMT 50.840958 4.319000 27,050 101 482 -5888
2019-12-11 07:13:29 GMT 50.842667 4.306938 25,700 102 493 -5376
2019-12-11 07:13:26 GMT 50.845779 4.284594 27,750 102 484 -5888
2019-12-11 07:13:23 GMT 50.845779 4.284594 26,425 102 484 -5888
2019-12-11 07:13:20 GMT 50.847008 4.275665 27,250 101 480 -5888
2019-12-11 07:13:17 GMT 50.848160 4.266852 27,150 101 480 -5824
2019-12-11 07:13:14 GMT 50.849522 4.256592 27,550 100 456 -2560
2019-12-11 07:13:11 GMT 50.851383 4.242249 27,550 100 456 -2560
2019-12-11 07:13:08 GMT 50.852688 4.232025 28,300 101 464 -4736
2019-12-11 07:13:05 GMT 50.854736 4.215622 30,575 100 464 -960
2019-12-11 07:12:59 GMT 50.856274 4.203568 28,625 101 458 -4224
2019-12-11 07:12:56 GMT 50.857544 4.193660 29,275 101 457 -3648
2019-12-11 07:12:51 GMT 50.861065 4.165649 29,300 101 457 -3648
2019-12-11 07:12:45 GMT 50.862122 4.157286 29,625 101 456 -2624
2019-12-11 07:12:42 GMT 50.863266 4.148304 29,850 101 456 -2624
2019-12-11 07:12:39 GMT 50.864697 4.136505 29,800 100 457 -1664
2019-12-11 07:12:36 GMT 50.865955 4.126587 30,200 100 456 -2432
2019-12-11 07:12:33 GMT 50.866791 4.119644 30,625 100 457 -2176
2019-12-11 07:12:30 GMT 50.868328 4.107132 30,250 100 457 -2176
2019-12-11 07:12:26 GMT 50.869537 4.097307 30,725 101 464 -4160
2019-12-11 07:12:23 GMT 50.870609 4.088211 30,675 101 475 -3648
2019-12-11 07:12:20 GMT 50.872192 4.074963 30,725 100 468 -1024
2019-12-11 07:12:17 GMT 50.874752 4.053345 30,950 100 472 -1088
2019-12-11 07:12:14 GMT 50.874752 4.053345 30,750 100 462 -1152
2019-12-11 07:12:11 GMT 50.876011 4.042435 30,800 100 463 -1024
2019-12-11 07:12:08 GMT 50.876846 4.035339 30,850 100 466 -960
2019-12-11 07:12:05 GMT 50.877869 4.026786 30,900 100 469 -1088
2019-12-11 07:12:02 GMT 50.879425 4.013128 30,975 100 472 -1408
2019-12-11 07:11:58 GMT 50.881989 3.991378 31,200 100 476 -2496
2019-12-11 07:11:55 GMT 50.881989 3.991378 31,125 100 476 -2496
2019-12-11 07:11:52 GMT 50.882950 3.983360 31,200 100 476 -2496
2019-12-11 07:11:49 GMT 50.884552 3.969553 31,375 100 475 -3136
2019-12-11 07:11:45 GMT 50.886292 3.955004 31,625 100 475 -2816
2019-12-11 07:11:41 GMT 50.887253 3.946913 33,050 101 474 -3776
2019-12-11 07:11:38 GMT 50.888485 3.936691 31,925 100 475 -2560
2019-12-11 07:11:35 GMT 50.891327 3.913498 32,575 101 476 -2496
2019-12-11 07:11:28 GMT 50.893047 3.899689 32,850 101 475 -3520
2019-12-11 07:11:24 GMT 50.894348 3.889457 32,800 101 474 -3776
2019-12-11 07:11:21 GMT 50.897285 3.867035 33,050 101 473 -4032
2019-12-11 07:11:18 GMT 50.897285 3.867035 32,925 101 471 -4352
2019-12-11 07:11:15 GMT 50.898495 3.857498 33,200 101 469 -4480
2019-12-11 07:11:12 GMT 50.899796 3.847516 33,350 101 469 -4480
2019-12-11 07:11:09 GMT 50.901474 3.834610 33,700 101 464 -4160
2019-12-11 07:11:05 GMT 50.903194 3.820953 33,875 101 464 -4160
2019-12-11 07:11:02 GMT 50.903988 3.814545 34,025 101 463 -3968
2019-12-11 07:10:59 GMT 50.905338 3.803940 34,375 100 462 -3520
2019-12-11 07:10:56 GMT 50.906891 3.791174 34,575 100 461 -2752
2019-12-11 07:10:53 GMT 50.907990 3.782043 34,600 100 461 -2624
2019-12-11 07:10:50 GMT 50.909389 3.770828 34,700 100 461 -2368
2019-12-11 07:10:47 GMT 50.910553 3.760887 35,300 100 461 -1472
2019-12-11 07:10:44 GMT 50.911575 3.752441 34,925 100 472 -832
2019-12-11 07:10:41 GMT 50.912415 3.745422 36,000 100 472 -704
2019-12-11 07:10:38 GMT 50.913624 3.734818 35,100 100 462 -1024
2019-12-11 07:10:35 GMT 50.914810 3.724811 35,175 100 472 -832
2019-12-11 07:10:32 GMT 50.916046 3.714195 35,225 100 464 -896
2019-12-11 07:10:29 GMT 50.917694 3.699943 35,300 100 465 -896
2019-12-11 07:10:26 GMT 50.918556 3.692169 35,325 100 466 -896
2019-12-11 07:10:23 GMT 50.920376 3.676605 35,725 100 469 -896
2019-12-11 07:10:20 GMT 50.920807 3.672848 35,425 100 467 -960
2019-12-11 07:10:16 GMT 50.922935 3.654327 35,525 100 469 -896
2019-12-11 07:10:12 GMT 50.925064 3.636252 35,575 100 471 -960
2019-12-11 07:10:09 GMT 50.925064 3.636252 35,700 100 471 64
2019-12-11 07:10:06 GMT 50.926517 3.623962 35,625 100 471 -1024
2019-12-11 07:10:03 GMT 50.927719 3.613760 35,675 100 472 -1024
2019-12-11 07:09:59 GMT 50.929550 3.598616 35,800 100 472 -1088
2019-12-11 07:09:56 GMT 50.930328 3.592084 35,825 100 472 -1024
2019-12-11 07:09:52 GMT 50.931919 3.579102 36,000 100 472 -704
2019-12-11 07:09:49 GMT 50.933594 3.565369 35,975 100 472 -384
2019-12-11 07:09:43 GMT 50.935913 3.545837 36,000 100 471 64
2019-12-11 07:09:40 GMT 50.936874 3.537895 36,000 100 471 64
2019-12-11 07:09:37 GMT 50.938477 3.524236 36,000 100 470 0
2019-12-11 07:09:34 GMT 50.939507 3.515549 36,000 100 470 0
2019-12-11 07:09:30 GMT 50.940720 3.505381 36,000 100 470 0
2019-12-11 07:09:27 GMT 50.942299 3.491898 36,000 100 470 0
2019-12-11 07:09:24 GMT 50.943237 3.483631 36,000 100 470 0
2019-12-11 07:09:21 GMT 50.944443 3.473587 36,000 100 469 0
2019-12-11 07:09:17 GMT 50.945938 3.460768 36,025 100 469 64
2019-12-11 07:09:14 GMT 50.947174 3.450004 36,000 100 469 64
2019-12-11 07:09:11 GMT 50.948685 3.437162 36,000 100 469 64
2019-12-11 07:09:08 GMT 50.949417 3.430555 36,000 100 469 0
2019-12-11 07:09:04 GMT 50.952400 3.404617 36,000 100 469 0
2019-12-11 07:09:00 GMT 50.952400 3.404617 36,000 100 469 64
2019-12-11 07:08:57 GMT 50.953983 3.390808 36,000 100 469 128
2019-12-11 07:08:53 GMT 50.955612 3.376389 36,000 100 469 128
2019-12-11 07:08:49 GMT 50.956833 3.365751 36,000 100 468 128
2019-12-11 07:08:46 GMT 50.958389 3.351572 36,000 100 468 128
2019-12-11 07:08:43 GMT 50.959076 3.345485 35,975 100 468 128
2019-12-11 07:08:40 GMT 50.960224 3.335495 35,975 100 468 128
2019-12-11 07:08:37 GMT 50.961182 3.326927 35,975 100 468 64
2019-12-11 07:08:34 GMT 50.962692 3.313194 35,975 99 467 -64
2019-12-11 07:08:31 GMT 50.963669 3.304520 36,000 99 466 -64
2019-12-11 07:08:28 GMT 50.964691 3.295288 35,975 99 466 -128
2019-12-11 07:08:25 GMT 50.965855 3.284531 36,000 99 465 0
2019-12-11 07:08:22 GMT 50.966740 3.276596 36,000 99 462 1856
2019-12-11 07:08:19 GMT 50.967957 3.265241 36,000 99 462 448
2019-12-11 07:08:16 GMT 50.969486 3.250961 35,975 99 461 704
2019-12-11 07:08:13 GMT 50.969925 3.246683 35,975 99 462 448
2019-12-11 07:08:10 GMT 50.971115 3.235321 35,950 99 461 704
2019-12-11 07:08:07 GMT 50.973492 3.212585 35,750 99 460 1024
2019-12-11 07:08:04 GMT 50.973492 3.212585 35,825 99 460 1152
2019-12-11 07:08:00 GMT 50.975006 3.198506 35,750 99 460 1472
2019-12-11 07:07:57 GMT 50.976051 3.188553 35,450 99 461 1728
2019-12-11 07:07:54 GMT 50.977028 3.179398 35,350 100 465 1920
2019-12-11 07:07:51 GMT 50.978165 3.168888 35,325 99 463 1920
2019-12-11 07:07:48 GMT 50.979076 3.160858 35,400 99 463 1920
2019-12-11 07:07:45 GMT 50.980087 3.151592 35,225 100 465 1920
2019-12-11 07:07:41 GMT 50.982941 3.125839 35,175 100 476 1664
2019-12-11 07:07:35 GMT 50.984196 3.115082 34,975 100 472 1728
2019-12-11 07:07:32 GMT 50.985031 3.107795 34,900 100 469 1920
2019-12-11 07:07:29 GMT 50.986198 3.097687 34,775 100 471 1792
2019-12-11 07:07:26 GMT 50.988480 3.078308 34,650 100 472 1728
2019-12-11 07:07:23 GMT 50.989784 3.067474 34,550 100 472 1728
2019-12-11 07:07:20 GMT 50.989784 3.067474 34,450 100 474 1600
2019-12-11 07:07:17 GMT 50.991165 3.055758 34,300 100 478 1472
2019-12-11 07:07:14 GMT 50.992344 3.045654 34,350 100 474 1536
2019-12-11 07:07:11 GMT 50.993362 3.036903 34,325 100 475 1408
2019-12-11 07:07:08 GMT 50.994904 3.023834 34,150 100 475 1472
2019-12-11 07:07:04 GMT 50.996475 3.010699 34,000 100 476 1664
2019-12-11 07:07:01 GMT 50.998627 2.992325 33,950 100 478 1472
2019-12-11 07:06:58 GMT 50.998627 2.992325 33,925 100 478 1600
2019-12-11 07:06:55 GMT 50.999680 2.983530 33,600 100 478 1472
2019-12-11 07:06:52 GMT 51.000778 2.974029 33,350 100 480 1472
2019-12-11 07:06:49 GMT 51.002609 2.958663 33,700 100 479 1536
2019-12-11 07:06:44 GMT 51.004307 2.944565 33,600 100 479 1472
2019-12-11 07:06:41 GMT 51.005470 2.934418 33,600 100 479 1408
2019-12-11 07:06:38 GMT 51.007141 2.920433 33,425 100 481 1408
2019-12-11 07:06:35 GMT 51.008194 2.911600 33,350 100 480 1472
2019-12-11 07:06:32 GMT 51.010078 2.895584 33,275 100 480 1472
2019-12-11 07:06:29 GMT 51.010777 2.889328 33,250 100 480 1280
2019-12-11 07:06:25 GMT 51.013596 2.865130 33,125 100 480 1088
2019-12-11 07:06:22 GMT 51.013596 2.865130 33,125 100 480 1024
2019-12-11 07:06:19 GMT 51.014603 2.856223 33,050 100 480 1024
2019-12-11 07:06:16 GMT 51.015564 2.848057 33,025 100 480 1024
2019-12-11 07:06:13 GMT 51.017258 2.833285 32,850 100 480 1088
2019-12-11 07:06:10 GMT 51.018448 2.822967 32,875 100 480 1152
2019-12-11 07:06:07 GMT 51.019436 2.814102 32,825 100 480 1216
2019-12-11 07:06:04 GMT 51.020966 2.800846 32,725 100 480 1280
2019-12-11 07:06:01 GMT 51.021950 2.791977 32,675 100 480 1408
2019-12-11 07:05:58 GMT 51.023895 2.775013 32,600 100 480 1472
2019-12-11 07:05:52 GMT 51.025070 2.764587 32,075 100 481 1536
2019-12-11 07:05:48 GMT 51.026733 2.749922 32,425 100 481 1664
2019-12-11 07:05:45 GMT 51.027771 2.741013 32,350 100 481 1664
2019-12-11 07:05:42 GMT 51.029537 2.725449 32,200 100 482 1280
2019-12-11 07:05:39 GMT 51.030285 2.718811 32,125 100 482 1344
2019-12-11 07:05:36 GMT 51.031448 2.708353 31,275 99 483 1280
2019-12-11 07:05:33 GMT 51.032425 2.699509 31,650 99 482 1600
2019-12-11 07:05:30 GMT 51.033962 2.685394 31,850 99 482 1216
2019-12-11 07:05:27 GMT 51.035126 2.675095 31,850 99 482 1216
2019-12-11 07:05:24 GMT 51.036026 2.666783 31,800 99 482 1216
2019-12-11 07:05:21 GMT 51.037498 2.653427 31,725 99 482 1472
2019-12-11 07:05:18 GMT 51.038662 2.642593 31,725 99 482 1536
2019-12-11 07:05:15 GMT 51.039734 2.632675 31,625 99 482 1600
2019-12-11 07:05:12 GMT 51.041977 2.611925 31,525 99 483 1280
2019-12-11 07:05:05 GMT 51.043167 2.600790 31,350 99 483 1280
2019-12-11 07:05:02 GMT 51.044632 2.587355 31,275 99 483 1408
2019-12-11 07:04:59 GMT 51.045181 2.582092 31,250 99 483 1280
2019-12-11 07:04:56 GMT 51.046463 2.570207 31,100 99 483 1280
2019-12-11 07:04:53 GMT 51.047974 2.555923 31,050 99 483 1280
2019-12-11 07:04:50 GMT 51.048843 2.547863 31,025 99 482 1280
2019-12-11 07:04:45 GMT 51.050533 2.532196 30,875 99 482 1280
2019-12-11 07:04:42 GMT 51.051682 2.521733 30,850 99 482 1408
2019-12-11 07:04:39 GMT 51.053238 2.507110 30,675 99 482 1472
2019-12-11 07:04:36 GMT 51.053970 2.500280 30,700 99 482 1472
2019-12-11 07:04:33 GMT 51.055515 2.486038 30,600 99 482 1408
2019-12-11 07:04:29 GMT 51.058090 2.461457 30,350 99 482 1280
2019-12-11 07:04:26 GMT 51.058090 2.461457 30,450 99 482 1344
2019-12-11 07:04:23 GMT 51.059189 2.451287 30,350 99 482 1280
2019-12-11 07:04:19 GMT 51.060608 2.437703 30,300 99 482 1344
2019-12-11 07:04:15 GMT 51.061893 2.425766 29,750 99 479 704
2019-12-11 07:04:12 GMT 51.062988 2.415433 29,850 99 481 960
2019-12-11 07:04:09 GMT 51.064594 2.400513 30,075 99 482 1280
2019-12-11 07:04:04 GMT 51.065918 2.387819 29,975 99 481 1024
2019-12-11 07:04:01 GMT 51.067108 2.376684 29,925 99 480 768
2019-12-11 07:03:55 GMT 51.069294 2.355957 29,850 99 479 704
2019-12-11 07:03:51 GMT 51.070999 2.339939 29,800 99 477 960
2019-12-11 07:03:48 GMT 51.072182 2.328720 29,750 99 477 960
2019-12-11 07:03:42 GMT 51.073700 2.313958 29,650 99 476 1024
2019-12-11 07:03:39 GMT 51.075298 2.298508 29,625 99 476 1024
2019-12-11 07:03:36 GMT 51.076309 2.289016 29,600 99 475 1088
2019-12-11 07:03:33 GMT 51.076927 2.283096 29,525 99 474 1216
2019-12-11 07:03:30 GMT 51.078186 2.270584 29,425 99 474 1280
2019-12-11 07:03:26 GMT 51.079815 2.254562 29,350 99 473 1344
2019-12-11 07:03:22 GMT 51.082352 2.229928 29,225 99 472 1472
2019-12-11 07:03:19 GMT 51.082352 2.229928 29,075 99 472 1536
2019-12-11 07:03:16 GMT 51.083038 2.223173 29,150 99 472 1536
2019-12-11 07:03:13 GMT 51.084053 2.212906 29,075 99 473 1344
2019-12-11 07:03:09 GMT 51.085541 2.198257 28,900 99 473 1344
2019-12-11 07:03:05 GMT 51.087124 2.182922 28,850 99 471 1536
2019-12-11 07:03:01 GMT 51.088577 2.168464 28,675 99 471 1472
2019-12-11 07:02:58 GMT 51.089401 2.160372 28,550 98 471 1280
2019-12-11 07:02:54 GMT 51.091080 2.143860 28,600 99 471 1344
2019-12-11 07:02:51 GMT 51.091965 2.134837 28,525 98 471 1344
2019-12-11 07:02:48 GMT 51.092896 2.125397 28,475 98 470 1344
2019-12-11 07:02:45 GMT 51.094116 2.113012 28,350 98 470 1600
2019-12-11 07:02:42 GMT 51.094761 2.106400 28,300 98 470 1664
2019-12-11 07:02:39 GMT 51.095764 2.096310 28,125 98 470 1664
2019-12-11 07:02:36 GMT 51.096680 2.086808 28,125 98 470 1664
2019-12-11 07:02:32 GMT 51.099060 2.062089 27,575 98 470 1664
2019-12-11 07:02:29 GMT 51.099060 2.062089 27,625 98 469 1344
2019-12-11 07:02:26 GMT 51.100204 2.050476 27,825 98 470 1664
2019-12-11 07:02:23 GMT 51.101028 2.041750 27,750 98 470 1664
2019-12-11 07:02:20 GMT 51.101990 2.032248 27,675 98 470 1600
2019-12-11 07:02:16 GMT 51.103928 2.012024 27,600 98 469 1472
2019-12-11 07:02:13 GMT 51.104301 2.008209 27,575 98 469 1344
2019-12-11 07:02:10 GMT 51.105469 1.996691 27,525 98 469 1280
2019-12-11 07:02:07 GMT 51.107094 1.980209 27,325 98 467 1216
2019-12-11 07:02:04 GMT 51.107620 1.974941 27,350 99 466 1216
2019-12-11 07:02:00 GMT 51.108856 1.962618 27,275 99 465 1216
2019-12-11 07:01:57 GMT 51.109634 1.954824 27,250 99 465 1216
2019-12-11 07:01:54 GMT 51.111145 1.939545 27,150 98 463 1344
2019-12-11 07:01:48 GMT 51.113159 1.919490 26,825 99 459 1600
2019-12-11 07:01:45 GMT 51.113663 1.914516 26,900 98 462 1408
2019-12-11 07:01:42 GMT 51.114853 1.902342 26,850 98 461 1472
2019-12-11 07:01:38 GMT 51.116180 1.888832 26,800 98 461 1472
2019-12-11 07:01:35 GMT 51.116913 1.880889 26,775 98 461 1472
2019-12-11 07:01:32 GMT 51.118240 1.867379 26,675 98 460 1536
2019-12-11 07:01:29 GMT 51.118828 1.861649 26,500 99 459 1600
2019-12-11 07:01:26 GMT 51.120117 1.848895 25,975 99 459 1600
2019-12-11 07:01:23 GMT 51.120895 1.841175 26,450 99 459 1600
2019-12-11 07:01:20 GMT 51.122223 1.828384 26,300 99 457 1472
2019-12-11 07:01:16 GMT 51.123760 1.813507 26,225 99 457 1472
2019-12-11 07:01:13 GMT 51.124466 1.806360 25,400 96 431 1472
2019-12-11 07:01:10 GMT 51.125565 1.795745 26,100 99 456 1408
2019-12-11 07:01:07 GMT 51.126553 1.785965 25,925 99 455 1472
2019-12-11 07:01:04 GMT 51.127903 1.772537 25,875 99 454 1728
2019-12-11 07:01:01 GMT 51.129044 1.761301 23,975 100 432 2304
2019-12-11 07:00:58 GMT 51.129486 1.757050 25,725 99 453 1792
2019-12-11 07:00:55 GMT 51.130966 1.742595 25,675 99 453 1856
2019-12-11 07:00:52 GMT 51.131470 1.737473 25,550 99 453 1792
2019-12-11 07:00:49 GMT 51.132607 1.726837 25,400 99 453 1792
2019-12-11 07:00:46 GMT 51.134033 1.713199 25,450 99 452 1664
2019-12-11 07:00:43 GMT 51.134491 1.708745 25,225 99 451 1664
2019-12-11 07:00:40 GMT 51.135677 1.697617 25,150 99 451 1664
2019-12-11 07:00:36 GMT 51.137421 1.681502 25,100 99 450 1664
2019-12-11 07:00:33 GMT 51.138245 1.673856 25,050 99 450 1664
2019-12-11 07:00:30 GMT 51.139618 1.660940 24,925 100 445 1344
2019-12-11 07:00:27 GMT 51.140488 1.652997 24,875 99 449 1600
2019-12-11 07:00:24 GMT 51.141220 1.646093 24,800 99 448 1472
2019-12-11 07:00:21 GMT 51.142151 1.637802 24,750 99 448 1536
2019-12-11 07:00:18 GMT 51.143593 1.624680 24,600 100 446 1408
2019-12-11 07:00:14 GMT 51.145157 1.610239 24,550 100 445 1408
2019-12-11 07:00:11 GMT 51.145733 1.605301 24,500 100 445 1408
2019-12-11 07:00:07 GMT 51.147736 1.587601 24,375 100 443 960
2019-12-11 07:00:02 GMT 51.149506 1.571884 24,275 100 432 2176
2019-12-11 06:59:59 GMT 51.150391 1.564331 24,275 100 438 768
2019-12-11 06:59:56 GMT 51.151291 1.556199 24,250 100 438 832
2019-12-11 06:59:53 GMT 51.152855 1.542816 24,200 100 434 1152
2019-12-11 06:59:47 GMT 51.154587 1.527397 24,075 100 432 2496
2019-12-11 06:59:44 GMT 51.155788 1.516724 24,000 100 432 2176
2019-12-11 06:59:41 GMT 51.156628 1.509323 23,425 96 431 1472
2019-12-11 06:59:38 GMT 51.158070 1.496658 23,825 100 432 2496
2019-12-11 06:59:35 GMT 51.159142 1.487427 23,650 100 434 2624
2019-12-11 06:59:32 GMT 51.160072 1.479263 23,450 100 434 2496
2019-12-11 06:59:29 GMT 51.161095 1.470490 23,400 100 434 2496
2019-12-11 06:59:26 GMT 51.162598 1.457470 23,000 100 435 2048
2019-12-11 06:59:23 GMT 51.163284 1.451828 23,225 100 435 2304
2019-12-11 06:59:20 GMT 51.164215 1.443787 23,075 100 435 2112
2019-12-11 06:59:17 GMT 51.165344 1.434458 22,900 100 435 2048
2019-12-11 06:59:14 GMT 51.166775 1.422348 22,775 100 435 2048
2019-12-11 06:59:11 GMT 51.167816 1.412931 22,775 99 436 2176
2019-12-11 06:59:08 GMT 51.168594 1.405433 22,525 98 438 2176
2019-12-11 06:59:05 GMT 51.169464 1.396674 22,550 98 438 1984
2019-12-11 06:59:02 GMT 51.170452 1.385880 22,375 97 438 1856
2019-12-11 06:58:59 GMT 51.171387 1.374850 22,300 96 439 1792
2019-12-11 06:58:55 GMT 51.173477 1.347580 22,150 96 438 1792
2019-12-11 06:58:51 GMT 51.173477 1.347580 22,050 96 437 1728
2019-12-11 06:58:47 GMT 51.174458 1.334763 21,925 96 436 1728
2019-12-11 06:58:44 GMT 51.174923 1.328506 21,900 96 436 1728
2019-12-11 06:58:41 GMT 51.175644 1.318434 21,775 96 435 1728
2019-12-11 06:58:38 GMT 51.176651 1.305072 21,650 96 434 1600
2019-12-11 06:58:35 GMT 51.177250 1.296692 21,600 96 433 1536
2019-12-11 06:58:32 GMT 51.177807 1.288605 21,450 96 432 1472
2019-12-11 06:58:29 GMT 51.178226 1.282501 21,475 96 432 1472
2019-12-11 06:58:26 GMT 51.179016 1.270981 21,400 96 431 1472
2019-12-11 06:58:23 GMT 51.179672 1.261720 21,275 96 428 1472
2019-12-11 06:58:20 GMT 51.180359 1.251625 21,250 96 428 1472
2019-12-11 06:58:16 GMT 51.181229 1.238857 21,150 96 419 1728
2019-12-11 06:58:12 GMT 51.182278 1.223679 20,975 96 419 1728
2019-12-11 06:58:09 GMT 51.182697 1.217575 20,950 96 423 1344
2019-12-11 06:58:06 GMT 51.183655 1.204784 20,925 96 421 1536
2019-12-11 06:58:03 GMT 51.183998 1.199951 20,825 96 419 1728
2019-12-11 06:58:00 GMT 51.185116 1.184998 20,650 97 418 1984
2019-12-11 06:57:57 GMT 51.185394 1.181564 20,675 97 418 1920
2019-12-11 06:57:54 GMT 51.186172 1.171232 20,450 97 418 2240
2019-12-11 06:57:48 GMT 51.187538 1.153641 20,400 97 417 2432
2019-12-11 06:57:45 GMT 51.189304 1.131668 20,075 97 416 2304
2019-12-11 06:57:41 GMT 51.189304 1.131668 20,075 97 417 2496
2019-12-11 06:57:38 GMT 51.190063 1.122535 19,775 97 416 2432
2019-12-11 06:57:35 GMT 51.190842 1.113434 19,675 97 416 2240
2019-12-11 06:57:32 GMT 51.191540 1.105042 19,675 97 416 2176
2019-12-11 06:57:29 GMT 51.192627 1.092026 19,375 97 414 1920
2019-12-11 06:57:26 GMT 51.193077 1.086960 19,250 97 413 1792
2019-12-11 06:57:23 GMT 51.193863 1.077848 19,375 97 414 1856
2019-12-11 06:57:20 GMT 51.194687 1.068198 19,150 97 413 1792
2019-12-11 06:57:17 GMT 51.195602 1.057211 19,125 97 411 1664
2019-12-11 06:57:14 GMT 51.196106 1.051496 19,075 97 410 1600
2019-12-11 06:57:11 GMT 51.197159 1.039396 19,000 98 399 1920
2019-12-11 06:57:08 GMT 51.197891 1.031156 18,950 98 408 1472
2019-12-11 06:57:05 GMT 51.198578 1.023510 18,750 98 405 1664
2019-12-11 06:57:02 GMT 51.199642 1.011734 18,750 98 405 1728
2019-12-11 06:56:59 GMT 51.200153 1.006546 18,675 98 403 1856
2019-12-11 06:56:56 GMT 51.201454 0.992203 18,575 98 403 1856
2019-12-11 06:56:53 GMT 51.201874 0.987778 18,375 98 401 1920
2019-12-11 06:56:50 GMT 51.202698 0.978971 18,375 98 400 1984
2019-12-11 06:56:47 GMT 51.203365 0.971527 18,300 98 399 1984
2019-12-11 06:56:44 GMT 51.204300 0.961675 18,200 98 392 1984
2019-12-11 06:56:41 GMT 51.204994 0.954208 18,100 98 398 1856
2019-12-11 06:56:38 GMT 51.206039 0.943117 17,975 98 396 1920
2019-12-11 06:56:35 GMT 51.206997 0.933151 17,875 98 394 2112
2019-12-11 06:56:32 GMT 51.207458 0.928345 17,650 99 380 2560
2019-12-11 06:56:29 GMT 51.208302 0.919724 17,725 98 393 2112
2019-12-11 06:56:26 GMT 51.210346 0.898590 17,175 98 392 1984
2019-12-11 06:56:23 GMT 51.210766 0.894165 17,425 98 391 1920
2019-12-11 06:56:17 GMT 51.211651 0.885086 17,175 98 389 1856
2019-12-11 06:56:14 GMT 51.212769 0.873710 17,150 99 386 1920
2019-12-11 06:56:11 GMT 51.213326 0.868225 17,125 99 387 1920
2019-12-11 06:56:08 GMT 51.214279 0.858492 16,150 99 384 2048
2019-12-11 06:56:05 GMT 51.215469 0.846615 16,825 99 384 2048
2019-12-11 06:56:02 GMT 51.215836 0.843052 16,650 99 382 2304
2019-12-11 06:55:59 GMT 51.216751 0.834144 16,625 99 382 2304
2019-12-11 06:55:56 GMT 51.217941 0.822861 16,550 99 381 2368
2019-12-11 06:55:53 GMT 51.218681 0.815735 16,400 99 380 2624
2019-12-11 06:55:50 GMT 51.219238 0.810471 16,300 99 380 2624
2019-12-11 06:55:47 GMT 51.220451 0.799332 16,200 99 380 2752
2019-12-11 06:55:44 GMT 51.222126 0.782852 15,900 98 380 2752
2019-12-11 06:55:41 GMT 51.222126 0.782852 15,850 97 380 2688
2019-12-11 06:55:38 GMT 51.222794 0.775798 15,750 97 380 2688
2019-12-11 06:55:34 GMT 51.223755 0.763327 15,375 94 381 2560
2019-12-11 06:55:30 GMT 51.224266 0.753708 15,425 91 383 2240
2019-12-11 06:55:27 GMT 51.224442 0.738682 15,200 89 383 2112
2019-12-11 06:55:21 GMT 51.224258 0.728438 15,000 86 380 2112
2019-12-11 06:55:18 GMT 51.223892 0.718343 14,950 86 380 2112
2019-12-11 06:55:15 GMT 51.223663 0.711736 14,875 86 378 2176
2019-12-11 06:55:11 GMT 51.223057 0.694733 14,675 86 376 2368
2019-12-11 06:55:08 GMT 51.222931 0.691619 14,550 86 376 2368
2019-12-11 06:55:05 GMT 51.222733 0.684509 14,500 87 375 2368
2019-12-11 06:55:02 GMT 51.222427 0.675065 14,175 87 374 2304
2019-12-11 06:54:59 GMT 51.222153 0.667419 14,250 87 374 2176
2019-12-11 06:54:56 GMT 51.221970 0.660961 14,175 86 373 2048
2019-12-11 06:54:53 GMT 51.221615 0.650406 14,000 86 370 1792
2019-12-11 06:54:50 GMT 51.221333 0.642929 13,925 86 369 1856
2019-12-11 06:54:47 GMT 51.220963 0.632530 13,375 86 361 2432
2019-12-11 06:54:44 GMT 51.220776 0.627289 13,800 86 366 1984
2019-12-11 06:54:41 GMT 51.220367 0.618204 13,700 86 365 2048
2019-12-11 06:54:38 GMT 51.219635 0.599423 13,550 86 362 2368
2019-12-11 06:54:35 GMT 51.219635 0.599423 13,425 86 361 2496
2019-12-11 06:54:31 GMT 51.219177 0.588288 13,200 86 360 2624
2019-12-11 06:54:28 GMT 51.218948 0.582424 13,100 86 359 2688
2019-12-11 06:54:25 GMT 51.218628 0.573961 12,975 86 359 2688
2019-12-11 06:54:22 GMT 51.218403 0.567093 12,850 87 358 2560
2019-12-11 06:54:19 GMT 51.218170 0.559311 12,800 86 358 2496
2019-12-11 06:54:16 GMT 51.217655 0.544739 12,550 86 356 2560
2019-12-11 06:54:13 GMT 51.217655 0.544739 12,375 86 355 2752
2019-12-11 06:54:10 GMT 51.217392 0.536994 12,300 86 354 3200
2019-12-11 06:54:07 GMT 51.217007 0.526962 12,225 86 354 3200
2019-12-11 06:54:04 GMT 51.216660 0.517991 11,975 86 354 3328
2019-12-11 06:54:01 GMT 51.216522 0.514130 11,800 86 354 3264
2019-12-11 06:53:58 GMT 51.216156 0.504332 11,625 86 354 3200
2019-12-11 06:53:55 GMT 51.215607 0.489114 11,250 86 354 2944
2019-12-11 06:53:49 GMT 51.215378 0.481914 11,000 86 354 2688
2019-12-11 06:53:46 GMT 51.215103 0.473600 10,950 87 351 2432
2019-12-11 06:53:43 GMT 51.214874 0.466993 10,900 87 352 2496
2019-12-11 06:53:40 GMT 51.214584 0.458603 10,675 87 351 2432
2019-12-11 06:53:37 GMT 51.214325 0.450439 10,750 87 350 2432
2019-12-11 06:53:34 GMT 51.214005 0.440567 10,425 87 345 1984
2019-12-11 06:53:31 GMT 51.213795 0.432892 10,450 87 345 1984
2019-12-11 06:53:27 GMT 51.213593 0.425943 10,400 87 345 1984
2019-12-11 06:53:23 GMT 51.213226 0.412952 10,200 87 343 1216
2019-12-11 06:53:20 GMT 51.212997 0.405900 10,175 87 343 1088
2019-12-11 06:53:17 GMT 51.212860 0.400036 10,050 87 343 704
2019-12-11 06:53:14 GMT 51.212357 0.382369 10,025 87 343 -64
2019-12-11 06:53:11 GMT 51.212357 0.382369 10,025 87 342 192
2019-12-11 06:53:06 GMT 51.212025 0.369873 10,000 87 345 0
2019-12-11 06:53:02 GMT 51.211742 0.360184 10,000 87 343 -64
2019-12-11 06:52:59 GMT 51.211559 0.353775 10,000 87 343 0
2019-12-11 06:52:56 GMT 51.211349 0.345179 10,000 87 343 0
2019-12-11 06:52:53 GMT 51.211212 0.339240 10,000 87 343 0
2019-12-11 06:52:50 GMT 51.211029 0.333227 10,000 87 343 0
2019-12-11 06:52:47 GMT 51.210800 0.324171 10,000 87 343 64
2019-12-11 06:52:44 GMT 51.210571 0.316080 10,000 87 344 0
2019-12-11 06:52:41 GMT 51.210205 0.302050 10,000 87 344 0
2019-12-11 06:52:38 GMT 51.209976 0.293959 10,000 87 344 0
2019-12-11 06:52:32 GMT 51.209743 0.285339 10,000 87 345 0
2019-12-11 06:52:29 GMT 51.209557 0.278244 10,000 87 345 0
2019-12-11 06:52:25 GMT 51.209244 0.267458 10,000 87 345 0
2019-12-11 06:52:21 GMT 51.209000 0.257721 10,000 87 346 0
2019-12-11 06:52:18 GMT 51.208786 0.250087 10,000 87 346 0
2019-12-11 06:52:15 GMT 51.208328 0.232643 10,000 87 346 0
2019-12-11 06:52:12 GMT 51.208328 0.232643 10,000 87 346 0
2019-12-11 06:52:09 GMT 51.208252 0.229416 10,000 87 346 0
2019-12-11 06:52:06 GMT 51.208008 0.220766 10,000 87 346 0
2019-12-11 06:52:03 GMT 51.207741 0.211029 10,000 87 346 -64
2019-12-11 06:52:00 GMT 51.207550 0.204509 10,000 87 346 -64
2019-12-11 06:51:57 GMT 51.207321 0.196343 10,000 87 346 0
2019-12-11 06:51:54 GMT 51.207138 0.189366 10,000 87 346 0
2019-12-11 06:51:51 GMT 51.206902 0.180206 10,000 87 346 0
2019-12-11 06:51:48 GMT 51.206726 0.174074 10,000 87 346 0
2019-12-11 06:51:45 GMT 51.206543 0.166576 10,000 87 346 64
2019-12-11 06:51:42 GMT 51.206249 0.156403 10,000 87 346 64
2019-12-11 06:51:39 GMT 51.206112 0.150757 10,000 87 346 64
2019-12-11 06:51:36 GMT 51.205925 0.143738 10,000 87 346 64
2019-12-11 06:51:33 GMT 51.205692 0.135574 10,000 87 345 64
2019-12-11 06:51:30 GMT 51.205414 0.126343 10,000 87 347 -64
2019-12-11 06:51:26 GMT 51.205135 0.116501 10,000 87 323 1024
2019-12-11 06:51:23 GMT 51.204994 0.110016 10,000 87 347 -64
2019-12-11 06:51:20 GMT 51.204575 0.095314 10,000 87 347 -64
2019-12-11 06:51:17 GMT 51.204575 0.095314 10,000 87 346 -64
2019-12-11 06:51:14 GMT 51.204391 0.088262 10,000 87 346 0
2019-12-11 06:51:11 GMT 51.204025 0.074306 10,000 87 345 128
2019-12-11 06:51:08 GMT 51.203979 0.073044 10,000 87 344 192
2019-12-11 06:51:05 GMT 51.203751 0.064879 10,000 87 341 128
2019-12-11 06:51:02 GMT 51.203506 0.055237 9,975 87 341 192
2019-12-11 06:50:58 GMT 51.203293 0.047805 9,975 87 341 128
2019-12-11 06:50:55 GMT 51.203064 0.039788 9,950 87 341 64
2019-12-11 06:50:52 GMT 51.202805 0.029068 9,950 87 341 64
2019-12-11 06:50:49 GMT 51.202698 0.025833 9,950 87 340 64
2019-12-11 06:50:46 GMT 51.202480 0.018311 9,950 87 340 64
2019-12-11 06:50:43 GMT 51.202286 0.009873 9,950 87 331 640
2019-12-11 06:50:40 GMT 51.202057 0.002969 9,950 87 336 384
2019-12-11 06:50:37 GMT 51.201874 -0.004425 9,950 87 331 640
2019-12-11 06:50:34 GMT 51.201645 -0.012207 9,875 87 314 1600
2019-12-11 06:50:31 GMT 51.201370 -0.021379 9,800 87 318 1344
2019-12-11 06:50:28 GMT 51.201187 -0.027837 9,800 87 319 1216
2019-12-11 06:50:25 GMT 51.200775 -0.043426 9,625 87 308 1984
2019-12-11 06:50:19 GMT 51.200684 -0.047508 9,475 87 306 2176
2019-12-11 06:50:16 GMT 51.200478 -0.054245 9,400 87 303 2496
2019-12-11 06:50:13 GMT 51.200272 -0.062800 9,250 87 302 2560
2019-12-11 06:50:10 GMT 51.200134 -0.067106 9,225 87 302 2560
2019-12-11 06:50:07 GMT 51.199722 -0.083140 8,925 87 296 3008
2019-12-11 06:50:04 GMT 51.199722 -0.083140 8,850 87 296 2944
2019-12-11 06:50:01 GMT 51.199631 -0.087371 8,750 87 297 2816
2019-12-11 06:49:58 GMT 51.199314 -0.100784 8,575 87 295 3072
2019-12-11 06:49:55 GMT 51.199314 -0.100784 8,375 87 295 3200
2019-12-11 06:49:52 GMT 51.199127 -0.107727 8,350 87 295 3264
2019-12-11 06:49:49 GMT 51.198944 -0.114243 8,150 87 294 3328
2019-12-11 06:49:46 GMT 51.198807 -0.119365 8,025 87 294 3328
2019-12-11 06:49:43 GMT 51.198578 -0.128421 7,875 87 294 3264
2019-12-11 06:49:40 GMT 51.198257 -0.140966 7,475 87 293 2880
2019-12-11 06:49:37 GMT 51.198257 -0.140966 7,475 87 293 2752
2019-12-11 06:49:33 GMT 51.197826 -0.157013 7,200 87 288 1984
2019-12-11 06:49:30 GMT 51.197826 -0.157013 7,125 87 286 1856
2019-12-11 06:49:27 GMT 51.197731 -0.162048 7,075 87 286 1856
2019-12-11 06:49:24 GMT 51.197571 -0.168210 7,000 87 284 1728
2019-12-11 06:49:21 GMT 51.197479 -0.173554 6,850 87 277 1536
2019-12-11 06:49:18 GMT 51.197296 -0.181349 6,800 88 275 1536
2019-12-11 06:49:15 GMT 51.197220 -0.186157 6,625 88 267 1600
2019-12-11 06:49:12 GMT 51.197079 -0.191650 6,575 88 262 1728
2019-12-11 06:49:09 GMT 51.196941 -0.197906 6,575 88 263 1664
2019-12-11 06:49:05 GMT 51.196800 -0.205460 6,500 88 259 1792
2019-12-11 06:49:02 GMT 51.196518 -0.217871 6,325 87 254 2240
2019-12-11 06:48:58 GMT 51.196518 -0.217871 6,200 87 252 2624
2019-12-11 06:48:55 GMT 51.196335 -0.225665 6,075 87 251 2688
2019-12-11 06:48:52 GMT 51.196198 -0.229302 5,925 86 252 2368
2019-12-11 06:48:49 GMT 51.195965 -0.235291 5,800 85 252 1920
2019-12-11 06:48:46 GMT 51.195602 -0.242219 5,675 83 253 1728
2019-12-11 06:48:43 GMT 51.195358 -0.246658 5,625 83 252 1728
2019-12-11 06:48:40 GMT 51.194916 -0.252240 5,550 82 253 1792
2019-12-11 06:48:37 GMT 51.194550 -0.256546 5,450 81 252 1792
2019-12-11 06:48:34 GMT 51.193123 -0.269394 5,275 78 252 1792
2019-12-11 06:48:31 GMT 51.193123 -0.269394 5,250 76 252 1792
2019-12-11 06:48:27 GMT 51.192146 -0.275955 5,125 75 251 1856
2019-12-11 06:48:24 GMT 51.190563 -0.283737 4,975 69 251 1792
2019-12-11 06:48:21 GMT 51.189606 -0.287426 4,925 65 251 1792
2019-12-11 06:48:18 GMT 51.188560 -0.291138 4,850 60 250 1728
2019-12-11 06:48:15 GMT 51.186977 -0.295563 4,750 52 249 1792
2019-12-11 06:48:12 GMT 51.181767 -0.305862 4,625 349 229 1408
2019-12-11 06:48:08 GMT 51.181767 -0.305862 4,475 34 245 1856
2019-12-11 06:48:05 GMT 51.178600 -0.310211 4,450 32 244 1856
2019-12-11 06:48:02 GMT 51.176830 -0.312195 4,375 30 243 1856
2019-12-11 06:47:58 GMT 51.172176 -0.316086 4,200 19 238 1728
2019-12-11 06:47:55 GMT 51.169281 -0.317713 4,150 12 237 1344
2019-12-11 06:47:52 GMT 51.166122 -0.318832 4,075 7 237 1024
2019-12-11 06:47:48 GMT 51.161469 -0.319519 3,975 358 233 1024
2019-12-11 06:47:45 GMT 51.158722 -0.319214 3,700 345 227 1536
2019-12-11 06:47:41 GMT 51.154083 -0.317861 3,800 335 224 1536
2019-12-11 06:47:37 GMT 51.150204 -0.315781 3,725 333 223 1536
2019-12-11 06:47:34 GMT 51.147690 -0.313644 3,650 325 222 1536
2019-12-11 06:47:31 GMT 51.145157 -0.310883 3,150 308 218 1408
2019-12-11 06:47:27 GMT 51.141964 -0.306168 3,475 302 217 1344
2019-12-11 06:47:24 GMT 51.140053 -0.302048 3,425 302 217 1344
2019-12-11 06:47:21 GMT 51.138889 -0.298767 3,375 295 216 1472
2019-12-11 06:47:17 GMT 51.137238 -0.291806 2,500 258 181 1216
2019-12-11 06:47:14 GMT 51.136795 -0.288620 3,150 259 194 1536
2019-12-11 06:47:10 GMT 51.136505 -0.282898 2,700 259 194 1536
2019-12-11 06:47:07 GMT 51.136917 -0.275401 2,850 259 195 1664
2019-12-11 06:47:04 GMT 51.137119 -0.273895 2,825 259 195 1664
2019-12-11 06:47:01 GMT 51.137772 -0.268860 2,725 258 191 1408
2019-12-11 06:46:58 GMT 51.138470 -0.263901 2,650 258 186 1216
2019-12-11 06:46:54 GMT 51.138939 -0.260239 2,425 259 178 1216
2019-12-11 06:46:50 GMT 51.139683 -0.254669 2,475 258 176 1216
2019-12-11 06:46:45 GMT 51.140659 -0.247498 2,225 259 162 1344
2019-12-11 06:46:40 GMT 51.141312 -0.242590 2,275 259 162 1344
2019-12-11 06:46:35 GMT 51.142010 -0.237122 2,175 259 156 1536
2019-12-11 06:46:32 GMT 51.142475 -0.233536 2,100 259 153 1856
2019-12-11 06:46:29 GMT 51.142895 -0.230484 2,000 259 152 2048
2019-12-11 06:46:26 GMT 51.143452 -0.226059 1,925 259 150 2112
2019-12-11 06:46:22 GMT 51.144104 -0.221100 1,725 259 148 3520
2019-12-11 06:46:19 GMT 51.144379 -0.218984 1,600 259 148 3520
2019-12-11 06:46:16 GMT 51.144848 -0.215302 1,075 259 153 3200
2019-12-11 06:46:12 GMT 51.145267 -0.212326 1,175 259 153 3200
2019-12-11 06:46:09 GMT 51.145779 -0.208282 975 259 154 3008
2019-12-11 06:46:01 GMT 51.146942 -0.199164 575 259 159 2304
2019-12-11 06:45:58 GMT 51.147446 -0.195378 500 259 159 1856
2019-12-11 06:45:51 GMT 51.148457 -0.188046 0 258 150
2019-12-11 06:45:43 GMT 51.149609 -0.179634 0 258 115
2019-12-11 06:45:04 GMT 51.151142 -0.168544 0 109 10
2019-12-11 06:44:53 GMT 51.151157 -0.168362 0 247 6
2019-12-11 06:44:45 GMT 51.151260 -0.168018 0 213 9
2019-12-11 06:44:35 GMT 51.151714 -0.167876 0 168 13
2019-12-11 06:44:24 GMT 51.152191 -0.168400 0 109 10
2019-12-11 06:44:18 GMT 51.152241 -0.168748 0 87 8
2019-12-11 06:44:13 GMT 51.152218 -0.168991 0 78 6
2019-12-11 06:43:55 GMT 51.152191 -0.169163 0 78 0
2019-12-11 06:43:49 GMT 51.152195 -0.169175 0 78 0
2019-12-11 06:43:24 GMT 51.152191 -0.169163 0 78 0
2019-12-11 06:43:14 GMT 51.152195 -0.169175 0 78 0
2019-12-11 06:42:49 GMT 51.152191 -0.169163 0 78 0
2019-12-11 06:42:19 GMT 51.152195 -0.169175 0 78 0
2019-12-11 06:42:09 GMT 51.152191 -0.169182 0 78 0
2019-12-11 06:41:59 GMT 51.152195 -0.169175 0 78 0
2019-12-11 06:41:49 GMT 51.152191 -0.169182 0 78 0
2019-12-11 06:41:19 GMT 51.152195 -0.169175 0 78 0
2019-12-11 06:41:04 GMT 51.152191 -0.169163 0 78 0
2019-12-11 06:40:49 GMT 51.152195 -0.169175 0 78 0
2019-12-11 06:40:34 GMT 51.152191 -0.169163 0 78 0
2019-12-11 06:39:37 GMT 51.152195 -0.169193 0 78 1
2019-12-11 06:39:29 GMT 51.152180 -0.169353 0 78 5
2019-12-11 06:39:15 GMT 51.152103 -0.169898 0 78 6
2019-12-11 06:38:57 GMT 51.152046 -0.170325 0 78 1
2019-12-11 06:38:02 GMT 51.152042 -0.170326 0 78 0
2019-12-11 06:37:37 GMT 51.152031 -0.170326 0 78 0
2019-12-11 06:37:22 GMT 51.152035 -0.170325 0 78 0
2019-12-11 06:37:17 GMT 51.152031 -0.170326 0 78 0
2019-12-11 06:37:07 GMT 51.152023 -0.170325 0 78 0
2019-12-11 06:36:56 GMT 51.152031 -0.170326 0 78 0
2019-12-11 06:36:46 GMT 51.152035 -0.170325 0 78 0
2019-12-11 06:36:28 GMT 51.152031 -0.170326 0 78 0
2019-12-11 06:36:16 GMT 51.152035 -0.170325 0 78 0
2019-12-11 06:35:57 GMT 51.151997 -0.170631 0 78 5
2019-12-11 06:35:44 GMT 51.151955 -0.170975 0 75 6
2019-12-11 06:35:36 GMT 51.151901 -0.171375 0 75 10
2019-12-11 06:35:26 GMT 51.151821 -0.172043 0 90 9
2019-12-11 06:35:11 GMT 51.152161 -0.172793 0 143 11
2019-12-11 06:35:05 GMT 51.152321 -0.172979 0 146 11
2019-12-11 06:34:59 GMT 51.152508 -0.173206 0 146 10
2019-12-11 06:34:56 GMT 51.152695 -0.173397 0 160 9
2019-12-11 06:34:38 GMT 51.153625 -0.173740 0 165 16
2019-12-11 06:34:35 GMT 51.153763 -0.173779 0 168 16
2019-12-11 06:34:24 GMT 51.154472 -0.174018 0 168 17
2019-12-11 06:34:09 GMT 51.155571 -0.174408 0 168 16
2019-12-11 06:33:52 GMT 51.156704 -0.174798 0 168 13
2019-12-11 06:33:49 GMT 51.156872 -0.174866 0 168 12
2019-12-11 06:33:45 GMT 51.157139 -0.174928 0 171 11
2019-12-11 06:33:39 GMT 51.157337 -0.175018 0 146 10
2019-12-11 06:33:33 GMT 51.157524 -0.175343 0 98 9
2019-12-11 06:33:28 GMT 51.157536 -0.175629 0 78 10
2019-12-11 06:33:21 GMT 51.157471 -0.176171 0 78 12
2019-12-11 06:32:56 GMT 51.157288 -0.177748 0 75 6
2019-12-11 06:32:52 GMT 51.157276 -0.177879 0 75 4
2019-12-11 06:32:23 GMT 51.157219 -0.178008 0 75 0
2019-12-11 06:32:17 GMT 51.157196 -0.177990 0 75 0
2019-12-11 06:32:13 GMT 51.157185 -0.178008 0 75 0
2019-12-11 06:31:47 GMT 51.157219 -0.178032 0 75 0
2019-12-11 06:31:38 GMT 51.157230 -0.178032 0 75 0
2019-12-11 06:31:28 GMT 51.157242 -0.178045 0 75 0
2019-12-11 06:31:22 GMT 51.157253 -0.178045 0 75 0
2019-12-11 06:31:05 GMT 51.157230 -0.178045 0 75 0
2019-12-11 06:30:56 GMT 51.157230 -0.178089 0 75 0
2019-12-11 06:30:41 GMT 51.157162 -0.178089 0 75 0
2019-12-11 06:30:21 GMT 51.157173 -0.178146 0 75 0
2019-12-11 06:30:18 GMT 51.157173 -0.178157 0 75 0
2019-12-11 06:30:11 GMT 51.157207 -0.178032 0 75 0
2019-12-11 06:30:06 GMT 51.157196 -0.178127 0 75 0
2019-12-11 06:30:01 GMT 51.157207 -0.178127 0 75 0
2019-12-11 06:29:54 GMT 51.157219 -0.178120 0 75 0
2019-12-11 06:29:47 GMT 51.157207 -0.178089 0 75 0
2019-12-11 06:29:32 GMT 51.157196 -0.178070 0 75 0
2019-12-11 06:29:02 GMT 51.157253 -0.178045 0 75 0
2019-12-11 06:28:46 GMT 51.157276 -0.178008 0 75 0
2019-12-11 06:28:41 GMT 51.157230 -0.177975 0 75 0
2019-12-11 06:28:38 GMT 51.157230 -0.177956 0 75 0
2019-12-11 06:28:31 GMT 51.157253 -0.177971 0 75 1
2019-12-11 06:28:11 GMT 51.157242 -0.177971 0 75 1
2019-12-11 06:28:07 GMT 51.157242 -0.177898 0 75 3
2019-12-11 06:27:40 GMT 51.157349 -0.177383 0 64 3
2019-12-11 06:27:32 GMT 51.157372 -0.177269 0 61 3
2019-12-11 06:26:56 GMT 51.157722 -0.176792 0 30 3
2019-12-11 06:26:31 GMT 51.158043 -0.176858 0 354 3
2019-12-11 06:26:27 GMT 51.158112 -0.176876 0 351 3

Making use of Plane Finder data

You are free to use the raw flight data, aircraft information and images provided in this report for your own purposes provided the data is correctly attributed to Plane Finder. We ask that you please credit Plane Finder and link to planefinder.net in close proximity to the content.

Optionally one of the following logos (no smaller then 150x24px) can be used and must link to planefinder.net

Embedding the Plane Finder map

You are welcome to embed the Plane Finder playback map on your website to offer visitors a more interactive experience. We suggest using the following HTML code:

<iframe src="//planefinder.net/data/report/U28973-G-EZGA-7700-squawk-2019-12-11/map" width="800" height="600" seamless="seamless"></iframe>

Where our data comes from

Plane Finder has a global network of data feeds and antenna radars that receive data broadcast directly from aircraft. The primary technologies used are ADS-B and MLAT. We also show feeds from the FAA and a FLARM glider feed.

Click here to find out more about the Plane Finder network.

How we collect our data